Darstellungsparameter: Aktuell verwendete Einstellungen:
Skalierung der Graphiken ... ?
xyx+y,   Skalierungsfaktor:      Skalierung: Modus: x, Faktor: 1
Darstellungszeitraum ... ?
Vom - - bis: - -   Zeitraum: 20.08.2010 - 19.09.2010
Min/Max/Avg-Anzeige ... ?
Zeige MMA aktuell
Zeige MMA Monat
Zeige MMA alles
Zeige --A aktuell
Zeige --A Monat
Zeige --A alles
Keine MMA-Anzeige
MMA:
Average (ber die Originaldaten)
MMA-Basis: 23.02.2003 - 29.09.2020
Quicknavigation für Darstellung... ?
Tage:      1T, 2T, 3T, 5T -1T -2T -3T -5T +1T +2T +3T +5T
Wochen: 1W, 2W, 3W -1W -2W -3W +1W +2W +3W
Monate: 1M, 3M, 6M -1M -3M -6M +1M +3M +6M
Jahre:    1J, 3J, 5J, 10J -1J -3J -5J -10J +1J +3J +5J +10J
Nutze für die Darstellung ... ?
Originaldaten oder Mittelwerte auf ...
Stundenbasis Tagesbasis Wochenbasis
Monatsbasis Jahresbasis      Datenbasis: Original-Daten
Darstellen als:
Statistik (Auto) Statistik J:M      Darstellung:
Zur Graphik,    zurück zur Übersicht aller Sensoren.
 
Tabellarische Datenbersicht: ?
 
Sensor: Nr:Datum:Temp:Abs-Feuchte:Windchill:Wind:
Aussen-T/F 1 20-08-2010 00:11:36 15.1 C 8.51 g/m*3 15.1 C 0 km/h
2 20-08-2010 00:23:36 14.9 C 8.54 g/m*3 14.9 C 0 km/h
3 20-08-2010 00:35:36 14.7 C 8.56 g/m*3 14.7 C 0 km/h
4 20-08-2010 00:47:36 14.5 C 8.58 g/m*3 14.5 C 0 km/h
5 20-08-2010 00:59:36 14.4 C 8.53 g/m*3 14.4 C 0 km/h
6 20-08-2010 01:11:36 14.3 C 8.6 g/m*3 14.3 C 0 km/h
7 20-08-2010 01:23:36 14.2 C 8.67 g/m*3 14.2 C 0 km/h
8 20-08-2010 01:35:36 13.9 C 8.63 g/m*3 13.9 C 0 km/h
9 20-08-2010 01:47:37 14 C 8.56 g/m*3 14 C 0 km/h
10 20-08-2010 01:59:37 13.8 C 8.58 g/m*3 13.8 C 0 km/h
11 20-08-2010 02:11:37 13.6 C 8.59 g/m*3 13.6 C 0 km/h
12 20-08-2010 02:23:37 13.5 C 8.54 g/m*3 13.5 C 0 km/h
13 20-08-2010 02:35:37 13.3 C 8.66 g/m*3 13.3 C 0 km/h
14 20-08-2010 02:47:37 13.2 C 8.61 g/m*3 13.2 C 0 km/h
15 20-08-2010 02:59:37 13.1 C 8.56 g/m*3 13.1 C 0 km/h
16 20-08-2010 03:11:37 13 C 8.62 g/m*3 13 C 0 km/h
17 20-08-2010 03:23:03 12.9 C 8.68 g/m*3 12.9 C 0 km/h
18 20-08-2010 03:35:03 12.8 C 8.62 g/m*3 12.8 C 0 km/h
19 20-08-2010 03:47:03 12.7 C 8.57 g/m*3 12.7 C 0 km/h
20 20-08-2010 03:59:03 12.6 C 8.63 g/m*3 12.6 C 0 km/h
21 20-08-2010 04:11:03 12.4 C 8.63 g/m*3 12.4 C 0 km/h
22 20-08-2010 04:23:03 12.4 C 8.63 g/m*3 12.4 C 0 km/h
23 20-08-2010 04:35:03 12.3 C 8.58 g/m*3 12.3 C 0 km/h
24 20-08-2010 04:47:03 12.1 C 8.47 g/m*3 12.1 C 0 km/h
25 20-08-2010 04:59:03 12.1 C 8.58 g/m*3 12.1 C 0 km/h
Sensor: Nr:Datum:Temp:Abs-Feuchte:Windchill:Wind:
Aussen-T/F 26 20-08-2010 05:11:03 12 C 8.53 g/m*3 12 C 0 km/h
27 20-08-2010 05:23:03 12 C 8.63 g/m*3 12 C 0 km/h
28 20-08-2010 05:35:03 12 C 8.53 g/m*3 12 C 0 km/h
29 20-08-2010 05:47:03 11.8 C 8.53 g/m*3 11.8 C 0 km/h
30 20-08-2010 05:59:03 11.7 C 8.58 g/m*3 11.7 C 0 km/h
31 20-08-2010 06:11:03 11.6 C 8.52 g/m*3 11.6 C 0 km/h
32 20-08-2010 06:23:04 11.5 C 8.57 g/m*3 11.5 C 0 km/h
33 20-08-2010 06:35:04 11.4 C 8.52 g/m*3 11.4 C 0 km/h
34 20-08-2010 06:47:04 11.4 C 8.52 g/m*3 11.4 C 0 km/h
35 20-08-2010 06:59:04 11.5 C 8.57 g/m*3 11.5 C 0 km/h
36 20-08-2010 07:11:04 11.6 C 8.63 g/m*3 11.6 C 0 km/h
37 20-08-2010 07:23:04 11.6 C 8.73 g/m*3 11.6 C 0 km/h
38 20-08-2010 07:35:03 11.7 C 8.79 g/m*3 11.7 C 0 km/h
39 20-08-2010 07:47:03 11.8 C 8.84 g/m*3 11.8 C 0 km/h
40 20-08-2010 07:59:03 12.1 C 8.9 g/m*3 12.1 C 0 km/h
41 20-08-2010 08:11:02 12.1 C 9.01 g/m*3 12.1 C 0 km/h
42 20-08-2010 08:23:02 12.3 C 9.12 g/m*3 12.3 C 0 km/h
43 20-08-2010 08:35:02 12.5 C 9.24 g/m*3 12.5 C 0 km/h
44 20-08-2010 08:47:02 12.8 C 9.3 g/m*3 12.8 C 0 km/h
45 20-08-2010 08:59:02 13 C 9.3 g/m*3 13 C 0 km/h
46 20-08-2010 09:11:02 13.3 C 9.47 g/m*3 13.3 C 0 km/h
47 20-08-2010 09:23:02 13.8 C 9.77 g/m*3 13.8 C 0 km/h
48 20-08-2010 09:35:02 14.4 C 9.89 g/m*3 14.4 C 0 km/h
49 20-08-2010 09:47:02 15 C 10 g/m*3 15 C 0 km/h
50 20-08-2010 09:59:02 16 C 10.08 g/m*3 16 C 0 km/h
Sensor: Nr:Datum:Temp:Abs-Feuchte:Windchill:Wind:
Aussen-T/F 51 20-08-2010 10:11:01 16.8 C 10.29 g/m*3 16.8 C 0 km/h
52 20-08-2010 10:23:01 17.4 C 10.23 g/m*3 17.4 C 0 km/h
53 20-08-2010 10:35:02 18.1 C 10.2 g/m*3 18.1 C 0 km/h
54 20-08-2010 10:47:02 18.6 C 10.35 g/m*3 18.6 C 0 km/h
55 20-08-2010 10:59:02 19.2 C 10.39 g/m*3 19.2 C 0 km/h
56 20-08-2010 11:11:02 19.8 C 10.76 g/m*3 19.8 C 0 km/h
57 20-08-2010 11:23:02 20.5 C 10.68 g/m*3 20.5 C 0 km/h
58 20-08-2010 11:35:02 20.9 C 10.75 g/m*3 20.9 C 0 km/h
59 20-08-2010 11:47:02 21.7 C 11.06 g/m*3 21.7 C 0 km/h
60 20-08-2010 11:59:02 22 C 11.06 g/m*3 22 C 0 km/h
61 20-08-2010 12:11:02 22.8 C 10.97 g/m*3 22.8 C 0 km/h
62 20-08-2010 12:23:02 23.2 C 10.6 g/m*3 23.2 C 0 km/h
63 20-08-2010 12:35:02 23.7 C 11.12 g/m*3 23.7 C 0 km/h
64 20-08-2010 12:47:01 24.1 C 10.72 g/m*3 24.1 C 0 km/h
65 20-08-2010 12:59:01 25 C 10.82 g/m*3 25 C 0 km/h
66 20-08-2010 13:11:01 25.6 C 9.52 g/m*3 25.6 C 0 km/h
67 20-08-2010 13:23:01 26.4 C 9.71 g/m*3 26.4 C 0 km/h
68 20-08-2010 13:35:01 27 C 9.01 g/m*3 27 C 0 km/h
69 20-08-2010 13:47:02 27.5 C 9 g/m*3 27.5 C 0 km/h
70 20-08-2010 13:59:02 27.3 C 7.85 g/m*3 27.3 C 0 km/h
71 20-08-2010 14:11:02 27.8 C 8.07 g/m*3 27.8 C 0 km/h
72 20-08-2010 14:23:03 28.4 C 8.06 g/m*3 28.4 C 0 km/h
73 20-08-2010 14:35:02 28.1 C 7.11 g/m*3 28.1 C 0 km/h
74 20-08-2010 14:47:02 28.6 C 8.43 g/m*3 28.6 C 0 km/h
75 20-08-2010 14:59:02 28.9 C 7.43 g/m*3 28.9 C 0 km/h
Sensor: Nr:Datum:Temp:Abs-Feuchte:Windchill:Wind:
Aussen-T/F 76 20-08-2010 15:11:02 28.9 C 7.43 g/m*3 28.9 C 0 km/h
77 20-08-2010 15:23:02 29 C 7.18 g/m*3 29 C 0 km/h
78 20-08-2010 15:35:01 29.5 C 7.67 g/m*3 29.5 C 0 km/h
79 20-08-2010 15:47:02 30.1 C 7.32 g/m*3 30.1 C 0 km/h
80 20-08-2010 15:59:02 30.2 C 7.66 g/m*3 30.2 C 0 km/h
81 20-08-2010 16:11:01 30.4 C 7.75 g/m*3 30.4 C 0 km/h
82 20-08-2010 16:23:02 30.5 C 7.48 g/m*3 30.5 C 0 km/h
83 20-08-2010 16:35:02 30.9 C 7.96 g/m*3 30.9 C 0 km/h
84 20-08-2010 16:47:02 31 C 7.36 g/m*3 31 C 0 km/h
85 20-08-2010 16:59:02 30.8 C 7.28 g/m*3 30.8 C 0 km/h
86 20-08-2010 17:11:02 30.9 C 7.64 g/m*3 30.9 C 0 km/h
87 20-08-2010 17:23:02 31.2 C 7.12 g/m*3 31.2 C 0 km/h
88 20-08-2010 17:35:02 31.3 C 7.48 g/m*3 31.3 C 0 km/h
89 20-08-2010 17:47:02 31.4 C 7.19 g/m*3 31.4 C 0 km/h
90 20-08-2010 17:59:02 31 C 7.04 g/m*3 31 C 0 km/h
91 20-08-2010 18:11:02 31.3 C 7.48 g/m*3 31.3 C 0 km/h
92 20-08-2010 18:23:02 31.4 C 7.52 g/m*3 31.4 C 0 km/h
93 20-08-2010 18:35:02 31.5 C 7.56 g/m*3 31.5 C 0 km/h
94 20-08-2010 18:47:02 31 C 7.36 g/m*3 31 C 0 km/h
95 20-08-2010 18:59:02 30.9 C 8.28 g/m*3 30.9 C 0 km/h
96 20-08-2010 19:11:02 30.6 C 8.46 g/m*3 30.6 C 0 km/h
97 20-08-2010 19:23:03 30.3 C 8.63 g/m*3 30.3 C 0 km/h
98 20-08-2010 19:35:01 30 C 8.49 g/m*3 30 C 0 km/h
99 20-08-2010 19:47:02 29 C 8.04 g/m*3 29 C 0 km/h
100 20-08-2010 19:59:02 28 C 8.43 g/m*3 28 C 0 km/h
Sensor: Nr:Datum:Temp:Abs-Feuchte:Windchill:Wind:
Aussen-T/F 101 20-08-2010 20:11:02 26.6 C 8.81 g/m*3 26.6 C 0 km/h
102 20-08-2010 20:23:02 25.6 C 9.05 g/m*3 25.6 C 0 km/h
103 20-08-2010 20:35:01 25 C 9.21 g/m*3 25 C 0 km/h
104 20-08-2010 20:47:02 24.5 C 8.95 g/m*3 24.5 C 0 km/h
105 20-08-2010 20:59:03 23.8 C 9.25 g/m*3 23.8 C 0 km/h
106 20-08-2010 21:11:01 23.4 C 9.25 g/m*3 23.4 C 0 km/h
107 20-08-2010 21:23:01 23.3 C 9.41 g/m*3 23.3 C 0 km/h
108 20-08-2010 21:35:01 23.2 C 9.56 g/m*3 23.2 C 0 km/h
109 20-08-2010 21:47:02 22.9 C 9.81 g/m*3 22.9 C 0 km/h
110 20-08-2010 21:59:02 22.6 C 9.84 g/m*3 22.6 C 0 km/h
111 20-08-2010 22:11:02 22.5 C 9.99 g/m*3 22.5 C 0 km/h
112 20-08-2010 22:23:03 22.1 C 9.96 g/m*3 22.1 C 0 km/h
113 20-08-2010 22:35:02 21.9 C 10.42 g/m*3 21.9 C 0 km/h
114 20-08-2010 22:48:02 21.6 C 10.43 g/m*3 21.6 C 0 km/h
115 20-08-2010 23:00:02 21.4 C 10.5 g/m*3 21.4 C 0 km/h
116 20-08-2010 23:12:02 21.1 C 10.69 g/m*3 21.1 C 0 km/h
117 20-08-2010 23:24:02 20.9 C 10.75 g/m*3 20.9 C 0 km/h
118 20-08-2010 23:36:02 20.7 C 10.62 g/m*3 20.7 C 0 km/h
119 20-08-2010 23:48:02 20.4 C 10.61 g/m*3 20.4 C 0 km/h
120 21-08-2010 00:00:02 20.2 C 10.67 g/m*3 20.2 C 0 km/h
121 21-08-2010 00:12:02 20 C 10.71 g/m*3 20 C 0 km/h
122 21-08-2010 00:24:02 19.7 C 10.7 g/m*3 19.7 C 0 km/h
123 21-08-2010 00:36:02 19.6 C 10.8 g/m*3 19.6 C 0 km/h
124 21-08-2010 00:48:02 19.3 C 10.95 g/m*3 19.3 C 0 km/h
125 21-08-2010 01:00:02 19.1 C 10.98 g/m*3 19.1 C 0 km/h
Sensor: Nr:Datum:Temp:Abs-Feuchte:Windchill:Wind:
Aussen-T/F 126 21-08-2010 01:12:02 19 C 10.92 g/m*3 19 C 0 km/h
127 21-08-2010 01:24:02 18.8 C 11.11 g/m*3 18.8 C 0 km/h
128 21-08-2010 01:36:02 18.7 C 11.05 g/m*3 18.7 C 0 km/h
129 21-08-2010 01:48:02 18.6 C 10.98 g/m*3 18.6 C 0 km/h
130 21-08-2010 02:00:02 18.4 C 11.01 g/m*3 18.4 C 0 km/h
131 21-08-2010 02:12:02 18.2 C 11.04 g/m*3 18.2 C 0 km/h
132 21-08-2010 02:24:03 18.1 C 10.97 g/m*3 18.1 C 0 km/h
133 21-08-2010 02:36:03 18.1 C 11.12 g/m*3 18.1 C 0 km/h
134 21-08-2010 02:48:03 18 C 11.06 g/m*3 18 C 0 km/h
135 21-08-2010 03:00:03 17.9 C 11.15 g/m*3 17.9 C 0 km/h
136 21-08-2010 03:12:03 17.8 C 11.08 g/m*3 17.8 C 0 km/h
137 21-08-2010 03:24:03 17.7 C 11.16 g/m*3 17.7 C 0 km/h
138 21-08-2010 03:36:03 17.5 C 11.03 g/m*3 17.5 C 0 km/h
139 21-08-2010 03:48:03 17.4 C 11.12 g/m*3 17.4 C 0 km/h
140 21-08-2010 04:00:03 17.3 C 11.2 g/m*3 17.3 C 0 km/h
141 21-08-2010 04:12:03 17.2 C 11.13 g/m*3 17.2 C 0 km/h
142 21-08-2010 04:24:03 17.1 C 11.06 g/m*3 17.1 C 0 km/h
143 21-08-2010 04:36:03 16.9 C 11.08 g/m*3 16.9 C 0 km/h
144 21-08-2010 04:48:03 16.8 C 11.15 g/m*3 16.8 C 0 km/h
145 21-08-2010 05:00:03 16.7 C 11.08 g/m*3 16.7 C 0 km/h
146 21-08-2010 05:12:03 16.5 C 10.95 g/m*3 16.5 C 0 km/h
147 21-08-2010 05:24:03 16.5 C 10.95 g/m*3 16.5 C 0 km/h
148 21-08-2010 05:36:03 16.3 C 10.82 g/m*3 16.3 C 0 km/h
149 21-08-2010 05:48:03 16.3 C 10.96 g/m*3 16.3 C 0 km/h
150 21-08-2010 06:00:03 16.2 C 10.89 g/m*3 16.2 C 0 km/h
Sensor: Nr:Datum:Temp:Abs-Feuchte:Windchill:Wind:
Aussen-T/F 151 21-08-2010 06:12:03 16.1 C 10.83 g/m*3 16.1 C 0 km/h
152 21-08-2010 06:24:04 16 C 10.9 g/m*3 16 C 0 km/h
153 21-08-2010 06:36:04 16 C 10.9 g/m*3 16 C 0 km/h
154 21-08-2010 06:48:04 15.9 C 10.97 g/m*3 15.9 C 0 km/h
155 21-08-2010 07:00:04 15.8 C 10.9 g/m*3 15.8 C 0 km/h
156 21-08-2010 07:12:04 15.9 C 11.1 g/m*3 15.9 C 0 km/h
157 21-08-2010 07:24:04 16 C 11.04 g/m*3 16 C 0 km/h
158 21-08-2010 07:36:04 16.1 C 11.1 g/m*3 16.1 C 0 km/h
159 21-08-2010 07:48:04 16.2 C 11.17 g/m*3 16.2 C 0 km/h
160 21-08-2010 08:00:04 16.4 C 11.31 g/m*3 16.4 C 0 km/h
161 21-08-2010 08:12:02 16.6 C 11.58 g/m*3 16.6 C 0 km/h
162 21-08-2010 08:24:02 16.7 C 11.51 g/m*3 16.7 C 0 km/h
163 21-08-2010 08:36:02 17 C 11.58 g/m*3 17 C 0 km/h
164 21-08-2010 08:48:01 17.2 C 11.72 g/m*3 17.2 C 0 km/h
165 21-08-2010 09:00:01 17.5 C 11.78 g/m*3 17.5 C 0 km/h
166 21-08-2010 09:12:02 17.9 C 12.06 g/m*3 17.9 C 0 km/h
167 21-08-2010 09:24:02 18.4 C 12.27 g/m*3 18.4 C 0 km/h
168 21-08-2010 09:36:01 18.9 C 12.47 g/m*3 18.9 C 0 km/h
169 21-08-2010 09:48:02 19.4 C 12.51 g/m*3 19.4 C 0 km/h
170 21-08-2010 10:00:02 20.2 C 12.76 g/m*3 20.2 C 0 km/h
171 21-08-2010 10:12:02 20.8 C 12.86 g/m*3 20.8 C 0 km/h
172 21-08-2010 10:24:02 21.3 C 12.86 g/m*3 21.3 C 0 km/h
173 21-08-2010 10:36:01 22 C 12.81 g/m*3 22 C 0 km/h
174 21-08-2010 10:48:02 22.7 C 12.93 g/m*3 22.7 C 0 km/h
175 21-08-2010 11:00:02 23.3 C 12.96 g/m*3 23.3 C 0 km/h
Sensor: Nr:Datum:Temp:Abs-Feuchte:Windchill:Wind:
Aussen-T/F 176 21-08-2010 11:12:01 24 C 12.84 g/m*3 24 C 0 km/h
177 21-08-2010 11:24:02 24.7 C 12.68 g/m*3 24.7 C 0 km/h
178 21-08-2010 11:36:02 25.5 C 11.6 g/m*3 25.5 C 0 km/h
179 21-08-2010 11:48:01 26.3 C 10.4 g/m*3 26.3 C 0 km/h
180 21-08-2010 12:00:01 26.8 C 9.93 g/m*3 26.8 C 0 km/h
181 21-08-2010 12:12:01 27.2 C 9.89 g/m*3 27.2 C 0 km/h
182 21-08-2010 12:24:01 27.7 C 9.9 g/m*3 27.7 C 0 km/h
183 21-08-2010 12:36:01 27.9 C 10.01 g/m*3 27.9 C 0 km/h
184 21-08-2010 12:48:02 28.1 C 9.3 g/m*3 28.1 C 0 km/h
185 21-08-2010 13:00:02 28.4 C 9.73 g/m*3 28.4 C 0 km/h
186 21-08-2010 13:12:02 28.8 C 9.38 g/m*3 28.8 C 0 km/h
187 21-08-2010 13:24:01 29.2 C 9 g/m*3 29.2 C 0 km/h
188 21-08-2010 13:36:02 29.5 C 8.85 g/m*3 29.5 C 0 km/h
189 21-08-2010 13:48:01 29.7 C 8.95 g/m*3 29.7 C 0 km/h
190 21-08-2010 14:00:01 29.9 C 9.05 g/m*3 29.9 C 0 km/h
191 21-08-2010 14:12:02 30.3 C 8.94 g/m*3 30.3 C 0 km/h
192 21-08-2010 14:24:01 30.3 C 8.63 g/m*3 30.3 C 0 km/h
193 21-08-2010 14:36:02 30.6 C 8.46 g/m*3 30.6 C 0 km/h
194 21-08-2010 14:48:01 31 C 8.32 g/m*3 31 C 0 km/h
195 21-08-2010 15:00:01 30.8 C 8.55 g/m*3 30.8 C 0 km/h
196 21-08-2010 15:12:02 31.4 C 8.83 g/m*3 31.4 C 0 km/h
197 21-08-2010 15:24:02 31.4 C 8.17 g/m*3 31.4 C 0 km/h
198 21-08-2010 15:36:02 31.2 C 9.06 g/m*3 31.2 C 0 km/h
199 21-08-2010 15:48:02 31.6 C 7.93 g/m*3 31.6 C 0 km/h
200 21-08-2010 16:00:02 32.1 C 7.81 g/m*3 32.1 C 0 km/h
Sensor: Nr:Datum:Temp:Abs-Feuchte:Windchill:Wind:
Aussen-T/F 201 21-08-2010 16:12:02 32.2 C 7.51 g/m*3 32.2 C 0 km/h
202 21-08-2010 16:24:02 32.5 C 7.28 g/m*3 32.5 C 0 km/h
203 21-08-2010 16:36:01 32.1 C 7.81 g/m*3 32.1 C 0 km/h
204 21-08-2010 16:48:02 31.8 C 9.02 g/m*3 31.8 C 0 km/h
205 21-08-2010 17:00:02 32.1 C 8.15 g/m*3 32.1 C 0 km/h
206 21-08-2010 17:12:01 32.4 C 7.59 g/m*3 32.4 C 0 km/h
207 21-08-2010 17:24:02 32.3 C 7.55 g/m*3 32.3 C 0 km/h
208 21-08-2010 17:36:02 32.8 C 7.4 g/m*3 32.8 C 0 km/h
209 21-08-2010 17:48:02 32.3 C 7.2 g/m*3 32.3 C 0 km/h
210 21-08-2010 18:00:02 32.6 C 7.32 g/m*3 32.6 C 0 km/h
211 21-08-2010 18:12:02 32.5 C 7.63 g/m*3 32.5 C 0 km/h
212 21-08-2010 18:24:02 32.7 C 7.36 g/m*3 32.7 C 0 km/h
213 21-08-2010 18:36:02 32.3 C 7.55 g/m*3 32.3 C 0 km/h
214 21-08-2010 18:48:02 32 C 7.09 g/m*3 32 C 0 km/h
215 21-08-2010 19:00:02 31.9 C 7.05 g/m*3 31.9 C 0 km/h
216 21-08-2010 19:12:02 32 C 7.76 g/m*3 32 C 0 km/h
217 21-08-2010 19:24:01 31.7 C 7.64 g/m*3 31.7 C 0 km/h
218 21-08-2010 19:36:02 31.5 C 8.22 g/m*3 31.5 C 0 km/h
219 21-08-2010 19:48:02 31.2 C 9.06 g/m*3 31.2 C 0 km/h
220 21-08-2010 20:00:02 30.6 C 8.46 g/m*3 30.6 C 0 km/h
221 21-08-2010 20:12:02 30 C 9.4 g/m*3 30 C 0 km/h
222 21-08-2010 20:24:01 28.5 C 9.22 g/m*3 28.5 C 0 km/h
223 21-08-2010 20:36:02 28.1 C 9.57 g/m*3 28.1 C 0 km/h
224 21-08-2010 20:48:02 26.9 C 9.73 g/m*3 26.9 C 0 km/h
225 21-08-2010 21:00:02 26.5 C 10.01 g/m*3 26.5 C 0 km/h
Sensor: Nr:Datum:Temp:Abs-Feuchte:Windchill:Wind:
Aussen-T/F 226 21-08-2010 21:12:02 26.2 C 10.09 g/m*3 26.2 C 0 km/h
227 21-08-2010 21:24:02 25.8 C 10.35 g/m*3 25.8 C 0 km/h
228 21-08-2010 21:36:02 25.3 C 10.3 g/m*3 25.3 C 0 km/h
229 21-08-2010 21:48:02 24.8 C 10.47 g/m*3 24.8 C 0 km/h
230 21-08-2010 22:00:02 24.8 C 10.7 g/m*3 24.8 C 0 km/h
231 21-08-2010 22:12:02 24.5 C 10.74 g/m*3 24.5 C 0 km/h
232 21-08-2010 22:24:02 24.4 C 10.9 g/m*3 24.4 C 0 km/h
233 21-08-2010 22:36:02 24.1 C 10.94 g/m*3 24.1 C 0 km/h
234 21-08-2010 22:48:01 23.9 C 11.03 g/m*3 23.9 C 0 km/h
235 21-08-2010 23:00:01 23.6 C 10.85 g/m*3 23.6 C 0 km/h
236 21-08-2010 23:12:02 23.4 C 11.35 g/m*3 23.4 C 0 km/h
237 21-08-2010 23:24:01 23.3 C 11.08 g/m*3 23.3 C 0 km/h
238 21-08-2010 23:36:02 22.9 C 11.44 g/m*3 22.9 C 0 km/h
239 21-08-2010 23:48:01 22.6 C 11.45 g/m*3 22.6 C 0 km/h
240 22-08-2010 00:00:01 22.3 C 11.26 g/m*3 22.3 C 0 km/h
241 22-08-2010 00:13:04 22.3 C 11.45 g/m*3 22.3 C 0 km/h
242 22-08-2010 00:25:04 22 C 11.45 g/m*3 22 C 0 km/h
243 22-08-2010 00:37:04 21.8 C 11.51 g/m*3 21.8 C 0 km/h
244 22-08-2010 00:49:04 21.6 C 11.57 g/m*3 21.6 C 0 km/h
245 22-08-2010 01:01:04 21.5 C 11.69 g/m*3 21.5 C 0 km/h
246 22-08-2010 01:13:04 21.2 C 11.49 g/m*3 21.2 C 0 km/h
247 22-08-2010 01:25:04 21 C 11.54 g/m*3 21 C 0 km/h
248 22-08-2010 01:37:04 20.9 C 11.84 g/m*3 20.9 C 0 km/h
249 22-08-2010 01:49:04 20.6 C 11.81 g/m*3 20.6 C 0 km/h
250 22-08-2010 02:01:05 20.5 C 11.74 g/m*3 20.5 C 0 km/h
Sensor: Nr:Datum:Temp:Abs-Feuchte:Windchill:Wind:
Aussen-T/F 251 22-08-2010 02:13:05 20.4 C 11.85 g/m*3 20.4 C 0 km/h
252 22-08-2010 02:25:05 20.1 C 11.82 g/m*3 20.1 C 0 km/h
253 22-08-2010 02:37:05 19.9 C 12.03 g/m*3 19.9 C 0 km/h
254 22-08-2010 02:49:05 19.8 C 11.96 g/m*3 19.8 C 0 km/h
255 22-08-2010 03:01:05 19.7 C 12.06 g/m*3 19.7 C 0 km/h
256 22-08-2010 03:13:05 19.7 C 12.23 g/m*3 19.7 C 0 km/h
257 22-08-2010 03:25:05 19.5 C 12.08 g/m*3 19.5 C 0 km/h
258 22-08-2010 03:37:05 19.3 C 11.94 g/m*3 19.3 C 0 km/h
259 22-08-2010 03:49:05 19.4 C 12.18 g/m*3 19.4 C 0 km/h
260 22-08-2010 04:01:05 19.3 C 12.11 g/m*3 19.3 C 0 km/h
261 22-08-2010 04:13:05 19.3 C 12.27 g/m*3 19.3 C 0 km/h
262 22-08-2010 04:25:05 19.2 C 12.04 g/m*3 19.2 C 0 km/h
263 22-08-2010 04:37:05 19.1 C 11.97 g/m*3 19.1 C 0 km/h
264 22-08-2010 04:49:05 18.9 C 12.15 g/m*3 18.9 C 0 km/h
265 22-08-2010 05:01:05 18.8 C 12.08 g/m*3 18.8 C 0 km/h
266 22-08-2010 05:13:05 18.6 C 11.94 g/m*3 18.6 C 0 km/h
267 22-08-2010 05:25:05 18.5 C 12.18 g/m*3 18.5 C 0 km/h
268 22-08-2010 05:37:05 18.5 C 12.18 g/m*3 18.5 C 0 km/h
269 22-08-2010 05:49:05 18.3 C 12.04 g/m*3 18.3 C 0 km/h
270 22-08-2010 06:01:06 18.1 C 12.05 g/m*3 18.1 C 0 km/h
271 22-08-2010 06:13:06 18 C 11.98 g/m*3 18 C 0 km/h
272 22-08-2010 06:25:06 18 C 11.98 g/m*3 18 C 0 km/h
273 22-08-2010 06:37:06 17.9 C 12.06 g/m*3 17.9 C 0 km/h
274 22-08-2010 06:49:06 18 C 11.98 g/m*3 18 C 0 km/h
275 22-08-2010 07:01:06 18 C 11.98 g/m*3 18 C 0 km/h
Sensor: Nr:Datum:Temp:Abs-Feuchte:Windchill:Wind:
Aussen-T/F 276 22-08-2010 07:13:06 18.1 C 12.05 g/m*3 18.1 C 0 km/h
277 22-08-2010 07:25:06 18.1 C 12.05 g/m*3 18.1 C 0 km/h
278 22-08-2010 07:37:06 18.5 C 12.34 g/m*3 18.5 C 0 km/h
279 22-08-2010 07:49:06 18.8 C 12.56 g/m*3 18.8 C 0 km/h
280 22-08-2010 08:01:06 18.9 C 12.47 g/m*3 18.9 C 0 km/h
281 22-08-2010 08:13:06 18.7 C 12.49 g/m*3 18.7 C 0 km/h
282 22-08-2010 08:25:06 18.8 C 12.72 g/m*3 18.8 C 0 km/h
283 22-08-2010 08:37:06 19.1 C 12.79 g/m*3 19.1 C 0 km/h
284 22-08-2010 08:49:01 19.3 C 12.61 g/m*3 19.3 C 0 km/h
285 22-08-2010 09:01:01 19.4 C 12.51 g/m*3 19.4 C 0 km/h
286 22-08-2010 09:13:01 20 C 12.62 g/m*3 20 C 0 km/h
287 22-08-2010 09:25:02 20.3 C 12.66 g/m*3 20.3 C 0 km/h
288 22-08-2010 09:37:01 20.6 C 12.71 g/m*3 20.6 C 0 km/h
289 22-08-2010 09:49:01 21.3 C 12.68 g/m*3 21.3 C 0 km/h
290 22-08-2010 10:01:01 21.6 C 12.71 g/m*3 21.6 C 0 km/h
291 22-08-2010 10:13:01 22.2 C 12.37 g/m*3 22.2 C 0 km/h
292 22-08-2010 10:25:02 23.7 C 13.05 g/m*3 23.7 C 0 km/h
293 22-08-2010 10:37:01 24.2 C 12.32 g/m*3 24.2 C 0 km/h
294 22-08-2010 10:49:03 23.8 C 12.91 g/m*3 23.8 C 0 km/h
295 22-08-2010 11:01:02 23.8 C 12.91 g/m*3 23.8 C 0 km/h
296 22-08-2010 11:13:02 24.1 C 12.91 g/m*3 24.1 C 0 km/h
297 22-08-2010 11:25:02 25 C 12.2 g/m*3 25 C 0 km/h
298 22-08-2010 11:37:02 25.5 C 13.26 g/m*3 25.5 C 0 km/h
299 22-08-2010 11:49:02 26 C 12.17 g/m*3 26 C 0 km/h
300 22-08-2010 12:01:01 26.7 C 12.15 g/m*3 26.7 C 0 km/h
Sensor: Nr:Datum:Temp:Abs-Feuchte:Windchill:Wind:
Aussen-T/F 301 22-08-2010 12:13:01 27.3 C 12.04 g/m*3 27.3 C 0 km/h
302 22-08-2010 12:25:02 27.9 C 11.63 g/m*3 27.9 C 0 km/h
303 22-08-2010 12:37:02 27.6 C 11.17 g/m*3 27.6 C 0 km/h
304 22-08-2010 12:49:02 27.8 C 11.3 g/m*3 27.8 C 0 km/h
305 22-08-2010 13:01:03 27.7 C 11.23 g/m*3 27.7 C 0 km/h
306 22-08-2010 13:13:03 28 C 11.15 g/m*3 28 C 0 km/h
307 22-08-2010 13:25:02 28.7 C 10.17 g/m*3 28.7 C 0 km/h
308 22-08-2010 13:37:02 28.9 C 10.28 g/m*3 28.9 C 0 km/h
309 22-08-2010 13:49:02 28.9 C 9.71 g/m*3 28.9 C 0 km/h
310 22-08-2010 14:01:02 29.6 C 10.68 g/m*3 29.6 C 0 km/h
311 22-08-2010 14:13:02 29.7 C 10.14 g/m*3 29.7 C 0 km/h
312 22-08-2010 14:25:01 29.6 C 10.39 g/m*3 29.6 C 0 km/h
313 22-08-2010 14:37:02 27.7 C 10.43 g/m*3 27.7 C 0 km/h
314 22-08-2010 14:49:02 27.1 C 10.61 g/m*3 27.1 C 0 km/h
315 22-08-2010 15:01:02 26 C 11.2 g/m*3 26 C 0 km/h
316 22-08-2010 15:13:03 25.9 C 11.62 g/m*3 25.9 C 0 km/h
317 22-08-2010 15:25:01 25.4 C 12.24 g/m*3 25.4 C 0 km/h
318 22-08-2010 15:37:02 25.1 C 13.2 g/m*3 25.1 C 0 km/h
319 22-08-2010 15:49:01 26.4 C 12.7 g/m*3 26.4 C 0 km/h
320 22-08-2010 16:01:02 27.7 C 11.77 g/m*3 27.7 C 0 km/h
321 22-08-2010 16:13:02 27.9 C 11.63 g/m*3 27.9 C 0 km/h
322 22-08-2010 16:25:02 27.9 C 12.17 g/m*3 27.9 C 0 km/h
323 22-08-2010 16:37:02 28 C 11.97 g/m*3 28 C 0 km/h
324 22-08-2010 16:49:01 27.5 C 11.91 g/m*3 27.5 C 0 km/h
325 22-08-2010 17:01:02 27 C 12.1 g/m*3 27 C 0 km/h
Sensor: Nr:Datum:Temp:Abs-Feuchte:Windchill:Wind:
Aussen-T/F 326 22-08-2010 17:13:02 26.8 C 12.22 g/m*3 26.8 C 0 km/h
327 22-08-2010 17:25:02 26.7 C 12.66 g/m*3 26.7 C 0 km/h
328 22-08-2010 17:37:02 26.4 C 11.45 g/m*3 26.4 C 0 km/h
329 22-08-2010 17:49:02 26.5 C 11.01 g/m*3 26.5 C 0 km/h
330 22-08-2010 18:01:01 26.4 C 10.7 g/m*3 26.4 C 0 km/h
331 22-08-2010 18:13:01 26.6 C 11.08 g/m*3 26.6 C 0 km/h
332 22-08-2010 18:25:02 26.5 C 12.02 g/m*3 26.5 C 0 km/h
333 22-08-2010 18:37:01 26 C 12.17 g/m*3 26 C 0 km/h
334 22-08-2010 18:49:02 25.9 C 12.59 g/m*3 25.9 C 0 km/h
335 22-08-2010 19:01:01 25.9 C 12.59 g/m*3 25.9 C 0 km/h
336 22-08-2010 19:13:01 26.2 C 12.31 g/m*3 26.2 C 0 km/h
337 22-08-2010 19:25:01 25.6 C 11.67 g/m*3 25.6 C 0 km/h
338 22-08-2010 19:37:02 25.3 C 10.53 g/m*3 25.3 C 0 km/h
339 22-08-2010 19:49:02 24.6 C 10.8 g/m*3 24.6 C 0 km/h
340 22-08-2010 20:01:02 24.6 C 10.8 g/m*3 24.6 C 0 km/h
341 22-08-2010 20:13:02 24.6 C 10.58 g/m*3 24.6 C 0 km/h
342 22-08-2010 20:25:02 24.5 C 10.52 g/m*3 24.5 C 0 km/h
343 22-08-2010 20:37:02 24.3 C 10.62 g/m*3 24.3 C 0 km/h
344 22-08-2010 20:49:02 24.1 C 10.72 g/m*3 24.1 C 0 km/h
345 22-08-2010 21:01:01 23.8 C 11.19 g/m*3 23.8 C 0 km/h
346 22-08-2010 21:13:01 23.2 C 11.23 g/m*3 23.2 C 0 km/h
347 22-08-2010 21:25:01 22.9 C 11.44 g/m*3 22.9 C 0 km/h
348 22-08-2010 21:37:02 22.9 C 11.85 g/m*3 22.9 C 0 km/h
349 22-08-2010 21:49:02 23 C 11.72 g/m*3 23 C 0 km/h
350 22-08-2010 22:01:02 23.2 C 11.64 g/m*3 23.2 C 0 km/h
Sensor: Nr:Datum:Temp:Abs-Feuchte:Windchill:Wind:
Aussen-T/F 351 22-08-2010 22:13:02 22.9 C 11.44 g/m*3 22.9 C 0 km/h
352 22-08-2010 22:25:02 22.6 C 11.65 g/m*3 22.6 C 0 km/h
353 22-08-2010 22:38:03 22.5 C 11.98 g/m*3 22.5 C 0 km/h
354 22-08-2010 22:50:03 22.1 C 11.71 g/m*3 22.1 C 0 km/h
355 22-08-2010 23:02:03 21.8 C 11.9 g/m*3 21.8 C 0 km/h
356 22-08-2010 23:14:03 21.6 C 11.95 g/m*3 21.6 C 0 km/h
357 22-08-2010 23:26:03 21.6 C 11.95 g/m*3 21.6 C 0 km/h
358 22-08-2010 23:38:03 21.4 C 11.81 g/m*3 21.4 C 0 km/h
359 22-08-2010 23:50:03 21.2 C 11.86 g/m*3 21.2 C 0 km/h
360 23-08-2010 00:02:03 21.1 C 11.98 g/m*3 21.1 C 0 km/h
361 23-08-2010 00:14:03 20.9 C 12.02 g/m*3 20.9 C 0 km/h
362 23-08-2010 00:26:03 20.9 C 12.02 g/m*3 20.9 C 0 km/h
363 23-08-2010 00:38:03 20.8 C 11.95 g/m*3 20.8 C 0 km/h
364 23-08-2010 00:50:03 20.7 C 12.06 g/m*3 20.7 C 0 km/h
365 23-08-2010 01:02:03 20.4 C 12.03 g/m*3 20.4 C 0 km/h
366 23-08-2010 01:14:03 20.3 C 12.31 g/m*3 20.3 C 0 km/h
367 23-08-2010 01:26:03 20.3 C 12.14 g/m*3 20.3 C 0 km/h
368 23-08-2010 01:38:03 20.4 C 12.21 g/m*3 20.4 C 0 km/h
369 23-08-2010 01:50:03 20.5 C 12.1 g/m*3 20.5 C 0 km/h
370 23-08-2010 02:02:03 20.4 C 12.21 g/m*3 20.4 C 0 km/h
371 23-08-2010 02:14:03 20.2 C 12.24 g/m*3 20.2 C 0 km/h
372 23-08-2010 02:26:03 19.8 C 12.3 g/m*3 19.8 C 0 km/h
373 23-08-2010 02:38:03 19.8 C 12.47 g/m*3 19.8 C 0 km/h
374 23-08-2010 02:50:04 19.9 C 12.37 g/m*3 19.9 C 0 km/h
375 23-08-2010 03:02:04 19.9 C 12.2 g/m*3 19.9 C 0 km/h
Sensor: Nr:Datum:Temp:Abs-Feuchte:Windchill:Wind:
Aussen-T/F 376 23-08-2010 03:14:04 19.9 C 12.37 g/m*3 19.9 C 0 km/h
377 23-08-2010 03:26:04 19.9 C 12.37 g/m*3 19.9 C 0 km/h
378 23-08-2010 03:38:04 19.7 C 12.23 g/m*3 19.7 C 0 km/h
379 23-08-2010 03:50:04 19.7 C 12.4 g/m*3 19.7 C 0 km/h
380 23-08-2010 04:02:04 19.6 C 12.32 g/m*3 19.6 C 0 km/h
381 23-08-2010 04:14:04 19.5 C 12.25 g/m*3 19.5 C 0 km/h
382 23-08-2010 04:26:04 19.5 C 12.42 g/m*3 19.5 C 0 km/h
383 23-08-2010 04:38:04 19.5 C 12.42 g/m*3 19.5 C 0 km/h
384 23-08-2010 04:50:04 19.5 C 12.25 g/m*3 19.5 C 0 km/h
385 23-08-2010 05:02:04 19.5 C 12.25 g/m*3 19.5 C 0 km/h
386 23-08-2010 05:14:04 19.4 C 12.18 g/m*3 19.4 C 0 km/h
387 23-08-2010 05:26:04 19.5 C 12.25 g/m*3 19.5 C 0 km/h
388 23-08-2010 05:38:04 19.4 C 12.18 g/m*3 19.4 C 0 km/h
389 23-08-2010 05:50:04 19.4 C 12.18 g/m*3 19.4 C 0 km/h
390 23-08-2010 06:02:04 19.5 C 12.42 g/m*3 19.5 C 0 km/h
391 23-08-2010 06:14:04 19.5 C 12.42 g/m*3 19.5 C 0 km/h
392 23-08-2010 06:26:04 19.4 C 12.35 g/m*3 19.4 C 0 km/h
393 23-08-2010 06:38:03 19.5 C 12.25 g/m*3 19.5 C 0 km/h
394 23-08-2010 06:50:02 19.5 C 12.25 g/m*3 19.5 C 0 km/h
395 23-08-2010 07:02:02 19.3 C 12.27 g/m*3 19.3 C 0 km/h
396 23-08-2010 07:14:03 19.5 C 12.59 g/m*3 19.5 C 0 km/h
397 23-08-2010 07:26:02 19.9 C 12.71 g/m*3 19.9 C 0 km/h
398 23-08-2010 07:38:02 20.4 C 12.38 g/m*3 20.4 C 0 km/h
399 23-08-2010 07:50:02 20.5 C 12.46 g/m*3 20.5 C 0 km/h
400 23-08-2010 08:02:02 20.6 C 12.71 g/m*3 20.6 C 0 km/h
Sensor: Nr:Datum:Temp:Abs-Feuchte:Windchill:Wind:
Aussen-T/F 401 23-08-2010 08:14:02 20.4 C 12.74 g/m*3 20.4 C 0 km/h
402 23-08-2010 08:26:01 19.5 C 13.26 g/m*3 19.5 C 0 km/h
403 23-08-2010 08:38:02 19.1 C 13.77 g/m*3 19.1 C 0 km/h
404 23-08-2010 08:50:02 19.1 C 13.93 g/m*3 19.1 C 0 km/h
405 23-08-2010 09:02:01 19.3 C 14.26 g/m*3 19.3 C 0 km/h
406 23-08-2010 09:14:01 19.4 C 14.52 g/m*3 19.4 C 0 km/h
407 23-08-2010 09:26:02 19.4 C 14.52 g/m*3 19.4 C 0 km/h
408 23-08-2010 09:38:01 19.4 C 14.52 g/m*3 19.4 C 0 km/h
409 23-08-2010 09:50:02 19.7 C 14.77 g/m*3 19.7 C 0 km/h
410 23-08-2010 10:02:01 20 C 14.86 g/m*3 20 C 0 km/h
411 23-08-2010 10:14:01 20.4 C 15.21 g/m*3 20.4 C 0 km/h
412 23-08-2010 10:26:01 20.7 C 15.12 g/m*3 20.7 C 0 km/h
413 23-08-2010 10:38:02 20.9 C 15.12 g/m*3 20.9 C 0 km/h
414 23-08-2010 10:50:02 21.2 C 15.01 g/m*3 21.2 C 0 km/h
415 23-08-2010 11:02:02 21.4 C 15 g/m*3 21.4 C 0 km/h
416 23-08-2010 11:14:02 21.7 C 14.69 g/m*3 21.7 C 0 km/h
417 23-08-2010 11:26:02 22.5 C 14.58 g/m*3 22.5 C 0 km/h
418 23-08-2010 11:38:02 22.8 C 14.63 g/m*3 22.8 C 0 km/h
419 23-08-2010 11:50:02 22.9 C 14.92 g/m*3 22.9 C 0 km/h
420 23-08-2010 12:02:02 22.5 C 14.78 g/m*3 22.5 C 0 km/h
421 23-08-2010 12:14:02 22.7 C 15.36 g/m*3 22.7 C 0 km/h
422 23-08-2010 12:26:02 23.3 C 16.1 g/m*3 23.3 C 0 km/h
423 23-08-2010 12:38:02 23.4 C 15.98 g/m*3 23.4 C 0 km/h
424 23-08-2010 12:50:01 23.5 C 15.86 g/m*3 23.5 C 0 km/h
425 23-08-2010 13:02:02 24.2 C 15.18 g/m*3 24.2 C 0 km/h
Sensor: Nr:Datum:Temp:Abs-Feuchte:Windchill:Wind:
Aussen-T/F 426 23-08-2010 13:14:02 24.9 C 14.42 g/m*3 24.9 C 0 km/h
427 23-08-2010 13:26:01 24 C 13.49 g/m*3 24 C 0 km/h
428 23-08-2010 13:38:01 23.1 C 13.85 g/m*3 23.1 C 0 km/h
429 23-08-2010 13:50:01 22.2 C 14.72 g/m*3 22.2 C 0 km/h
430 23-08-2010 14:02:01 21.9 C 14.86 g/m*3 21.9 C 0 km/h
431 23-08-2010 14:14:01 23.3 C 14.84 g/m*3 23.3 C 0 km/h
432 23-08-2010 14:26:01 24.8 C 14.11 g/m*3 24.8 C 0 km/h
433 23-08-2010 14:38:01 25.8 C 13.72 g/m*3 25.8 C 0 km/h
434 23-08-2010 14:50:01 25.9 C 13.32 g/m*3 25.9 C 0 km/h
435 23-08-2010 15:02:01 25.9 C 13.07 g/m*3 25.9 C 0 km/h
436 23-08-2010 15:14:01 25.9 C 12.59 g/m*3 25.9 C 0 km/h
437 23-08-2010 15:26:02 26.3 C 12.13 g/m*3 26.3 C 0 km/h
438 23-08-2010 15:38:01 25.9 C 11.86 g/m*3 25.9 C 0 km/h
439 23-08-2010 15:50:03 25.3 C 11.94 g/m*3 25.3 C 0 km/h
440 23-08-2010 16:02:02 25.9 C 11.38 g/m*3 25.9 C 0 km/h
441 23-08-2010 16:14:02 26.7 C 11.14 g/m*3 26.7 C 0 km/h
442 23-08-2010 16:26:02 26.6 C 11.33 g/m*3 26.6 C 0 km/h
443 23-08-2010 16:38:02 25.5 C 11.6 g/m*3 25.5 C 0 km/h
444 23-08-2010 16:50:02 25 C 11.51 g/m*3 25 C 0 km/h
445 23-08-2010 17:02:01 25.2 C 10.94 g/m*3 25.2 C 0 km/h
446 23-08-2010 17:14:01 24.6 C 11.25 g/m*3 24.6 C 0 km/h
447 23-08-2010 17:26:02 23.3 C 11.92 g/m*3 23.3 C 0 km/h
448 23-08-2010 17:38:02 22.7 C 12.53 g/m*3 22.7 C 0 km/h
449 23-08-2010 17:50:02 22.1 C 12.88 g/m*3 22.1 C 0 km/h
450 23-08-2010 18:02:01 21.9 C 13.31 g/m*3 21.9 C 0 km/h
Sensor: Nr:Datum:Temp:Abs-Feuchte:Windchill:Wind:
Aussen-T/F 451 23-08-2010 18:14:01 21.6 C 13.47 g/m*3 21.6 C 0 km/h
452 23-08-2010 18:26:01 21 C 13.74 g/m*3 21 C 0 km/h
453 23-08-2010 18:38:02 20.7 C 14.22 g/m*3 20.7 C 0 km/h
454 23-08-2010 18:50:02 20.4 C 13.98 g/m*3 20.4 C 0 km/h
455 23-08-2010 19:02:02 20.8 C 14.3 g/m*3 20.8 C 0 km/h
456 23-08-2010 19:14:02 20.9 C 13.84 g/m*3 20.9 C 0 km/h
457 23-08-2010 19:26:02 20.8 C 13.76 g/m*3 20.8 C 0 km/h
458 23-08-2010 19:38:02 20.7 C 13.5 g/m*3 20.7 C 0 km/h
459 23-08-2010 19:50:02 20.6 C 13.42 g/m*3 20.6 C 0 km/h
460 23-08-2010 20:02:02 20.5 C 13.17 g/m*3 20.5 C 0 km/h
461 23-08-2010 20:14:02 20.4 C 13.09 g/m*3 20.4 C 0 km/h
462 23-08-2010 20:26:02 20.4 C 12.91 g/m*3 20.4 C 0 km/h
463 23-08-2010 20:38:02 20.3 C 12.84 g/m*3 20.3 C 0 km/h
464 23-08-2010 20:50:02 20.1 C 12.69 g/m*3 20.1 C 0 km/h
465 23-08-2010 21:02:02 20 C 12.62 g/m*3 20 C 0 km/h
466 23-08-2010 21:14:02 19.8 C 12.64 g/m*3 19.8 C 0 km/h
467 23-08-2010 21:26:02 19.7 C 12.74 g/m*3 19.7 C 0 km/h
468 23-08-2010 21:38:02 19.7 C 12.57 g/m*3 19.7 C 0 km/h
469 23-08-2010 21:50:02 19.8 C 12.47 g/m*3 19.8 C 0 km/h
470 23-08-2010 22:03:03 19.7 C 12.4 g/m*3 19.7 C 0 km/h
471 23-08-2010 22:15:03 19.6 C 12.32 g/m*3 19.6 C 0 km/h
472 23-08-2010 22:27:03 19.6 C 12.15 g/m*3 19.6 C 0 km/h
473 23-08-2010 22:39:03 19.5 C 12.25 g/m*3 19.5 C 0 km/h
474 23-08-2010 22:51:03 19.5 C 12.08 g/m*3 19.5 C 0 km/h
475 23-08-2010 23:03:03 19.4 C 12.01 g/m*3 19.4 C 0 km/h
Sensor: Nr:Datum:Temp:Abs-Feuchte:Windchill:Wind:
Aussen-T/F 476 23-08-2010 23:15:03 19.3 C 11.94 g/m*3 19.3 C 0 km/h
477 23-08-2010 23:27:03 19.3 C 11.94 g/m*3 19.3 C 0 km/h
478 23-08-2010 23:39:03 19.2 C 11.87 g/m*3 19.2 C 0 km/h
479 23-08-2010 23:51:03 19.3 C 11.94 g/m*3 19.3 C 0 km/h
480 24-08-2010 00:03:03 19.2 C 12.04 g/m*3 19.2 C 0 km/h
481 24-08-2010 00:15:03 19.2 C 12.04 g/m*3 19.2 C 0 km/h
482 24-08-2010 00:27:03 19.1 C 11.97 g/m*3 19.1 C 0 km/h
483 24-08-2010 00:39:04 19.2 C 12.2 g/m*3 19.2 C 0 km/h
484 24-08-2010 00:51:04 19.2 C 12.2 g/m*3 19.2 C 0 km/h
485 24-08-2010 01:03:04 19.3 C 12.27 g/m*3 19.3 C 0 km/h
486 24-08-2010 01:15:04 19.2 C 12.37 g/m*3 19.2 C 0 km/h
487 24-08-2010 01:27:04 19.1 C 12.46 g/m*3 19.1 C 0 km/h
488 24-08-2010 01:39:04 19.2 C 12.53 g/m*3 19.2 C 0 km/h
489 24-08-2010 01:51:04 19.2 C 12.53 g/m*3 19.2 C 0 km/h
490 24-08-2010 02:03:04 19.3 C 12.44 g/m*3 19.3 C 0 km/h
491 24-08-2010 02:15:04 19.6 C 12.32 g/m*3 19.6 C 0 km/h
492 24-08-2010 02:27:04 19.9 C 12.37 g/m*3 19.9 C 0 km/h
493 24-08-2010 02:39:04 20 C 11.92 g/m*3 20 C 0 km/h
494 24-08-2010 02:51:04 19.6 C 12.32 g/m*3 19.6 C 0 km/h
495 24-08-2010 03:03:04 19 C 12.22 g/m*3 19 C 0 km/h
496 24-08-2010 03:15:04 18.7 C 12.33 g/m*3 18.7 C 0 km/h
497 24-08-2010 03:27:04 18.4 C 11.64 g/m*3 18.4 C 0 km/h
498 24-08-2010 03:39:04 17.9 C 11.76 g/m*3 17.9 C 0 km/h
499 24-08-2010 03:51:04 17.7 C 11.32 g/m*3 17.7 C 0 km/h
500 24-08-2010 04:03:04 18.1 C 9.73 g/m*3 18.1 C 0 km/h
Sensor: Nr:Datum:Temp:Abs-Feuchte:Windchill:Wind:
Aussen-T/F 501 24-08-2010 04:15:04 18.2 C 9.64 g/m*3 18.2 C 0 km/h
502 24-08-2010 04:27:04 18.1 C 9.43 g/m*3 18.1 C 0 km/h
503 24-08-2010 04:39:04 18 C 9.37 g/m*3 18 C 0 km/h
504 24-08-2010 04:51:05 17.9 C 9.47 g/m*3 17.9 C 0 km/h
505 24-08-2010 05:03:05 17.4 C 9.48 g/m*3 17.4 C 0 km/h
506 24-08-2010 05:15:05 17.3 C 9.58 g/m*3 17.3 C 0 km/h
507 24-08-2010 05:27:05 17.3 C 9.58 g/m*3 17.3 C 0 km/h
508 24-08-2010 05:39:05 17.2 C 9.37 g/m*3 17.2 C 0 km/h
509 24-08-2010 05:51:05 17 C 9.55 g/m*3 17 C 0 km/h
510 24-08-2010 06:03:05 17.1 C 9.46 g/m*3 17.1 C 0 km/h
511 24-08-2010 06:15:05 17.1 C 9.32 g/m*3 17.1 C 0 km/h
512 24-08-2010 06:27:05 17 C 9.55 g/m*3 17 C 0 km/h
513 24-08-2010 06:39:05 17.4 C 9.63 g/m*3 17.4 C 0 km/h
514 24-08-2010 06:51:05 16.8 C 9.44 g/m*3 16.8 C 0 km/h
515 24-08-2010 07:03:05 16.8 C 9.58 g/m*3 16.8 C 0 km/h
516 24-08-2010 07:15:02 16.7 C 9.38 g/m*3 16.7 C 0 km/h
517 24-08-2010 07:27:02 16.4 C 9.21 g/m*3 16.4 C 0 km/h
518 24-08-2010 07:39:03 16.2 C 8.96 g/m*3 16.2 C 0 km/h
519 24-08-2010 07:51:02 16.1 C 9.05 g/m*3 16.1 C 0 km/h
520 24-08-2010 08:03:02 16 C 8.99 g/m*3 16 C 0 km/h
521 24-08-2010 08:15:02 16.1 C 8.64 g/m*3 16.1 C 0 km/h
522 24-08-2010 08:27:02 16.2 C 8.41 g/m*3 16.2 C 0 km/h
523 24-08-2010 08:39:02 16.2 C 8.27 g/m*3 16.2 C 0 km/h
524 24-08-2010 08:51:02 16.3 C 7.91 g/m*3 16.3 C 0 km/h
525 24-08-2010 09:03:02 16.4 C 7.82 g/m*3 16.4 C 0 km/h
Sensor: Nr:Datum:Temp:Abs-Feuchte:Windchill:Wind:
Aussen-T/F 526 24-08-2010 09:15:02 16.5 C 7.44 g/m*3 16.5 C 0 km/h
527 24-08-2010 09:27:02 16.7 C 7.11 g/m*3 16.7 C 0 km/h
528 24-08-2010 09:39:01 17 C 6.95 g/m*3 17 C 0 km/h
529 24-08-2010 09:51:02 17.2 C 7.18 g/m*3 17.2 C 0 km/h
530 24-08-2010 10:03:01 17.4 C 7.11 g/m*3 17.4 C 0 km/h
531 24-08-2010 10:15:02 17.7 C 7.39 g/m*3 17.7 C 0 km/h
532 24-08-2010 10:27:02 17.8 C 7.29 g/m*3 17.8 C 0 km/h
533 24-08-2010 10:39:02 18 C 7.07 g/m*3 18 C 0 km/h
534 24-08-2010 10:51:02 18.5 C 7.28 g/m*3 18.5 C 0 km/h
535 24-08-2010 11:03:03 18.7 C 7.36 g/m*3 18.7 C 0 km/h
536 24-08-2010 11:15:02 18.9 C 6.97 g/m*3 18.9 C 0 km/h
537 24-08-2010 11:27:02 19.1 C 6.72 g/m*3 19.1 C 0 km/h
538 24-08-2010 11:39:02 19.4 C 6.51 g/m*3 19.4 C 0 km/h
539 24-08-2010 11:51:01 19.3 C 6.8 g/m*3 19.3 C 0 km/h
540 24-08-2010 12:03:02 19.1 C 6.56 g/m*3 19.1 C 0 km/h
541 24-08-2010 12:15:01 19.8 C 6.66 g/m*3 19.8 C 0 km/h
542 24-08-2010 12:27:01 20.1 C 6.26 g/m*3 20.1 C 0 km/h
543 24-08-2010 12:39:02 20 C 6.05 g/m*3 20 C 0 km/h
544 24-08-2010 12:51:01 21.2 C 6.12 g/m*3 21.2 C 0 km/h
545 24-08-2010 13:03:02 20.3 C 6.16 g/m*3 20.3 C 0 km/h
546 24-08-2010 13:15:01 20.5 C 6.23 g/m*3 20.5 C 0 km/h
547 24-08-2010 13:27:01 21.5 C 5.85 g/m*3 21.5 C 0 km/h
548 24-08-2010 13:39:02 21.7 C 5.72 g/m*3 21.7 C 0 km/h
549 24-08-2010 13:51:01 21 C 5.68 g/m*3 21 C 0 km/h
550 24-08-2010 14:03:02 20.8 C 5.79 g/m*3 20.8 C 0 km/h
Sensor: Nr:Datum:Temp:Abs-Feuchte:Windchill:Wind:
Aussen-T/F 551 24-08-2010 14:15:02 20.9 C 5.83 g/m*3 20.9 C 0 km/h
552 24-08-2010 14:27:02 21.7 C 5.34 g/m*3 21.7 C 0 km/h
553 24-08-2010 14:39:02 22.2 C 5.3 g/m*3 22.2 C 0 km/h
554 24-08-2010 14:51:02 21.7 C 5.15 g/m*3 21.7 C 0 km/h
555 24-08-2010 15:03:02 21.2 C 5.74 g/m*3 21.2 C 0 km/h
556 24-08-2010 15:15:02 21.2 C 5.19 g/m*3 21.2 C 0 km/h
557 24-08-2010 15:27:02 21.6 C 4.93 g/m*3 21.6 C 0 km/h
558 24-08-2010 15:39:01 22.1 C 5.08 g/m*3 22.1 C 0 km/h
559 24-08-2010 15:51:02 23 C 4.52 g/m*3 23 C 0 km/h
560 24-08-2010 16:03:01 23.2 C 4.57 g/m*3 23.2 C 0 km/h
561 24-08-2010 16:15:02 23.2 C 4.37 g/m*3 23.2 C 0 km/h
562 24-08-2010 16:27:03 23 C 4.73 g/m*3 23 C 0 km/h
563 24-08-2010 16:39:01 23.8 C 4.73 g/m*3 23.8 C 0 km/h
564 24-08-2010 16:51:02 22 C 4.66 g/m*3 22 C 0 km/h
565 24-08-2010 17:03:02 23 C 4.52 g/m*3 23 C 0 km/h
566 24-08-2010 17:15:02 23.4 C 4.21 g/m*3 23.4 C 0 km/h
567 24-08-2010 17:27:02 23.6 C 4.68 g/m*3 23.6 C 0 km/h
568 24-08-2010 17:39:03 22.9 C 4.9 g/m*3 22.9 C 0 km/h
569 24-08-2010 17:51:02 23.2 C 5.2 g/m*3 23.2 C 0 km/h
570 24-08-2010 18:03:02 23.8 C 4.95 g/m*3 23.8 C 0 km/h
571 24-08-2010 18:15:02 22.8 C 5.08 g/m*3 22.8 C 0 km/h
572 24-08-2010 18:27:02 22.9 C 5.11 g/m*3 22.9 C 0 km/h
573 24-08-2010 18:39:02 22.8 C 5.28 g/m*3 22.8 C 0 km/h
574 24-08-2010 18:51:02 22.3 C 5.13 g/m*3 22.3 C 0 km/h
575 24-08-2010 19:03:03 22.5 C 5.19 g/m*3 22.5 C 0 km/h
Sensor: Nr:Datum:Temp:Abs-Feuchte:Windchill:Wind:
Aussen-T/F 576 24-08-2010 19:15:02 21.7 C 5.15 g/m*3 21.7 C 0 km/h
577 24-08-2010 19:27:02 22.1 C 5.08 g/m*3 22.1 C 0 km/h
578 24-08-2010 19:39:02 21.3 C 5.03 g/m*3 21.3 C 0 km/h
579 24-08-2010 19:51:01 20.8 C 5.43 g/m*3 20.8 C 0 km/h
580 24-08-2010 20:03:02 20.4 C 5.48 g/m*3 20.4 C 0 km/h
581 24-08-2010 20:15:01 20.3 C 5.8 g/m*3 20.3 C 0 km/h
582 24-08-2010 20:27:01 19.7 C 5.94 g/m*3 19.7 C 0 km/h
583 24-08-2010 20:39:02 19.4 C 5.84 g/m*3 19.4 C 0 km/h
584 24-08-2010 20:51:01 19 C 5.87 g/m*3 19 C 0 km/h
585 24-08-2010 21:03:02 18.7 C 5.92 g/m*3 18.7 C 0 km/h
586 24-08-2010 21:15:02 18.4 C 6.13 g/m*3 18.4 C 0 km/h
587 24-08-2010 21:27:02 18.2 C 6.22 g/m*3 18.2 C 0 km/h
588 24-08-2010 21:39:02 18.1 C 6.18 g/m*3 18.1 C 0 km/h
589 24-08-2010 21:51:01 18 C 6.14 g/m*3 18 C 0 km/h
590 24-08-2010 22:04:03 17.7 C 6.19 g/m*3 17.7 C 0 km/h
591 24-08-2010 22:16:03 17.6 C 6.15 g/m*3 17.6 C 0 km/h
592 24-08-2010 22:28:03 17.5 C 6.26 g/m*3 17.5 C 0 km/h
593 24-08-2010 22:40:03 17.1 C 6.4 g/m*3 17.1 C 0 km/h
594 24-08-2010 22:52:03 17.1 C 6.4 g/m*3 17.1 C 0 km/h
595 24-08-2010 23:04:03 17 C 6.22 g/m*3 17 C 0 km/h
596 24-08-2010 23:16:03 16.8 C 6.43 g/m*3 16.8 C 0 km/h
597 24-08-2010 23:28:03 16.8 C 6.43 g/m*3 16.8 C 0 km/h
598 24-08-2010 23:40:03 16.7 C 6.54 g/m*3 16.7 C 0 km/h
599 24-08-2010 23:52:03 16.6 C 6.5 g/m*3 16.6 C 0 km/h
600 25-08-2010 00:04:03 16.4 C 6.42 g/m*3 16.4 C 0 km/h
Sensor: Nr:Datum:Temp:Abs-Feuchte:Windchill:Wind:
Aussen-T/F 601 25-08-2010 00:16:03 16.4 C 6.56 g/m*3 16.4 C 0 km/h
602 25-08-2010 00:28:03 16.2 C 6.48 g/m*3 16.2 C 0 km/h
603 25-08-2010 00:40:04 16 C 6.54 g/m*3 16 C 0 km/h
604 25-08-2010 00:52:04 15.8 C 6.73 g/m*3 15.8 C 0 km/h
605 25-08-2010 01:04:04 15.8 C 6.73 g/m*3 15.8 C 0 km/h
606 25-08-2010 01:16:04 15.6 C 6.78 g/m*3 15.6 C 0 km/h
607 25-08-2010 01:28:04 15.5 C 6.87 g/m*3 15.5 C 0 km/h
608 25-08-2010 01:40:04 15.4 C 6.83 g/m*3 15.4 C 0 km/h
609 25-08-2010 01:52:04 15.3 C 6.79 g/m*3 15.3 C 0 km/h
610 25-08-2010 02:04:04 15.1 C 6.97 g/m*3 15.1 C 0 km/h
611 25-08-2010 02:16:04 14.8 C 7.09 g/m*3 14.8 C 0 km/h
612 25-08-2010 02:28:04 14.6 C 7.13 g/m*3 14.6 C 0 km/h
613 25-08-2010 02:40:04 14.5 C 7.21 g/m*3 14.5 C 0 km/h
614 25-08-2010 02:52:04 14.3 C 7.13 g/m*3 14.3 C 0 km/h
615 25-08-2010 03:04:04 14.2 C 7.2 g/m*3 14.2 C 0 km/h
616 25-08-2010 03:16:04 13.9 C 7.55 g/m*3 13.9 C 0 km/h
617 25-08-2010 03:28:04 13.7 C 7.58 g/m*3 13.7 C 0 km/h
618 25-08-2010 03:40:04 13.6 C 7.77 g/m*3 13.6 C 0 km/h
619 25-08-2010 03:52:04 13.4 C 7.67 g/m*3 13.4 C 0 km/h
620 25-08-2010 04:04:04 13.4 C 7.79 g/m*3 13.4 C 0 km/h
621 25-08-2010 04:16:04 13.4 C 7.79 g/m*3 13.4 C 0 km/h
622 25-08-2010 04:28:04 13.4 C 7.67 g/m*3 13.4 C 0 km/h
623 25-08-2010 04:40:04 13.4 C 7.67 g/m*3 13.4 C 0 km/h
624 25-08-2010 04:52:05 13.4 C 7.56 g/m*3 13.4 C 0 km/h
625 25-08-2010 05:04:05 13.6 C 7.53 g/m*3 13.6 C 0 km/h
Sensor: Nr:Datum:Temp:Abs-Feuchte:Windchill:Wind:
Aussen-T/F 626 25-08-2010 05:16:05 13.6 C 7.41 g/m*3 13.6 C 0 km/h
627 25-08-2010 05:28:05 13.4 C 7.44 g/m*3 13.4 C 0 km/h
628 25-08-2010 05:40:05 13.2 C 7.58 g/m*3 13.2 C 0 km/h
629 25-08-2010 05:52:05 13.1 C 7.65 g/m*3 13.1 C 0 km/h
630 25-08-2010 06:04:05 13 C 7.6 g/m*3 13 C 0 km/h
631 25-08-2010 06:16:05 13.1 C 7.65 g/m*3 13.1 C 0 km/h
632 25-08-2010 06:28:05 12.9 C 7.78 g/m*3 12.9 C 0 km/h
633 25-08-2010 06:40:05 12.9 C 7.78 g/m*3 12.9 C 0 km/h
634 25-08-2010 06:52:05 12.8 C 7.73 g/m*3 12.8 C 0 km/h
635 25-08-2010 07:04:02 12.7 C 7.79 g/m*3 12.7 C 0 km/h
636 25-08-2010 07:16:03 12.8 C 7.84 g/m*3 12.8 C 0 km/h
637 25-08-2010 07:28:03 12.8 C 7.84 g/m*3 12.8 C 0 km/h
638 25-08-2010 07:40:02 12.7 C 7.79 g/m*3 12.7 C 0 km/h
639 25-08-2010 07:52:02 12.8 C 7.95 g/m*3 12.8 C 0 km/h
640 25-08-2010 08:04:01 13.1 C 7.87 g/m*3 13.1 C 0 km/h
641 25-08-2010 08:16:01 13.4 C 7.9 g/m*3 13.4 C 0 km/h
642 25-08-2010 08:28:01 13.5 C 7.84 g/m*3 13.5 C 0 km/h
643 25-08-2010 08:40:01 13.8 C 7.86 g/m*3 13.8 C 0 km/h
644 25-08-2010 08:52:03 13.9 C 7.79 g/m*3 13.9 C 0 km/h
645 25-08-2010 09:04:02 14.2 C 7.82 g/m*3 14.2 C 0 km/h
646 25-08-2010 09:16:02 14.7 C 8.06 g/m*3 14.7 C 0 km/h
647 25-08-2010 09:28:03 14.9 C 7.9 g/m*3 14.9 C 0 km/h
648 25-08-2010 09:40:02 15.2 C 7.79 g/m*3 15.2 C 0 km/h
649 25-08-2010 09:52:02 15.6 C 7.98 g/m*3 15.6 C 0 km/h
650 25-08-2010 10:04:01 16.1 C 7.81 g/m*3 16.1 C 0 km/h
Sensor: Nr:Datum:Temp:Abs-Feuchte:Windchill:Wind:
Aussen-T/F 651 25-08-2010 10:16:02 16.3 C 7.77 g/m*3 16.3 C 0 km/h
652 25-08-2010 10:28:02 16.3 C 7.77 g/m*3 16.3 C 0 km/h
653 25-08-2010 10:40:02 16.3 C 7.77 g/m*3 16.3 C 0 km/h
654 25-08-2010 10:52:02 16.5 C 7.86 g/m*3 16.5 C 0 km/h
655 25-08-2010 11:04:02 17.1 C 7.71 g/m*3 17.1 C 0 km/h
656 25-08-2010 11:16:01 17.4 C 7.85 g/m*3 17.4 C 0 km/h
657 25-08-2010 11:28:01 17.7 C 7.85 g/m*3 17.7 C 0 km/h
658 25-08-2010 11:40:02 18.1 C 7.88 g/m*3 18.1 C 0 km/h
659 25-08-2010 11:52:02 19.2 C 7.75 g/m*3 19.2 C 0 km/h
660 25-08-2010 12:04:02 19.7 C 7.47 g/m*3 19.7 C 0 km/h
661 25-08-2010 12:16:01 19.9 C 7.39 g/m*3 19.9 C 0 km/h
662 25-08-2010 12:28:01 20.4 C 7.43 g/m*3 20.4 C 0 km/h
663 25-08-2010 12:40:02 20 C 6.91 g/m*3 20 C 0 km/h
664 25-08-2010 12:52:02 20 C 6.74 g/m*3 20 C 0 km/h
665 25-08-2010 13:04:02 20.4 C 6.9 g/m*3 20.4 C 0 km/h
666 25-08-2010 13:16:02 20.7 C 6.84 g/m*3 20.7 C 0 km/h
667 25-08-2010 13:28:02 20.9 C 6.56 g/m*3 20.9 C 0 km/h
668 25-08-2010 13:40:02 20.8 C 6.52 g/m*3 20.8 C 0 km/h
669 25-08-2010 13:52:01 21.3 C 6.52 g/m*3 21.3 C 0 km/h
670 25-08-2010 14:04:02 21.2 C 6.49 g/m*3 21.2 C 0 km/h
671 25-08-2010 14:16:01 21.2 C 6.3 g/m*3 21.2 C 0 km/h
672 25-08-2010 14:28:01 21.7 C 6.49 g/m*3 21.7 C 0 km/h
673 25-08-2010 14:40:01 21.3 C 6.52 g/m*3 21.3 C 0 km/h
674 25-08-2010 14:52:01 21.9 C 6.37 g/m*3 21.9 C 0 km/h
675 25-08-2010 15:04:02 22.5 C 6.39 g/m*3 22.5 C 0 km/h
Sensor: Nr:Datum:Temp:Abs-Feuchte:Windchill:Wind:
Aussen-T/F 676 25-08-2010 15:16:01 23.1 C 6.2 g/m*3 23.1 C 0 km/h
677 25-08-2010 15:28:01 23.9 C 6.06 g/m*3 23.9 C 0 km/h
678 25-08-2010 15:40:01 24.1 C 5.69 g/m*3 24.1 C 0 km/h
679 25-08-2010 15:52:01 24.1 C 6.13 g/m*3 24.1 C 0 km/h
680 25-08-2010 16:04:01 24.3 C 5.53 g/m*3 24.3 C 0 km/h
681 25-08-2010 16:16:02 24.3 C 5.53 g/m*3 24.3 C 0 km/h
682 25-08-2010 16:28:02 25.3 C 5.62 g/m*3 25.3 C 0 km/h
683 25-08-2010 16:40:01 24.7 C 5.66 g/m*3 24.7 C 0 km/h
684 25-08-2010 16:52:01 23.7 C 5.99 g/m*3 23.7 C 0 km/h
685 25-08-2010 17:04:02 23.4 C 6.73 g/m*3 23.4 C 0 km/h
686 25-08-2010 17:16:01 23.3 C 6.48 g/m*3 23.3 C 0 km/h
687 25-08-2010 17:28:01 23.1 C 6.41 g/m*3 23.1 C 0 km/h
688 25-08-2010 17:40:01 23.2 C 6.86 g/m*3 23.2 C 0 km/h
689 25-08-2010 17:52:01 23 C 6.78 g/m*3 23 C 0 km/h
690 25-08-2010 18:04:02 22.2 C 6.87 g/m*3 22.2 C 0 km/h
691 25-08-2010 18:16:02 22 C 6.79 g/m*3 22 C 0 km/h
692 25-08-2010 18:28:02 22 C 6.79 g/m*3 22 C 0 km/h
693 25-08-2010 18:40:01 21.8 C 7.48 g/m*3 21.8 C 0 km/h
694 25-08-2010 18:52:01 21.5 C 7.54 g/m*3 21.5 C 0 km/h
695 25-08-2010 19:04:01 20.8 C 7.97 g/m*3 20.8 C 0 km/h
696 25-08-2010 19:16:02 20.1 C 8 g/m*3 20.1 C 0 km/h
697 25-08-2010 19:28:02 20.2 C 7.87 g/m*3 20.2 C 0 km/h
698 25-08-2010 19:40:01 20 C 7.95 g/m*3 20 C 0 km/h
699 25-08-2010 19:52:02 20 C 7.78 g/m*3 20 C 0 km/h
700 25-08-2010 20:04:01 19.7 C 8.15 g/m*3 19.7 C 0 km/h
Sensor: Nr:Datum:Temp:Abs-Feuchte:Windchill:Wind:
Aussen-T/F 701 25-08-2010 20:16:02 19.4 C 8.18 g/m*3 19.4 C 0 km/h
702 25-08-2010 20:28:02 19 C 8.15 g/m*3 19 C 0 km/h
703 25-08-2010 20:40:01 18.8 C 8.21 g/m*3 18.8 C 0 km/h
704 25-08-2010 20:52:02 18.3 C 8.44 g/m*3 18.3 C 0 km/h
705 25-08-2010 21:04:02 18.1 C 8.19 g/m*3 18.1 C 0 km/h
706 25-08-2010 21:16:02 18.1 C 8.34 g/m*3 18.1 C 0 km/h
707 25-08-2010 21:28:02 18.1 C 8.34 g/m*3 18.1 C 0 km/h
708 25-08-2010 21:40:02 18.2 C 8.39 g/m*3 18.2 C 0 km/h
709 25-08-2010 21:52:02 18.1 C 8.5 g/m*3 18.1 C 0 km/h
710 25-08-2010 22:04:01 17.9 C 8.55 g/m*3 17.9 C 0 km/h
711 25-08-2010 22:17:04 17.7 C 8.45 g/m*3 17.7 C 0 km/h
712 25-08-2010 22:29:04 17.5 C 8.35 g/m*3 17.5 C 0 km/h
713 25-08-2010 22:41:04 17.4 C 8.6 g/m*3 17.4 C 0 km/h
714 25-08-2010 22:53:04 17.3 C 8.54 g/m*3 17.3 C 0 km/h
715 25-08-2010 23:05:04 17.2 C 8.64 g/m*3 17.2 C 0 km/h
716 25-08-2010 23:17:04 17.4 C 8.74 g/m*3 17.4 C 0 km/h
717 25-08-2010 23:29:04 17.4 C 8.74 g/m*3 17.4 C 0 km/h
718 25-08-2010 23:41:04 17.3 C 8.99 g/m*3 17.3 C 0 km/h
719 25-08-2010 23:53:04 17.2 C 8.93 g/m*3 17.2 C 0 km/h
720 26-08-2010 00:05:04 17.1 C 9.03 g/m*3 17.1 C 0 km/h
721 26-08-2010 00:17:04 17.2 C 9.08 g/m*3 17.2 C 0 km/h
722 26-08-2010 00:29:04 17.3 C 9.13 g/m*3 17.3 C 0 km/h
723 26-08-2010 00:41:04 17.4 C 9.04 g/m*3 17.4 C 0 km/h
724 26-08-2010 00:53:04 17.4 C 9.04 g/m*3 17.4 C 0 km/h
725 26-08-2010 01:05:05 17.5 C 9.24 g/m*3 17.5 C 0 km/h
Sensor: Nr:Datum:Temp:Abs-Feuchte:Windchill:Wind:
Aussen-T/F 726 26-08-2010 01:17:05 17.5 C 9.09 g/m*3 17.5 C 0 km/h
727 26-08-2010 01:29:05 17.5 C 9.09 g/m*3 17.5 C 0 km/h
728 26-08-2010 01:41:05 17.5 C 9.09 g/m*3 17.5 C 0 km/h
729 26-08-2010 01:53:05 17.4 C 9.04 g/m*3 17.4 C 0 km/h
730 26-08-2010 02:05:05 16.9 C 9.78 g/m*3 16.9 C 0 km/h
731 26-08-2010 02:17:05 17.1 C 10.19 g/m*3 17.1 C 0 km/h
732 26-08-2010 02:29:05 16.7 C 10.09 g/m*3 16.7 C 0 km/h
733 26-08-2010 02:41:05 17 C 9.84 g/m*3 17 C 0 km/h
734 26-08-2010 02:53:05 16.7 C 9.95 g/m*3 16.7 C 0 km/h
735 26-08-2010 03:05:05 16.8 C 10.29 g/m*3 16.8 C 0 km/h
736 26-08-2010 03:17:05 16.8 C 10.29 g/m*3 16.8 C 0 km/h
737 26-08-2010 03:29:05 16.9 C 9.92 g/m*3 16.9 C 0 km/h
738 26-08-2010 03:41:05 16.9 C 9.92 g/m*3 16.9 C 0 km/h
739 26-08-2010 03:53:05 16.9 C 9.78 g/m*3 16.9 C 0 km/h
740 26-08-2010 04:05:06 16.9 C 9.78 g/m*3 16.9 C 0 km/h
741 26-08-2010 04:17:06 17 C 9.69 g/m*3 17 C 0 km/h
742 26-08-2010 04:29:06 17 C 9.84 g/m*3 17 C 0 km/h
743 26-08-2010 04:41:06 16.9 C 9.92 g/m*3 16.9 C 0 km/h
744 26-08-2010 04:53:06 16.9 C 10.07 g/m*3 16.9 C 0 km/h
745 26-08-2010 05:05:06 17.3 C 10.31 g/m*3 17.3 C 0 km/h
746 26-08-2010 05:17:06 18.1 C 10.35 g/m*3 18.1 C 0 km/h
747 26-08-2010 05:29:06 18.5 C 10.28 g/m*3 18.5 C 0 km/h
748 26-08-2010 05:41:06 18.8 C 10.31 g/m*3 18.8 C 0 km/h
749 26-08-2010 05:53:06 18.7 C 10.25 g/m*3 18.7 C 0 km/h
750 26-08-2010 06:05:03 18.2 C 10.1 g/m*3 18.2 C 0 km/h
Sensor: Nr:Datum:Temp:Abs-Feuchte:Windchill:Wind:
Aussen-T/F 751 26-08-2010 06:17:03 18.1 C 10.35 g/m*3 18.1 C 0 km/h
752 26-08-2010 06:29:03 17.9 C 10.54 g/m*3 17.9 C 0 km/h
753 26-08-2010 06:41:03 18.1 C 10.82 g/m*3 18.1 C 0 km/h
754 26-08-2010 06:53:02 18.6 C 10.82 g/m*3 18.6 C 0 km/h
755 26-08-2010 07:05:02 18.9 C 10.69 g/m*3 18.9 C 0 km/h
756 26-08-2010 07:17:02 19 C 10.59 g/m*3 19 C 0 km/h
757 26-08-2010 07:29:02 19.2 C 10.55 g/m*3 19.2 C 0 km/h
758 26-08-2010 07:41:02 19.4 C 10.68 g/m*3 19.4 C 0 km/h
759 26-08-2010 07:53:02 19.8 C 10.93 g/m*3 19.8 C 0 km/h
760 26-08-2010 08:05:01 20 C 10.71 g/m*3 20 C 0 km/h
761 26-08-2010 08:17:02 20.1 C 10.95 g/m*3 20.1 C 0 km/h
762 26-08-2010 08:29:02 20.2 C 11.02 g/m*3 20.2 C 0 km/h
763 26-08-2010 08:41:01 20.1 C 11.3 g/m*3 20.1 C 0 km/h
764 26-08-2010 08:53:01 20.6 C 11.63 g/m*3 20.6 C 0 km/h
765 26-08-2010 09:05:02 20.8 C 11.41 g/m*3 20.8 C 0 km/h
766 26-08-2010 09:17:02 21.1 C 11.42 g/m*3 21.1 C 0 km/h
767 26-08-2010 09:29:02 21.5 C 11.31 g/m*3 21.5 C 0 km/h
768 26-08-2010 09:41:02 22 C 11.26 g/m*3 22 C 0 km/h
769 26-08-2010 09:53:01 22.2 C 11.19 g/m*3 22.2 C 0 km/h
770 26-08-2010 10:05:02 22.6 C 11.25 g/m*3 22.6 C 0 km/h
771 26-08-2010 10:17:02 22.6 C 11.25 g/m*3 22.6 C 0 km/h
772 26-08-2010 10:29:02 22.9 C 11.24 g/m*3 22.9 C 0 km/h
773 26-08-2010 10:41:01 22.7 C 11.11 g/m*3 22.7 C 0 km/h
774 26-08-2010 10:53:02 23 C 11.1 g/m*3 23 C 0 km/h
775 26-08-2010 11:05:01 23.2 C 11.23 g/m*3 23.2 C 0 km/h
Sensor: Nr:Datum:Temp:Abs-Feuchte:Windchill:Wind:
Aussen-T/F 776 26-08-2010 11:17:02 23.9 C 11.25 g/m*3 23.9 C 0 km/h
777 26-08-2010 11:29:03 23.5 C 11.21 g/m*3 23.5 C 0 km/h
778 26-08-2010 11:41:01 24.1 C 11.16 g/m*3 24.1 C 0 km/h
779 26-08-2010 11:53:02 24.1 C 10.94 g/m*3 24.1 C 0 km/h
780 26-08-2010 12:05:02 24.4 C 11.13 g/m*3 24.4 C 0 km/h
781 26-08-2010 12:17:02 23.8 C 10.97 g/m*3 23.8 C 0 km/h
782 26-08-2010 12:29:02 23.4 C 11.14 g/m*3 23.4 C 0 km/h
783 26-08-2010 12:41:03 23.2 C 11.23 g/m*3 23.2 C 0 km/h
784 26-08-2010 12:53:02 22.9 C 11.24 g/m*3 22.9 C 0 km/h
785 26-08-2010 13:05:02 22.7 C 11.31 g/m*3 22.7 C 0 km/h
786 26-08-2010 13:17:01 22.7 C 11.31 g/m*3 22.7 C 0 km/h
787 26-08-2010 13:29:01 22.9 C 11.24 g/m*3 22.9 C 0 km/h
788 26-08-2010 13:41:02 23.3 C 11.08 g/m*3 23.3 C 0 km/h
789 26-08-2010 13:53:02 23.2 C 11.02 g/m*3 23.2 C 0 km/h
790 26-08-2010 14:05:02 23.5 C 11.21 g/m*3 23.5 C 0 km/h
791 26-08-2010 14:17:02 23.9 C 11.25 g/m*3 23.9 C 0 km/h
792 26-08-2010 14:29:02 23.9 C 11.03 g/m*3 23.9 C 0 km/h
793 26-08-2010 14:41:02 23.8 C 11.19 g/m*3 23.8 C 0 km/h
794 26-08-2010 14:53:02 23.9 C 11.25 g/m*3 23.9 C 0 km/h
795 26-08-2010 15:05:02 23.9 C 11.47 g/m*3 23.9 C 0 km/h
796 26-08-2010 15:17:02 23.8 C 11.19 g/m*3 23.8 C 0 km/h
797 26-08-2010 15:29:02 23.7 C 11.34 g/m*3 23.7 C 0 km/h
798 26-08-2010 15:41:02 23.5 C 11.42 g/m*3 23.5 C 0 km/h
799 26-08-2010 15:53:02 23.5 C 11.21 g/m*3 23.5 C 0 km/h
800 26-08-2010 16:05:02 23.9 C 11.47 g/m*3 23.9 C 0 km/h
Sensor: Nr:Datum:Temp:Abs-Feuchte:Windchill:Wind:
Aussen-T/F 801 26-08-2010 16:17:02 23.8 C 11.4 g/m*3 23.8 C 0 km/h
802 26-08-2010 16:29:02 23.7 C 11.34 g/m*3 23.7 C 0 km/h
803 26-08-2010 16:41:02 24.2 C 11.22 g/m*3 24.2 C 0 km/h
804 26-08-2010 16:53:02 24.1 C 10.94 g/m*3 24.1 C 0 km/h
805 26-08-2010 17:05:02 23.9 C 11.25 g/m*3 23.9 C 0 km/h
806 26-08-2010 17:17:02 23.7 C 11.34 g/m*3 23.7 C 0 km/h
807 26-08-2010 17:29:02 23.6 C 11.27 g/m*3 23.6 C 0 km/h
808 26-08-2010 17:41:02 23.5 C 11.21 g/m*3 23.5 C 0 km/h
809 26-08-2010 17:53:02 23.4 C 11.35 g/m*3 23.4 C 0 km/h
810 26-08-2010 18:05:02 23.4 C 11.35 g/m*3 23.4 C 0 km/h
811 26-08-2010 18:17:02 23.3 C 11.5 g/m*3 23.3 C 0 km/h
812 26-08-2010 18:29:03 23.2 C 11.85 g/m*3 23.2 C 0 km/h
813 26-08-2010 18:41:01 23 C 11.72 g/m*3 23 C 0 km/h
814 26-08-2010 18:53:02 23 C 11.92 g/m*3 23 C 0 km/h
815 26-08-2010 19:05:01 22.6 C 12.25 g/m*3 22.6 C 0 km/h
816 26-08-2010 19:17:02 22.6 C 12.25 g/m*3 22.6 C 0 km/h
817 26-08-2010 19:29:02 21.6 C 13.28 g/m*3 21.6 C 0 km/h
818 26-08-2010 19:41:02 20.7 C 14.04 g/m*3 20.7 C 0 km/h
819 26-08-2010 19:53:02 20.8 C 14.67 g/m*3 20.8 C 0 km/h
820 26-08-2010 20:05:02 21 C 14.65 g/m*3 21 C 0 km/h
821 26-08-2010 20:17:02 20.9 C 14.57 g/m*3 20.9 C 0 km/h
822 26-08-2010 20:29:02 21 C 14.47 g/m*3 21 C 0 km/h
823 26-08-2010 20:41:02 20.9 C 14.39 g/m*3 20.9 C 0 km/h
824 26-08-2010 20:53:01 20.9 C 14.39 g/m*3 20.9 C 0 km/h
825 26-08-2010 21:05:02 20.7 C 14.04 g/m*3 20.7 C 0 km/h
Sensor: Nr:Datum:Temp:Abs-Feuchte:Windchill:Wind:
Aussen-T/F 826 26-08-2010 21:17:01 20.7 C 14.04 g/m*3 20.7 C 0 km/h
827 26-08-2010 21:29:01 20.4 C 13.98 g/m*3 20.4 C 0 km/h
828 26-08-2010 21:41:02 20.2 C 13.99 g/m*3 20.2 C 0 km/h
829 26-08-2010 21:53:02 20.1 C 14.08 g/m*3 20.1 C 0 km/h
830 26-08-2010 22:06:04 20 C 14.34 g/m*3 20 C 0 km/h
831 26-08-2010 22:18:04 19.8 C 14.52 g/m*3 19.8 C 0 km/h
832 26-08-2010 22:30:04 19.7 C 14.6 g/m*3 19.7 C 0 km/h
833 26-08-2010 22:42:04 19.7 C 14.77 g/m*3 19.7 C 0 km/h
834 26-08-2010 22:54:04 19.6 C 14.86 g/m*3 19.6 C 0 km/h
835 26-08-2010 23:06:04 19.5 C 14.77 g/m*3 19.5 C 0 km/h
836 26-08-2010 23:18:04 19.5 C 14.94 g/m*3 19.5 C 0 km/h
837 26-08-2010 23:30:04 19.5 C 14.94 g/m*3 19.5 C 0 km/h
838 26-08-2010 23:42:05 19.4 C 15.02 g/m*3 19.4 C 0 km/h
839 26-08-2010 23:54:05 19.3 C 15.09 g/m*3 19.3 C 0 km/h
840 27-08-2010 00:06:05 19.2 C 15.01 g/m*3 19.2 C 0 km/h
841 27-08-2010 00:18:05 19 C 14.83 g/m*3 19 C 0 km/h
842 27-08-2010 00:30:05 19 C 14.83 g/m*3 19 C 0 km/h
843 27-08-2010 00:42:05 18.9 C 14.9 g/m*3 18.9 C 0 km/h
844 27-08-2010 00:54:05 18.8 C 14.98 g/m*3 18.8 C 0 km/h
845 27-08-2010 01:06:05 18.7 C 14.89 g/m*3 18.7 C 0 km/h
846 27-08-2010 01:18:05 18.7 C 14.89 g/m*3 18.7 C 0 km/h
847 27-08-2010 01:30:05 18.8 C 14.98 g/m*3 18.8 C 0 km/h
848 27-08-2010 01:42:05 18.8 C 14.98 g/m*3 18.8 C 0 km/h
849 27-08-2010 01:54:05 18.8 C 15.14 g/m*3 18.8 C 0 km/h
850 27-08-2010 02:06:05 18.8 C 15.14 g/m*3 18.8 C 0 km/h
Sensor: Nr:Datum:Temp:Abs-Feuchte:Windchill:Wind:
Aussen-T/F 851 27-08-2010 02:18:05 18.7 C 15.05 g/m*3 18.7 C 0 km/h
852 27-08-2010 02:30:05 18.5 C 14.87 g/m*3 18.5 C 0 km/h
853 27-08-2010 02:42:05 18.6 C 14.96 g/m*3 18.6 C 0 km/h
854 27-08-2010 02:54:05 18.5 C 14.87 g/m*3 18.5 C 0 km/h
855 27-08-2010 03:06:05 18.4 C 14.78 g/m*3 18.4 C 0 km/h
856 27-08-2010 03:18:05 18.4 C 14.78 g/m*3 18.4 C 0 km/h
857 27-08-2010 03:30:05 18.4 C 14.78 g/m*3 18.4 C 0 km/h
858 27-08-2010 03:42:05 18.4 C 14.78 g/m*3 18.4 C 0 km/h
859 27-08-2010 03:54:05 18.3 C 14.7 g/m*3 18.3 C 0 km/h
860 27-08-2010 04:06:05 18.3 C 14.7 g/m*3 18.3 C 0 km/h
861 27-08-2010 04:18:06 18.3 C 14.7 g/m*3 18.3 C 0 km/h
862 27-08-2010 04:30:06 18.4 C 14.78 g/m*3 18.4 C 0 km/h
863 27-08-2010 04:42:06 18.4 C 14.78 g/m*3 18.4 C 0 km/h
864 27-08-2010 04:54:06 18.3 C 14.7 g/m*3 18.3 C 0 km/h
865 27-08-2010 05:06:06 18.3 C 14.85 g/m*3 18.3 C 0 km/h
866 27-08-2010 05:18:06 18.3 C 14.7 g/m*3 18.3 C 0 km/h
867 27-08-2010 05:30:06 18.4 C 14.78 g/m*3 18.4 C 0 km/h
868 27-08-2010 05:42:06 18.4 C 14.94 g/m*3 18.4 C 0 km/h
869 27-08-2010 05:54:06 18.6 C 15.12 g/m*3 18.6 C 0 km/h
870 27-08-2010 06:06:06 18.7 C 15.21 g/m*3 18.7 C 0 km/h
871 27-08-2010 06:18:06 18.8 C 15.3 g/m*3 18.8 C 0 km/h
872 27-08-2010 06:30:06 18.9 C 15.39 g/m*3 18.9 C 0 km/h
873 27-08-2010 06:42:06 18.9 C 15.39 g/m*3 18.9 C 0 km/h
874 27-08-2010 06:54:06 18.8 C 15.3 g/m*3 18.8 C 0 km/h
875 27-08-2010 07:06:06 18.8 C 15.14 g/m*3 18.8 C 0 km/h
Sensor: Nr:Datum:Temp:Abs-Feuchte:Windchill:Wind:
Aussen-T/F 876 27-08-2010 07:18:07 18.7 C 15.05 g/m*3 18.7 C 0 km/h
877 27-08-2010 07:30:07 18.7 C 15.05 g/m*3 18.7 C 0 km/h
878 27-08-2010 07:42:07 18.6 C 14.96 g/m*3 18.6 C 0 km/h
879 27-08-2010 07:54:01 18.6 C 14.96 g/m*3 18.6 C 0 km/h
880 27-08-2010 08:06:02 18.6 C 14.96 g/m*3 18.6 C 0 km/h
881 27-08-2010 08:18:01 18.6 C 14.96 g/m*3 18.6 C 0 km/h
882 27-08-2010 08:30:01 18.6 C 14.96 g/m*3 18.6 C 0 km/h
883 27-08-2010 08:42:01 18.5 C 14.87 g/m*3 18.5 C 0 km/h
884 27-08-2010 08:54:02 18.6 C 14.96 g/m*3 18.6 C 0 km/h
885 27-08-2010 09:06:01 18.6 C 14.96 g/m*3 18.6 C 0 km/h
886 27-08-2010 09:18:02 18.8 C 15.14 g/m*3 18.8 C 0 km/h
887 27-08-2010 09:30:02 19.5 C 15.27 g/m*3 19.5 C 0 km/h
888 27-08-2010 09:42:01 19.7 C 15.11 g/m*3 19.7 C 0 km/h
889 27-08-2010 09:54:02 19.7 C 14.77 g/m*3 19.7 C 0 km/h
890 27-08-2010 10:06:02 19.7 C 14.6 g/m*3 19.7 C 0 km/h
891 27-08-2010 10:18:02 19.8 C 14.52 g/m*3 19.8 C 0 km/h
892 27-08-2010 10:30:02 19.4 C 14.18 g/m*3 19.4 C 0 km/h
893 27-08-2010 10:42:03 19 C 14.18 g/m*3 19 C 0 km/h
894 27-08-2010 10:54:02 18.7 C 14.25 g/m*3 18.7 C 0 km/h
895 27-08-2010 11:06:02 18.5 C 14.4 g/m*3 18.5 C 0 km/h
896 27-08-2010 11:18:01 18.3 C 13.92 g/m*3 18.3 C 0 km/h
897 27-08-2010 11:30:01 18.1 C 13.44 g/m*3 18.1 C 0 km/h
898 27-08-2010 11:42:02 17.9 C 13.13 g/m*3 17.9 C 0 km/h
899 27-08-2010 11:54:02 18 C 13.06 g/m*3 18 C 0 km/h
900 27-08-2010 12:06:02 18.7 C 13.77 g/m*3 18.7 C 0 km/h
Sensor: Nr:Datum:Temp:Abs-Feuchte:Windchill:Wind:
Aussen-T/F 901 27-08-2010 12:18:02 19.5 C 13.93 g/m*3 19.5 C 0 km/h
902 27-08-2010 12:30:02 20.4 C 13.62 g/m*3 20.4 C 0 km/h
903 27-08-2010 12:42:02 20.5 C 12.99 g/m*3 20.5 C 0 km/h
904 27-08-2010 12:54:02 21.4 C 13.12 g/m*3 21.4 C 0 km/h
905 27-08-2010 13:06:02 21.9 C 12.93 g/m*3 21.9 C 0 km/h
906 27-08-2010 13:18:02 22.4 C 13.11 g/m*3 22.4 C 0 km/h
907 27-08-2010 13:30:02 22.8 C 12.6 g/m*3 22.8 C 0 km/h
908 27-08-2010 13:42:02 23.4 C 12.41 g/m*3 23.4 C 0 km/h
909 27-08-2010 13:54:02 24.1 C 11.82 g/m*3 24.1 C 0 km/h
910 27-08-2010 14:06:02 24.2 C 11.88 g/m*3 24.2 C 0 km/h
911 27-08-2010 14:18:03 23.6 C 11.7 g/m*3 23.6 C 0 km/h
912 27-08-2010 14:30:03 22.5 C 12.78 g/m*3 22.5 C 0 km/h
913 27-08-2010 14:42:02 17 C 11 g/m*3 17 C 0 km/h
914 27-08-2010 14:54:03 16.5 C 11.94 g/m*3 16.5 C 0 km/h
915 27-08-2010 15:06:02 16.7 C 12.65 g/m*3 16.7 C 0 km/h
916 27-08-2010 15:18:02 18.3 C 13.76 g/m*3 18.3 C 0 km/h
917 27-08-2010 15:30:02 19 C 13.85 g/m*3 19 C 0 km/h
918 27-08-2010 15:42:02 19.8 C 13.66 g/m*3 19.8 C 0 km/h
919 27-08-2010 15:54:02 20.8 C 13.4 g/m*3 20.8 C 0 km/h
920 27-08-2010 16:06:01 21.8 C 12.47 g/m*3 21.8 C 0 km/h
921 27-08-2010 16:18:02 21.7 C 12.59 g/m*3 21.7 C 0 km/h
922 27-08-2010 16:30:02 21.3 C 12.68 g/m*3 21.3 C 0 km/h
923 27-08-2010 16:42:02 21.7 C 13.35 g/m*3 21.7 C 0 km/h
924 27-08-2010 16:54:02 23 C 13.36 g/m*3 23 C 0 km/h
925 27-08-2010 17:06:01 22.8 C 11.99 g/m*3 22.8 C 0 km/h
Sensor: Nr:Datum:Temp:Abs-Feuchte:Windchill:Wind:
Aussen-T/F 926 27-08-2010 17:18:01 22.9 C 12.47 g/m*3 22.9 C 0 km/h
927 27-08-2010 17:30:01 21.5 C 11.5 g/m*3 21.5 C 0 km/h
928 27-08-2010 17:42:02 20.2 C 11.37 g/m*3 20.2 C 0 km/h
929 27-08-2010 17:54:02 19.1 C 11.15 g/m*3 19.1 C 0 km/h
930 27-08-2010 18:06:02 17.3 C 12.08 g/m*3 17.3 C 0 km/h
931 27-08-2010 18:18:02 16.6 C 12.15 g/m*3 16.6 C 0 km/h
932 27-08-2010 18:30:02 16.4 C 12.14 g/m*3 16.4 C 0 km/h
933 27-08-2010 18:42:02 17 C 12.3 g/m*3 17 C 0 km/h
934 27-08-2010 18:54:02 16.7 C 11.37 g/m*3 16.7 C 0 km/h
935 27-08-2010 19:06:02 16.3 C 11.38 g/m*3 16.3 C 0 km/h
936 27-08-2010 19:18:02 16 C 11.31 g/m*3 16 C 0 km/h
937 27-08-2010 19:30:02 15.5 C 10.84 g/m*3 15.5 C 0 km/h
938 27-08-2010 19:42:02 15.3 C 10.71 g/m*3 15.3 C 0 km/h
939 27-08-2010 19:54:02 15.1 C 10.45 g/m*3 15.1 C 0 km/h
940 27-08-2010 20:06:02 15.1 C 10.58 g/m*3 15.1 C 0 km/h
941 27-08-2010 20:18:02 15.3 C 10.71 g/m*3 15.3 C 0 km/h
942 27-08-2010 20:30:02 15.3 C 10.45 g/m*3 15.3 C 0 km/h
943 27-08-2010 20:42:02 15.2 C 10.25 g/m*3 15.2 C 0 km/h
944 27-08-2010 20:54:02 14.7 C 10.2 g/m*3 14.7 C 0 km/h
945 27-08-2010 21:06:02 14.5 C 10.32 g/m*3 14.5 C 0 km/h
946 27-08-2010 21:18:03 14.5 C 10.2 g/m*3 14.5 C 0 km/h
947 27-08-2010 21:30:03 14.6 C 10.14 g/m*3 14.6 C 0 km/h
948 27-08-2010 21:42:02 14.6 C 10.14 g/m*3 14.6 C 0 km/h
949 27-08-2010 21:54:03 14.7 C 10.07 g/m*3 14.7 C 0 km/h
950 27-08-2010 22:06:02 14.8 C 10.01 g/m*3 14.8 C 0 km/h
Sensor: Nr:Datum:Temp:Abs-Feuchte:Windchill:Wind:
Aussen-T/F 951 27-08-2010 22:18:02 14.8 C 10.01 g/m*3 14.8 C 0 km/h
952 27-08-2010 22:30:02 14.8 C 10.01 g/m*3 14.8 C 0 km/h
953 27-08-2010 22:43:28 14.8 C 10.01 g/m*3 14.8 C 0 km/h
954 27-08-2010 22:55:28 14.5 C 10.07 g/m*3 14.5 C 0 km/h
955 27-08-2010 23:07:28 13.8 C 9.65 g/m*3 13.8 C 0 km/h
956 27-08-2010 23:19:28 13.9 C 9.59 g/m*3 13.9 C 0 km/h
957 27-08-2010 23:31:28 13.8 C 9.29 g/m*3 13.8 C 0 km/h
958 27-08-2010 23:43:28 14.1 C 9.1 g/m*3 14.1 C 0 km/h
959 27-08-2010 23:55:28 14.2 C 9.04 g/m*3 14.2 C 0 km/h
960 28-08-2010 00:07:28 14.1 C 9.1 g/m*3 14.1 C 0 km/h
961 28-08-2010 00:19:28 13.9 C 9.11 g/m*3 13.9 C 0 km/h
962 28-08-2010 00:31:28 14 C 9.05 g/m*3 14 C 0 km/h
963 28-08-2010 00:43:28 13.7 C 9.35 g/m*3 13.7 C 0 km/h
964 28-08-2010 00:55:29 13.2 C 9.42 g/m*3 13.2 C 0 km/h
965 28-08-2010 01:07:29 13.2 C 9.64 g/m*3 13.2 C 0 km/h
966 28-08-2010 01:19:29 13.1 C 9.81 g/m*3 13.1 C 0 km/h
967 28-08-2010 01:31:29 13 C 9.87 g/m*3 13 C 0 km/h
968 28-08-2010 01:43:29 13.1 C 10.04 g/m*3 13.1 C 0 km/h
969 28-08-2010 01:55:29 13.1 C 10.04 g/m*3 13.1 C 0 km/h
970 28-08-2010 02:07:29 13.2 C 9.99 g/m*3 13.2 C 0 km/h
971 28-08-2010 02:19:29 13.2 C 9.99 g/m*3 13.2 C 0 km/h
972 28-08-2010 02:31:29 13.1 C 9.81 g/m*3 13.1 C 0 km/h
973 28-08-2010 02:43:29 13.1 C 9.7 g/m*3 13.1 C 0 km/h
974 28-08-2010 02:55:29 13.1 C 9.59 g/m*3 13.1 C 0 km/h
975 28-08-2010 03:07:29 13.1 C 9.59 g/m*3 13.1 C 0 km/h
Sensor: Nr:Datum:Temp:Abs-Feuchte:Windchill:Wind:
Aussen-T/F 976 28-08-2010 03:19:29 13.1 C 9.59 g/m*3 13.1 C 0 km/h
977 28-08-2010 03:31:29 13.1 C 9.47 g/m*3 13.1 C 0 km/h
978 28-08-2010 03:43:29 13.1 C 9.59 g/m*3 13.1 C 0 km/h
979 28-08-2010 03:55:29 13.1 C 9.59 g/m*3 13.1 C 0 km/h
980 28-08-2010 04:07:29 12.9 C 9.47 g/m*3 12.9 C 0 km/h
981 28-08-2010 04:19:30 12.9 C 9.47 g/m*3 12.9 C 0 km/h
982 28-08-2010 04:31:30 12.5 C 9.24 g/m*3 12.5 C 0 km/h
983 28-08-2010 04:43:30 12.3 C 9.23 g/m*3 12.3 C 0 km/h
984 28-08-2010 04:55:30 12.1 C 9.12 g/m*3 12.1 C 0 km/h
985 28-08-2010 05:07:30 12.2 C 9.28 g/m*3 12.2 C 0 km/h
986 28-08-2010 05:19:30 12.3 C 9.34 g/m*3 12.3 C 0 km/h
987 28-08-2010 05:31:30 12.1 C 9.01 g/m*3 12.1 C 0 km/h
988 28-08-2010 05:43:30 11.9 C 9 g/m*3 11.9 C 0 km/h
989 28-08-2010 05:55:30 12.1 C 9.12 g/m*3 12.1 C 0 km/h
990 28-08-2010 06:07:30 11.7 C 8.89 g/m*3 11.7 C 0 km/h
991 28-08-2010 06:19:30 11.6 C 8.83 g/m*3 11.6 C 0 km/h
992 28-08-2010 06:31:30 11.7 C 8.79 g/m*3 11.7 C 0 km/h
993 28-08-2010 06:43:30 11.5 C 8.68 g/m*3 11.5 C 0 km/h
994 28-08-2010 06:55:02 11.4 C 8.62 g/m*3 11.4 C 0 km/h
995 28-08-2010 07:07:02 11.3 C 8.67 g/m*3 11.3 C 0 km/h
996 28-08-2010 07:19:02 11.3 C 8.77 g/m*3 11.3 C 0 km/h
997 28-08-2010 07:31:01 11.6 C 8.94 g/m*3 11.6 C 0 km/h
998 28-08-2010 07:43:01 12 C 8.95 g/m*3 12 C 0 km/h
999 28-08-2010 07:55:02 12.4 C 9.07 g/m*3 12.4 C 0 km/h
1000 28-08-2010 08:07:01 12.6 C 9.07 g/m*3 12.6 C 0 km/h
Sensor: Nr:Datum:Temp:Abs-Feuchte:Windchill:Wind:
Aussen-T/F 1001 28-08-2010 08:19:02 12.8 C 8.96 g/m*3 12.8 C 0 km/h
1002 28-08-2010 08:31:01 13 C 8.85 g/m*3 13 C 0 km/h
1003 28-08-2010 08:43:01 13.4 C 8.95 g/m*3 13.4 C 0 km/h
1004 28-08-2010 08:55:02 13.6 C 8.83 g/m*3 13.6 C 0 km/h
1005 28-08-2010 09:07:02 14.3 C 8.97 g/m*3 14.3 C 0 km/h
1006 28-08-2010 09:19:01 14.2 C 8.55 g/m*3 14.2 C 0 km/h
1007 28-08-2010 09:31:02 14.1 C 8.62 g/m*3 14.1 C 0 km/h
1008 28-08-2010 09:43:02 14.1 C 8.37 g/m*3 14.1 C 0 km/h
1009 28-08-2010 09:55:02 14.4 C 8.41 g/m*3 14.4 C 0 km/h
1010 28-08-2010 10:07:02 14.6 C 8.38 g/m*3 14.6 C 0 km/h
1011 28-08-2010 10:19:02 14.6 C 8.38 g/m*3 14.6 C 0 km/h
1012 28-08-2010 10:31:02 15.1 C 8.39 g/m*3 15.1 C 0 km/h
1013 28-08-2010 10:43:02 15.6 C 8.51 g/m*3 15.6 C 0 km/h
1014 28-08-2010 10:55:02 15.8 C 8.08 g/m*3 15.8 C 0 km/h
1015 28-08-2010 11:07:03 15.8 C 8.21 g/m*3 15.8 C 0 km/h
1016 28-08-2010 11:19:02 16.4 C 7.96 g/m*3 16.4 C 0 km/h
1017 28-08-2010 11:31:03 16.9 C 7.77 g/m*3 16.9 C 0 km/h
1018 28-08-2010 11:43:03 16.7 C 7.25 g/m*3 16.7 C 0 km/h
1019 28-08-2010 11:55:02 16.4 C 7.82 g/m*3 16.4 C 0 km/h
1020 28-08-2010 12:07:02 17 C 7.67 g/m*3 17 C 0 km/h
1021 28-08-2010 12:19:02 18 C 7.22 g/m*3 18 C 0 km/h
1022 28-08-2010 12:31:02 13.7 C 8.05 g/m*3 13.7 C 0 km/h
1023 28-08-2010 12:43:02 13.7 C 9.35 g/m*3 13.7 C 0 km/h
1024 28-08-2010 12:55:02 14.7 C 10.58 g/m*3 14.7 C 0 km/h
1025 28-08-2010 13:07:02 15.7 C 10.84 g/m*3 15.7 C 0 km/h
Sensor: Nr:Datum:Temp:Abs-Feuchte:Windchill:Wind:
Aussen-T/F 1026 28-08-2010 13:19:03 15.8 C 10.23 g/m*3 15.8 C 0 km/h
1027 28-08-2010 13:31:02 15.5 C 10.31 g/m*3 15.5 C 0 km/h
1028 28-08-2010 13:43:02 17.2 C 11.57 g/m*3 17.2 C 0 km/h
1029 28-08-2010 13:55:03 17 C 10.13 g/m*3 17 C 0 km/h
1030 28-08-2010 14:07:02 15.8 C 8.88 g/m*3 15.8 C 0 km/h
1031 28-08-2010 14:19:03 16.8 C 8.01 g/m*3 16.8 C 0 km/h
1032 28-08-2010 14:31:02 15.9 C 6.91 g/m*3 15.9 C 0 km/h
1033 28-08-2010 14:43:02 14.9 C 7.01 g/m*3 14.9 C 0 km/h
1034 28-08-2010 14:55:02 14.6 C 7.63 g/m*3 14.6 C 0 km/h
1035 28-08-2010 15:07:02 14.7 C 7.68 g/m*3 14.7 C 0 km/h
1036 28-08-2010 15:19:02 15.8 C 7.94 g/m*3 15.8 C 0 km/h
1037 28-08-2010 15:31:03 17.6 C 7.65 g/m*3 17.6 C 0 km/h
1038 28-08-2010 15:43:03 17.9 C 6.72 g/m*3 17.9 C 0 km/h
1039 28-08-2010 15:55:02 17.6 C 7.05 g/m*3 17.6 C 0 km/h
1040 28-08-2010 16:07:01 17 C 6.8 g/m*3 17 C 0 km/h
1041 28-08-2010 16:19:02 14.9 C 7.65 g/m*3 14.9 C 0 km/h
1042 28-08-2010 16:31:02 13.9 C 8.27 g/m*3 13.9 C 0 km/h
1043 28-08-2010 16:43:02 14.5 C 8.95 g/m*3 14.5 C 0 km/h
1044 28-08-2010 16:55:01 15.2 C 8.44 g/m*3 15.2 C 0 km/h
1045 28-08-2010 17:07:02 15.9 C 9.21 g/m*3 15.9 C 0 km/h
1046 28-08-2010 17:19:01 16 C 8.72 g/m*3 16 C 0 km/h
1047 28-08-2010 17:31:02 15.7 C 8.3 g/m*3 15.7 C 0 km/h
1048 28-08-2010 17:43:02 15.2 C 8.05 g/m*3 15.2 C 0 km/h
1049 28-08-2010 17:55:01 15.2 C 9.09 g/m*3 15.2 C 0 km/h
1050 28-08-2010 18:07:02 16.2 C 8.27 g/m*3 16.2 C 0 km/h
Sensor: Nr:Datum:Temp:Abs-Feuchte:Windchill:Wind:
Aussen-T/F 1051 28-08-2010 18:19:01 17 C 6.95 g/m*3 17 C 0 km/h
1052 28-08-2010 18:31:02 18.1 C 7.26 g/m*3 18.1 C 0 km/h
1053 28-08-2010 18:43:02 18.3 C 7.04 g/m*3 18.3 C 0 km/h
1054 28-08-2010 18:55:01 18.2 C 7.46 g/m*3 18.2 C 0 km/h
1055 28-08-2010 19:07:02 16.8 C 7.86 g/m*3 16.8 C 0 km/h
1056 28-08-2010 19:19:02 16.1 C 7.95 g/m*3 16.1 C 0 km/h
1057 28-08-2010 19:31:02 15 C 8.59 g/m*3 15 C 0 km/h
1058 28-08-2010 19:43:02 14.2 C 8.79 g/m*3 14.2 C 0 km/h
1059 28-08-2010 19:55:01 14.2 C 8.3 g/m*3 14.2 C 0 km/h
1060 28-08-2010 20:07:02 13.4 C 8.6 g/m*3 13.4 C 0 km/h
1061 28-08-2010 20:19:02 13 C 8.85 g/m*3 13 C 0 km/h
1062 28-08-2010 20:31:01 13.1 C 9.13 g/m*3 13.1 C 0 km/h
1063 28-08-2010 20:43:01 13.1 C 9.24 g/m*3 13.1 C 0 km/h
1064 28-08-2010 20:55:02 12.9 C 9.35 g/m*3 12.9 C 0 km/h
1065 28-08-2010 21:07:01 12.8 C 9.3 g/m*3 12.8 C 0 km/h
1066 28-08-2010 21:19:02 12.7 C 9.24 g/m*3 12.7 C 0 km/h
1067 28-08-2010 21:31:01 12.4 C 9.07 g/m*3 12.4 C 0 km/h
1068 28-08-2010 21:43:01 12.2 C 8.96 g/m*3 12.2 C 0 km/h
1069 28-08-2010 21:55:02 12.2 C 9.06 g/m*3 12.2 C 0 km/h
1070 28-08-2010 22:08:02 12.3 C 9.12 g/m*3 12.3 C 0 km/h
1071 28-08-2010 22:20:02 12.3 C 9.01 g/m*3 12.3 C 0 km/h
1072 28-08-2010 22:32:03 12.2 C 8.85 g/m*3 12.2 C 0 km/h
1073 28-08-2010 22:44:03 12.1 C 8.79 g/m*3 12.1 C 0 km/h
1074 28-08-2010 22:56:03 12.3 C 9.01 g/m*3 12.3 C 0 km/h
1075 28-08-2010 23:08:03 12.6 C 8.96 g/m*3 12.6 C 0 km/h
Sensor: Nr:Datum:Temp:Abs-Feuchte:Windchill:Wind:
Aussen-T/F 1076 28-08-2010 23:20:03 12.7 C 8.79 g/m*3 12.7 C 0 km/h
1077 28-08-2010 23:32:03 12.4 C 8.74 g/m*3 12.4 C 0 km/h
1078 28-08-2010 23:44:03 12.1 C 8.58 g/m*3 12.1 C 0 km/h
1079 28-08-2010 23:56:03 12 C 8.53 g/m*3 12 C 0 km/h
1080 29-08-2010 00:08:03 11.8 C 8.42 g/m*3 11.8 C 0 km/h
1081 29-08-2010 00:20:03 11.8 C 8.42 g/m*3 11.8 C 0 km/h
1082 29-08-2010 00:32:03 11.9 C 8.58 g/m*3 11.9 C 0 km/h
1083 29-08-2010 00:44:03 12 C 8.53 g/m*3 12 C 0 km/h
1084 29-08-2010 00:56:03 12 C 8.42 g/m*3 12 C 0 km/h
1085 29-08-2010 01:08:03 11.7 C 8.47 g/m*3 11.7 C 0 km/h
1086 29-08-2010 01:20:03 11.5 C 8.37 g/m*3 11.5 C 0 km/h
1087 29-08-2010 01:32:03 11.5 C 8.47 g/m*3 11.5 C 0 km/h
1088 29-08-2010 01:44:03 11.4 C 8.42 g/m*3 11.4 C 0 km/h
1089 29-08-2010 01:56:03 11.4 C 8.52 g/m*3 11.4 C 0 km/h
1090 29-08-2010 02:08:03 11.7 C 8.58 g/m*3 11.7 C 0 km/h
1091 29-08-2010 02:20:03 11.7 C 8.47 g/m*3 11.7 C 0 km/h
1092 29-08-2010 02:32:03 11.7 C 8.58 g/m*3 11.7 C 0 km/h
1093 29-08-2010 02:44:04 11.8 C 8.53 g/m*3 11.8 C 0 km/h
1094 29-08-2010 02:56:04 11.8 C 8.53 g/m*3 11.8 C 0 km/h
1095 29-08-2010 03:08:04 11.8 C 8.42 g/m*3 11.8 C 0 km/h
1096 29-08-2010 03:20:04 11.8 C 8.53 g/m*3 11.8 C 0 km/h
1097 29-08-2010 03:32:04 11.8 C 8.53 g/m*3 11.8 C 0 km/h
1098 29-08-2010 03:44:04 11.7 C 8.47 g/m*3 11.7 C 0 km/h
1099 29-08-2010 03:56:04 11.7 C 8.47 g/m*3 11.7 C 0 km/h
1100 29-08-2010 04:08:04 11.6 C 8.42 g/m*3 11.6 C 0 km/h
Sensor: Nr:Datum:Temp:Abs-Feuchte:Windchill:Wind:
Aussen-T/F 1101 29-08-2010 04:20:04 11.4 C 8.31 g/m*3 11.4 C 0 km/h
1102 29-08-2010 04:32:04 11.4 C 8.42 g/m*3 11.4 C 0 km/h
1103 29-08-2010 04:44:04 11.4 C 8.42 g/m*3 11.4 C 0 km/h
1104 29-08-2010 04:56:04 11.7 C 8.37 g/m*3 11.7 C 0 km/h
1105 29-08-2010 05:08:04 11.8 C 8.31 g/m*3 11.8 C 0 km/h
1106 29-08-2010 05:20:04 11.7 C 8.26 g/m*3 11.7 C 0 km/h
1107 29-08-2010 05:32:04 11.7 C 8.26 g/m*3 11.7 C 0 km/h
1108 29-08-2010 05:44:04 11.7 C 8.37 g/m*3 11.7 C 0 km/h
1109 29-08-2010 05:56:04 11.8 C 8.42 g/m*3 11.8 C 0 km/h
1110 29-08-2010 06:08:04 12.2 C 8.31 g/m*3 12.2 C 0 km/h
1111 29-08-2010 06:20:04 12.1 C 8.26 g/m*3 12.1 C 0 km/h
1112 29-08-2010 06:32:04 12.2 C 8.2 g/m*3 12.2 C 0 km/h
1113 29-08-2010 06:44:04 12 C 8.31 g/m*3 12 C 0 km/h
1114 29-08-2010 06:56:04 12 C 8.42 g/m*3 12 C 0 km/h
1115 29-08-2010 07:08:02 12.1 C 8.36 g/m*3 12.1 C 0 km/h
1116 29-08-2010 07:20:02 12.2 C 8.31 g/m*3 12.2 C 0 km/h
1117 29-08-2010 07:32:02 12.2 C 8.31 g/m*3 12.2 C 0 km/h
1118 29-08-2010 07:44:02 12.2 C 8.31 g/m*3 12.2 C 0 km/h
1119 29-08-2010 07:56:02 12.3 C 8.36 g/m*3 12.3 C 0 km/h
1120 29-08-2010 08:08:02 12.1 C 8.36 g/m*3 12.1 C 0 km/h
1121 29-08-2010 08:20:01 12.2 C 8.42 g/m*3 12.2 C 0 km/h
1122 29-08-2010 08:32:02 12.5 C 8.36 g/m*3 12.5 C 0 km/h
1123 29-08-2010 08:44:02 12.6 C 8.3 g/m*3 12.6 C 0 km/h
1124 29-08-2010 08:56:01 12.8 C 8.29 g/m*3 12.8 C 0 km/h
1125 29-08-2010 09:08:02 13.5 C 8.3 g/m*3 13.5 C 0 km/h
Sensor: Nr:Datum:Temp:Abs-Feuchte:Windchill:Wind:
Aussen-T/F 1126 29-08-2010 09:20:02 13.8 C 8.1 g/m*3 13.8 C 0 km/h
1127 29-08-2010 09:32:01 14 C 8.08 g/m*3 14 C 0 km/h
1128 29-08-2010 09:44:01 14.3 C 8.23 g/m*3 14.3 C 0 km/h
1129 29-08-2010 09:56:03 14.4 C 8.16 g/m*3 14.4 C 0 km/h
1130 29-08-2010 10:08:03 14.9 C 8.28 g/m*3 14.9 C 0 km/h
1131 29-08-2010 10:20:03 15.3 C 7.97 g/m*3 15.3 C 0 km/h
1132 29-08-2010 10:32:02 15.3 C 7.97 g/m*3 15.3 C 0 km/h
1133 29-08-2010 10:44:02 15.7 C 8.03 g/m*3 15.7 C 0 km/h
1134 29-08-2010 10:56:01 15.8 C 7.94 g/m*3 15.8 C 0 km/h
1135 29-08-2010 11:08:02 16.3 C 8.05 g/m*3 16.3 C 0 km/h
1136 29-08-2010 11:20:01 16.4 C 7.96 g/m*3 16.4 C 0 km/h
1137 29-08-2010 11:32:01 16.6 C 7.91 g/m*3 16.6 C 0 km/h
1138 29-08-2010 11:44:01 16 C 7.77 g/m*3 16 C 0 km/h
1139 29-08-2010 11:56:01 16 C 7.9 g/m*3 16 C 0 km/h
1140 29-08-2010 12:08:01 15.9 C 7.85 g/m*3 15.9 C 0 km/h
1141 29-08-2010 12:20:02 14 C 9.17 g/m*3 14 C 0 km/h
1142 29-08-2010 12:32:01 14.6 C 9.76 g/m*3 14.6 C 0 km/h
1143 29-08-2010 12:44:01 15.1 C 9.16 g/m*3 15.1 C 0 km/h
1144 29-08-2010 12:56:03 16 C 9.13 g/m*3 16 C 0 km/h
1145 29-08-2010 13:08:02 16.9 C 8.92 g/m*3 16.9 C 0 km/h
1146 29-08-2010 13:20:02 16.9 C 8.63 g/m*3 16.9 C 0 km/h
1147 29-08-2010 13:32:02 16.4 C 8.37 g/m*3 16.4 C 0 km/h
1148 29-08-2010 13:44:02 15.3 C 8.62 g/m*3 15.3 C 0 km/h
1149 29-08-2010 13:56:02 14.7 C 8.94 g/m*3 14.7 C 0 km/h
1150 29-08-2010 14:08:01 15.2 C 8.83 g/m*3 15.2 C 0 km/h
Sensor: Nr:Datum:Temp:Abs-Feuchte:Windchill:Wind:
Aussen-T/F 1151 29-08-2010 14:20:02 16.4 C 8.51 g/m*3 16.4 C 0 km/h
1152 29-08-2010 14:32:02 17 C 7.96 g/m*3 17 C 0 km/h
1153 29-08-2010 14:44:02 17.1 C 8.3 g/m*3 17.1 C 0 km/h
1154 29-08-2010 14:56:01 16.6 C 8.33 g/m*3 16.6 C 0 km/h
1155 29-08-2010 15:08:01 15.7 C 8.3 g/m*3 15.7 C 0 km/h
1156 29-08-2010 15:20:01 15.5 C 8.2 g/m*3 15.5 C 0 km/h
1157 29-08-2010 15:32:02 14.2 C 8.91 g/m*3 14.2 C 0 km/h
1158 29-08-2010 15:44:02 14.7 C 9.69 g/m*3 14.7 C 0 km/h
1159 29-08-2010 15:56:02 15.3 C 9.4 g/m*3 15.3 C 0 km/h
1160 29-08-2010 16:08:02 15.1 C 9.03 g/m*3 15.1 C 0 km/h
1161 29-08-2010 16:20:02 15.5 C 8.99 g/m*3 15.5 C 0 km/h
1162 29-08-2010 16:32:02 15.9 C 8.53 g/m*3 15.9 C 0 km/h
1163 29-08-2010 16:44:03 16.2 C 8.14 g/m*3 16.2 C 0 km/h
1164 29-08-2010 16:56:02 16.1 C 7.81 g/m*3 16.1 C 0 km/h
1165 29-08-2010 17:08:02 15.9 C 7.85 g/m*3 15.9 C 0 km/h
1166 29-08-2010 17:20:02 15.6 C 7.98 g/m*3 15.6 C 0 km/h
1167 29-08-2010 17:32:02 15.2 C 8.18 g/m*3 15.2 C 0 km/h
1168 29-08-2010 17:44:02 14.1 C 8.74 g/m*3 14.1 C 0 km/h
1169 29-08-2010 17:56:02 14 C 8.68 g/m*3 14 C 0 km/h
1170 29-08-2010 18:08:02 13.8 C 8.94 g/m*3 13.8 C 0 km/h
1171 29-08-2010 18:20:01 13.4 C 9.3 g/m*3 13.4 C 0 km/h
1172 29-08-2010 18:32:01 13.1 C 9.59 g/m*3 13.1 C 0 km/h
1173 29-08-2010 18:44:01 12.7 C 9.46 g/m*3 12.7 C 0 km/h
1174 29-08-2010 18:56:02 12.3 C 9.23 g/m*3 12.3 C 0 km/h
1175 29-08-2010 19:08:02 12.2 C 9.28 g/m*3 12.2 C 0 km/h
Sensor: Nr:Datum:Temp:Abs-Feuchte:Windchill:Wind:
Aussen-T/F 1176 29-08-2010 19:20:01 12.2 C 9.39 g/m*3 12.2 C 0 km/h
1177 29-08-2010 19:32:02 12 C 9.38 g/m*3 12 C 0 km/h
1178 29-08-2010 19:44:02 11.8 C 9.26 g/m*3 11.8 C 0 km/h
1179 29-08-2010 19:56:02 11.8 C 9.16 g/m*3 11.8 C 0 km/h
1180 29-08-2010 20:08:02 11.8 C 8.95 g/m*3 11.8 C 0 km/h
1181 29-08-2010 20:20:03 11.8 C 8.95 g/m*3 11.8 C 0 km/h
1182 29-08-2010 20:32:02 11.7 C 8.89 g/m*3 11.7 C 0 km/h
1183 29-08-2010 20:44:02 11.7 C 8.99 g/m*3 11.7 C 0 km/h
1184 29-08-2010 20:56:01 11.9 C 9 g/m*3 11.9 C 0 km/h
1185 29-08-2010 21:08:01 12 C 8.95 g/m*3 12 C 0 km/h
1186 29-08-2010 21:20:02 12.2 C 8.96 g/m*3 12.2 C 0 km/h
1187 29-08-2010 21:32:01 12.3 C 9.01 g/m*3 12.3 C 0 km/h
1188 29-08-2010 21:44:01 12 C 8.95 g/m*3 12 C 0 km/h
1189 29-08-2010 21:56:02 9.7 C 7.74 g/m*3 9.7 C 0 km/h
1190 29-08-2010 22:09:03 9.3 C 7.82 g/m*3 9.3 C 0 km/h
1191 29-08-2010 22:21:03 9.2 C 7.95 g/m*3 9.2 C 0 km/h
1192 29-08-2010 22:33:03 9.2 C 8.04 g/m*3 9.2 C 0 km/h
1193 29-08-2010 22:45:03 9.2 C 8.13 g/m*3 9.2 C 0 km/h
1194 29-08-2010 22:57:03 9.1 C 8.16 g/m*3 9.1 C 0 km/h
1195 29-08-2010 23:09:03 9 C 8.11 g/m*3 9 C 0 km/h
1196 29-08-2010 23:21:03 9 C 8.11 g/m*3 9 C 0 km/h
1197 29-08-2010 23:33:03 9 C 8.11 g/m*3 9 C 0 km/h
1198 29-08-2010 23:45:03 9.3 C 8.27 g/m*3 9.3 C 0 km/h
1199 29-08-2010 23:57:03 9.3 C 8.18 g/m*3 9.3 C 0 km/h
1200 30-08-2010 00:09:03 9.1 C 7.99 g/m*3 9.1 C 0 km/h
Sensor: Nr:Datum:Temp:Abs-Feuchte:Windchill:Wind:
Aussen-T/F 1201 30-08-2010 00:21:03 9.1 C 7.99 g/m*3 9.1 C 0 km/h
1202 30-08-2010 00:33:03 9.1 C 7.99 g/m*3 9.1 C 0 km/h
1203 30-08-2010 00:45:03 9.2 C 7.95 g/m*3 9.2 C 0 km/h
1204 30-08-2010 00:57:03 9.5 C 8.01 g/m*3 9.5 C 0 km/h
1205 30-08-2010 01:09:03 9.7 C 7.93 g/m*3 9.7 C 0 km/h
1206 30-08-2010 01:21:03 9.8 C 7.89 g/m*3 9.8 C 0 km/h
1207 30-08-2010 01:33:03 10 C 7.8 g/m*3 10 C 0 km/h
1208 30-08-2010 01:45:04 10 C 7.8 g/m*3 10 C 0 km/h
1209 30-08-2010 01:57:04 10.2 C 7.8 g/m*3 10.2 C 0 km/h
1210 30-08-2010 02:09:04 10.1 C 7.75 g/m*3 10.1 C 0 km/h
1211 30-08-2010 02:21:04 10.2 C 7.8 g/m*3 10.2 C 0 km/h
1212 30-08-2010 02:33:04 10.5 C 7.86 g/m*3 10.5 C 0 km/h
1213 30-08-2010 02:45:04 10.8 C 7.81 g/m*3 10.8 C 0 km/h
1214 30-08-2010 02:57:04 11 C 7.61 g/m*3 11 C 0 km/h
1215 30-08-2010 03:09:04 11.1 C 7.45 g/m*3 11.1 C 0 km/h
1216 30-08-2010 03:21:04 11.2 C 7.5 g/m*3 11.2 C 0 km/h
1217 30-08-2010 03:33:04 11 C 7.61 g/m*3 11 C 0 km/h
1218 30-08-2010 03:45:04 10.5 C 7.76 g/m*3 10.5 C 0 km/h
1219 30-08-2010 03:57:04 10.3 C 7.95 g/m*3 10.3 C 0 km/h
1220 30-08-2010 04:09:04 10.3 C 8.04 g/m*3 10.3 C 0 km/h
1221 30-08-2010 04:21:04 10.3 C 8.04 g/m*3 10.3 C 0 km/h
1222 30-08-2010 04:33:04 10.3 C 8.04 g/m*3 10.3 C 0 km/h
1223 30-08-2010 04:45:04 10.2 C 7.99 g/m*3 10.2 C 0 km/h
1224 30-08-2010 04:57:04 10.2 C 7.8 g/m*3 10.2 C 0 km/h
1225 30-08-2010 05:09:04 9.8 C 7.7 g/m*3 9.8 C 0 km/h
Sensor: Nr:Datum:Temp:Abs-Feuchte:Windchill:Wind:
Aussen-T/F 1226 30-08-2010 05:21:04 9.6 C 7.79 g/m*3 9.6 C 0 km/h
1227 30-08-2010 05:33:04 9.3 C 7.91 g/m*3 9.3 C 0 km/h
1228 30-08-2010 05:45:05 9.6 C 8.24 g/m*3 9.6 C 0 km/h
1229 30-08-2010 05:57:05 9.8 C 8.44 g/m*3 9.8 C 0 km/h
1230 30-08-2010 06:09:05 9.9 C 8.5 g/m*3 9.9 C 0 km/h
1231 30-08-2010 06:21:05 10 C 8.46 g/m*3 10 C 0 km/h
1232 30-08-2010 06:33:05 10.1 C 8.51 g/m*3 10.1 C 0 km/h
1233 30-08-2010 06:45:05 10.1 C 8.42 g/m*3 10.1 C 0 km/h
1234 30-08-2010 06:57:05 10.2 C 8.47 g/m*3 10.2 C 0 km/h
1235 30-08-2010 07:09:05 10.1 C 8.42 g/m*3 10.1 C 0 km/h
1236 30-08-2010 07:21:05 9.9 C 8.4 g/m*3 9.9 C 0 km/h
1237 30-08-2010 07:33:05 9.8 C 8.35 g/m*3 9.8 C 0 km/h
1238 30-08-2010 07:45:05 9.9 C 8.4 g/m*3 9.9 C 0 km/h
1239 30-08-2010 07:57:05 10.1 C 8.42 g/m*3 10.1 C 0 km/h
1240 30-08-2010 08:09:05 10.1 C 8.42 g/m*3 10.1 C 0 km/h
1241 30-08-2010 08:21:02 10.7 C 8.74 g/m*3 10.7 C 0 km/h
1242 30-08-2010 08:33:02 11 C 8.71 g/m*3 11 C 0 km/h
1243 30-08-2010 08:45:01 11.2 C 8.72 g/m*3 11.2 C 0 km/h
1244 30-08-2010 08:57:01 11.1 C 8.56 g/m*3 11.1 C 0 km/h
1245 30-08-2010 09:09:01 11.2 C 8.62 g/m*3 11.2 C 0 km/h
1246 30-08-2010 09:21:01 10.8 C 8.4 g/m*3 10.8 C 0 km/h
1247 30-08-2010 09:33:01 10.8 C 8.6 g/m*3 10.8 C 0 km/h
1248 30-08-2010 09:45:01 11 C 8.71 g/m*3 11 C 0 km/h
1249 30-08-2010 09:57:01 11.1 C 8.86 g/m*3 11.1 C 0 km/h
1250 30-08-2010 10:09:01 11 C 8.61 g/m*3 11 C 0 km/h
Sensor: Nr:Datum:Temp:Abs-Feuchte:Windchill:Wind:
Aussen-T/F 1251 30-08-2010 10:21:02 11.5 C 8.88 g/m*3 11.5 C 0 km/h
1252 30-08-2010 10:33:01 11.9 C 8.9 g/m*3 11.9 C 0 km/h
1253 30-08-2010 10:45:02 12.4 C 8.96 g/m*3 12.4 C 0 km/h
1254 30-08-2010 10:57:02 12.5 C 8.8 g/m*3 12.5 C 0 km/h
1255 30-08-2010 11:09:03 12.6 C 8.96 g/m*3 12.6 C 0 km/h
1256 30-08-2010 11:21:02 12.7 C 8.13 g/m*3 12.7 C 0 km/h
1257 30-08-2010 11:33:02 13.1 C 8.1 g/m*3 13.1 C 0 km/h
1258 30-08-2010 11:45:02 13.1 C 8.1 g/m*3 13.1 C 0 km/h
1259 30-08-2010 11:57:02 13.5 C 8.3 g/m*3 13.5 C 0 km/h
1260 30-08-2010 12:09:01 13.8 C 8.22 g/m*3 13.8 C 0 km/h
1261 30-08-2010 12:21:02 13.4 C 7.9 g/m*3 13.4 C 0 km/h
1262 30-08-2010 12:33:01 13.8 C 8.22 g/m*3 13.8 C 0 km/h
1263 30-08-2010 12:45:02 14.5 C 6.96 g/m*3 14.5 C 0 km/h
1264 30-08-2010 12:57:02 14.6 C 6.76 g/m*3 14.6 C 0 km/h
1265 30-08-2010 13:09:01 15.5 C 6.74 g/m*3 15.5 C 0 km/h
1266 30-08-2010 13:21:01 16 C 6.81 g/m*3 16 C 0 km/h
1267 30-08-2010 13:33:01 16.3 C 6.52 g/m*3 16.3 C 0 km/h
1268 30-08-2010 13:45:02 16.2 C 6.76 g/m*3 16.2 C 0 km/h
1269 30-08-2010 13:57:02 16.2 C 7.03 g/m*3 16.2 C 0 km/h
1270 30-08-2010 14:09:01 15.7 C 7.36 g/m*3 15.7 C 0 km/h
1271 30-08-2010 14:21:02 15.6 C 7.85 g/m*3 15.6 C 0 km/h
1272 30-08-2010 14:33:02 16.6 C 7.91 g/m*3 16.6 C 0 km/h
1273 30-08-2010 14:45:02 16.7 C 7.67 g/m*3 16.7 C 0 km/h
1274 30-08-2010 14:57:02 16.8 C 7.86 g/m*3 16.8 C 0 km/h
1275 30-08-2010 15:09:03 17.3 C 8.25 g/m*3 17.3 C 0 km/h
Sensor: Nr:Datum:Temp:Abs-Feuchte:Windchill:Wind:
Aussen-T/F 1276 30-08-2010 15:21:02 17.7 C 7.85 g/m*3 17.7 C 0 km/h
1277 30-08-2010 15:33:02 17.3 C 7.66 g/m*3 17.3 C 0 km/h
1278 30-08-2010 15:45:01 17.7 C 7.54 g/m*3 17.7 C 0 km/h
1279 30-08-2010 15:57:01 17.4 C 7.71 g/m*3 17.4 C 0 km/h
1280 30-08-2010 16:09:02 16.9 C 7.77 g/m*3 16.9 C 0 km/h
1281 30-08-2010 16:21:01 15.8 C 8.88 g/m*3 15.8 C 0 km/h
1282 30-08-2010 16:33:02 14.8 C 9.37 g/m*3 14.8 C 0 km/h
1283 30-08-2010 16:45:02 15.5 C 9.78 g/m*3 15.5 C 0 km/h
1284 30-08-2010 16:57:02 16.3 C 9.85 g/m*3 16.3 C 0 km/h
1285 30-08-2010 17:09:02 15.8 C 9.42 g/m*3 15.8 C 0 km/h
1286 30-08-2010 17:21:01 15 C 9.49 g/m*3 15 C 0 km/h
1287 30-08-2010 17:33:02 14.8 C 9.5 g/m*3 14.8 C 0 km/h
1288 30-08-2010 17:45:01 14.7 C 8.81 g/m*3 14.7 C 0 km/h
1289 30-08-2010 17:57:01 14.9 C 8.92 g/m*3 14.9 C 0 km/h
1290 30-08-2010 18:09:02 14.7 C 8.69 g/m*3 14.7 C 0 km/h
1291 30-08-2010 18:21:01 14.6 C 8.76 g/m*3 14.6 C 0 km/h
1292 30-08-2010 18:33:02 14.3 C 8.6 g/m*3 14.3 C 0 km/h
1293 30-08-2010 18:45:01 14.1 C 8.74 g/m*3 14.1 C 0 km/h
1294 30-08-2010 18:57:01 13.9 C 8.99 g/m*3 13.9 C 0 km/h
1295 30-08-2010 19:09:02 13.9 C 8.99 g/m*3 13.9 C 0 km/h
1296 30-08-2010 19:21:02 13.9 C 9.23 g/m*3 13.9 C 0 km/h
1297 30-08-2010 19:33:01 14.1 C 9.22 g/m*3 14.1 C 0 km/h
1298 30-08-2010 19:45:02 14.2 C 8.91 g/m*3 14.2 C 0 km/h
1299 30-08-2010 19:57:02 14.1 C 8.5 g/m*3 14.1 C 0 km/h
1300 30-08-2010 20:09:01 13.9 C 8.51 g/m*3 13.9 C 0 km/h
Sensor: Nr:Datum:Temp:Abs-Feuchte:Windchill:Wind:
Aussen-T/F 1301 30-08-2010 20:21:02 13.9 C 8.51 g/m*3 13.9 C 0 km/h
1302 30-08-2010 20:33:01 14 C 8.56 g/m*3 14 C 0 km/h
1303 30-08-2010 20:45:02 13.8 C 8.94 g/m*3 13.8 C 0 km/h
1304 30-08-2010 20:57:02 13.2 C 9.07 g/m*3 13.2 C 0 km/h
1305 30-08-2010 21:09:02 13.1 C 9.36 g/m*3 13.1 C 0 km/h
1306 30-08-2010 21:21:01 12.9 C 9.58 g/m*3 12.9 C 0 km/h
1307 30-08-2010 21:33:01 12.7 C 9.68 g/m*3 12.7 C 0 km/h
1308 30-08-2010 21:45:02 12.4 C 9.51 g/m*3 12.4 C 0 km/h
1309 30-08-2010 21:57:02 12.5 C 9.68 g/m*3 12.5 C 0 km/h
1310 30-08-2010 22:09:02 12.8 C 9.97 g/m*3 12.8 C 0 km/h
1311 30-08-2010 22:21:02 12.8 C 9.97 g/m*3 12.8 C 0 km/h
1312 30-08-2010 22:33:02 12.7 C 9.91 g/m*3 12.7 C 0 km/h
1313 30-08-2010 22:45:02 12.7 C 9.91 g/m*3 12.7 C 0 km/h
1314 30-08-2010 22:57:02 12.6 C 9.85 g/m*3 12.6 C 0 km/h
1315 30-08-2010 23:10:03 12.4 C 9.72 g/m*3 12.4 C 0 km/h
1316 30-08-2010 23:22:03 12.4 C 9.72 g/m*3 12.4 C 0 km/h
1317 30-08-2010 23:34:03 12.4 C 9.83 g/m*3 12.4 C 0 km/h
1318 30-08-2010 23:46:03 12.2 C 9.6 g/m*3 12.2 C 0 km/h
1319 30-08-2010 23:58:03 12.1 C 9.54 g/m*3 12.1 C 0 km/h
1320 31-08-2010 00:10:03 12 C 9.48 g/m*3 12 C 0 km/h
1321 31-08-2010 00:22:03 12.1 C 9.54 g/m*3 12.1 C 0 km/h
1322 31-08-2010 00:34:03 12.2 C 9.6 g/m*3 12.2 C 0 km/h
1323 31-08-2010 00:46:03 12.4 C 9.72 g/m*3 12.4 C 0 km/h
1324 31-08-2010 00:58:03 12.4 C 9.72 g/m*3 12.4 C 0 km/h
1325 31-08-2010 01:10:03 12.5 C 9.68 g/m*3 12.5 C 0 km/h
Sensor: Nr:Datum:Temp:Abs-Feuchte:Windchill:Wind:
Aussen-T/F 1326 31-08-2010 01:22:03 12.6 C 9.62 g/m*3 12.6 C 0 km/h
1327 31-08-2010 01:34:03 12.5 C 9.46 g/m*3 12.5 C 0 km/h
1328 31-08-2010 01:46:03 12.4 C 9.4 g/m*3 12.4 C 0 km/h
1329 31-08-2010 01:58:03 12.1 C 9.12 g/m*3 12.1 C 0 km/h
1330 31-08-2010 02:10:03 12.2 C 9.28 g/m*3 12.2 C 0 km/h
1331 31-08-2010 02:22:03 12.4 C 9.4 g/m*3 12.4 C 0 km/h
1332 31-08-2010 02:34:03 12.4 C 9.29 g/m*3 12.4 C 0 km/h
1333 31-08-2010 02:46:03 12.4 C 9.29 g/m*3 12.4 C 0 km/h
1334 31-08-2010 02:58:04 12.4 C 9.29 g/m*3 12.4 C 0 km/h
1335 31-08-2010 03:10:04 12.3 C 9.12 g/m*3 12.3 C 0 km/h
1336 31-08-2010 03:22:04 12.3 C 9.12 g/m*3 12.3 C 0 km/h
1337 31-08-2010 03:34:04 12 C 8.95 g/m*3 12 C 0 km/h
1338 31-08-2010 03:46:04 11.9 C 9.11 g/m*3 11.9 C 0 km/h
1339 31-08-2010 03:58:04 12 C 9.06 g/m*3 12 C 0 km/h
1340 31-08-2010 04:10:04 11.5 C 8.88 g/m*3 11.5 C 0 km/h
1341 31-08-2010 04:22:04 11.3 C 8.87 g/m*3 11.3 C 0 km/h
1342 31-08-2010 04:34:04 11.4 C 9.03 g/m*3 11.4 C 0 km/h
1343 31-08-2010 04:46:04 11.6 C 9.15 g/m*3 11.6 C 0 km/h
1344 31-08-2010 04:58:04 11.8 C 9.37 g/m*3 11.8 C 0 km/h
1345 31-08-2010 05:10:04 11.8 C 9.26 g/m*3 11.8 C 0 km/h
1346 31-08-2010 05:22:04 11.5 C 9.09 g/m*3 11.5 C 0 km/h
1347 31-08-2010 05:34:04 11.2 C 8.92 g/m*3 11.2 C 0 km/h
1348 31-08-2010 05:46:04 11.1 C 8.86 g/m*3 11.1 C 0 km/h
1349 31-08-2010 05:58:04 11.3 C 9.08 g/m*3 11.3 C 0 km/h
1350 31-08-2010 06:10:04 11.4 C 9.14 g/m*3 11.4 C 0 km/h
Sensor: Nr:Datum:Temp:Abs-Feuchte:Windchill:Wind:
Aussen-T/F 1351 31-08-2010 06:22:04 11.5 C 9.19 g/m*3 11.5 C 0 km/h
1352 31-08-2010 06:34:04 11.7 C 9.31 g/m*3 11.7 C 0 km/h
1353 31-08-2010 06:46:02 11.9 C 9.32 g/m*3 11.9 C 0 km/h
1354 31-08-2010 06:58:02 12 C 9.17 g/m*3 12 C 0 km/h
1355 31-08-2010 07:10:02 12.1 C 9.12 g/m*3 12.1 C 0 km/h
1356 31-08-2010 07:22:03 12.1 C 9.12 g/m*3 12.1 C 0 km/h
1357 31-08-2010 07:34:02 12.2 C 9.06 g/m*3 12.2 C 0 km/h
1358 31-08-2010 07:46:02 12.2 C 9.06 g/m*3 12.2 C 0 km/h
1359 31-08-2010 07:58:02 12.4 C 9.07 g/m*3 12.4 C 0 km/h
1360 31-08-2010 08:10:02 12.5 C 9.02 g/m*3 12.5 C 0 km/h
1361 31-08-2010 08:22:02 12.5 C 9.02 g/m*3 12.5 C 0 km/h
1362 31-08-2010 08:34:02 12.6 C 9.07 g/m*3 12.6 C 0 km/h
1363 31-08-2010 08:46:02 12.7 C 9.13 g/m*3 12.7 C 0 km/h
1364 31-08-2010 08:58:02 12.9 C 9.13 g/m*3 12.9 C 0 km/h
1365 31-08-2010 09:10:02 13.2 C 9.07 g/m*3 13.2 C 0 km/h
1366 31-08-2010 09:22:02 13.4 C 8.95 g/m*3 13.4 C 0 km/h
1367 31-08-2010 09:34:02 13.6 C 8.94 g/m*3 13.6 C 0 km/h
1368 31-08-2010 09:46:02 13.7 C 8.76 g/m*3 13.7 C 0 km/h
1369 31-08-2010 09:58:02 14 C 8.56 g/m*3 14 C 0 km/h
1370 31-08-2010 10:10:02 14.1 C 8.5 g/m*3 14.1 C 0 km/h
1371 31-08-2010 10:22:03 14 C 8.2 g/m*3 14 C 0 km/h
1372 31-08-2010 10:34:02 14 C 8.32 g/m*3 14 C 0 km/h
1373 31-08-2010 10:46:03 14.2 C 8.3 g/m*3 14.2 C 0 km/h
1374 31-08-2010 10:58:03 14.4 C 8.41 g/m*3 14.4 C 0 km/h
1375 31-08-2010 11:10:02 14.8 C 8.23 g/m*3 14.8 C 0 km/h
Sensor: Nr:Datum:Temp:Abs-Feuchte:Windchill:Wind:
Aussen-T/F 1376 31-08-2010 11:22:02 15.1 C 8.13 g/m*3 15.1 C 0 km/h
1377 31-08-2010 11:34:02 15.6 C 8.11 g/m*3 15.6 C 0 km/h
1378 31-08-2010 11:46:02 16.1 C 8.09 g/m*3 16.1 C 0 km/h
1379 31-08-2010 11:58:02 16.4 C 7.82 g/m*3 16.4 C 0 km/h
1380 31-08-2010 12:10:02 16.8 C 7.86 g/m*3 16.8 C 0 km/h
1381 31-08-2010 12:22:02 16.3 C 7.91 g/m*3 16.3 C 0 km/h
1382 31-08-2010 12:34:01 16.9 C 8.2 g/m*3 16.9 C 0 km/h
1383 31-08-2010 12:46:02 16.7 C 7.82 g/m*3 16.7 C 0 km/h
1384 31-08-2010 12:58:03 17.7 C 7.85 g/m*3 17.7 C 0 km/h
1385 31-08-2010 13:10:01 17.3 C 7.37 g/m*3 17.3 C 0 km/h
1386 31-08-2010 13:22:01 17.5 C 6.86 g/m*3 17.5 C 0 km/h
1387 31-08-2010 13:34:02 18.2 C 6.84 g/m*3 18.2 C 0 km/h
1388 31-08-2010 13:46:02 18.3 C 7.04 g/m*3 18.3 C 0 km/h
1389 31-08-2010 13:58:02 18.5 C 6.8 g/m*3 18.5 C 0 km/h
1390 31-08-2010 14:10:02 19.2 C 6.76 g/m*3 19.2 C 0 km/h
1391 31-08-2010 14:22:02 19.9 C 6.7 g/m*3 19.9 C 0 km/h
1392 31-08-2010 14:34:02 20.3 C 6.51 g/m*3 20.3 C 0 km/h
1393 31-08-2010 14:46:02 20.8 C 6.34 g/m*3 20.8 C 0 km/h
1394 31-08-2010 14:58:02 20.6 C 5.91 g/m*3 20.6 C 0 km/h
1395 31-08-2010 15:10:02 20.4 C 6.19 g/m*3 20.4 C 0 km/h
1396 31-08-2010 15:22:02 20.1 C 6.26 g/m*3 20.1 C 0 km/h
1397 31-08-2010 15:34:02 21.4 C 5.62 g/m*3 21.4 C 0 km/h
1398 31-08-2010 15:46:02 22 C 5.43 g/m*3 22 C 0 km/h
1399 31-08-2010 15:58:02 22.1 C 5.66 g/m*3 22.1 C 0 km/h
1400 31-08-2010 16:10:02 21.4 C 5.81 g/m*3 21.4 C 0 km/h
Sensor: Nr:Datum:Temp:Abs-Feuchte:Windchill:Wind:
Aussen-T/F 1401 31-08-2010 16:22:02 21.1 C 5.9 g/m*3 21.1 C 0 km/h
1402 31-08-2010 16:34:02 22.6 C 5.42 g/m*3 22.6 C 0 km/h
1403 31-08-2010 16:46:02 21.3 C 5.59 g/m*3 21.3 C 0 km/h
1404 31-08-2010 16:58:02 20.9 C 5.46 g/m*3 20.9 C 0 km/h
1405 31-08-2010 17:10:02 22.8 C 5.08 g/m*3 22.8 C 0 km/h
1406 31-08-2010 17:22:03 20.9 C 5.83 g/m*3 20.9 C 0 km/h
1407 31-08-2010 17:34:02 21.8 C 5.56 g/m*3 21.8 C 0 km/h
1408 31-08-2010 17:46:02 21.6 C 5.69 g/m*3 21.6 C 0 km/h
1409 31-08-2010 17:58:02 22 C 5.63 g/m*3 22 C 0 km/h
1410 31-08-2010 18:10:02 22.7 C 5.66 g/m*3 22.7 C 0 km/h
1411 31-08-2010 18:22:02 22.3 C 5.33 g/m*3 22.3 C 0 km/h
1412 31-08-2010 18:34:02 22.1 C 5.47 g/m*3 22.1 C 0 km/h
1413 31-08-2010 18:46:02 22.1 C 5.86 g/m*3 22.1 C 0 km/h
1414 31-08-2010 18:58:02 22.1 C 6.05 g/m*3 22.1 C 0 km/h
1415 31-08-2010 19:10:01 21.7 C 6.1 g/m*3 21.7 C 0 km/h
1416 31-08-2010 19:22:02 20.5 C 5.69 g/m*3 20.5 C 0 km/h
1417 31-08-2010 19:34:02 20.4 C 6.55 g/m*3 20.4 C 0 km/h
1418 31-08-2010 19:46:02 20 C 6.91 g/m*3 20 C 0 km/h
1419 31-08-2010 19:58:03 19 C 7.33 g/m*3 19 C 0 km/h
1420 31-08-2010 20:10:01 17.9 C 7.18 g/m*3 17.9 C 0 km/h
1421 31-08-2010 20:22:01 16.9 C 7.19 g/m*3 16.9 C 0 km/h
1422 31-08-2010 20:34:02 16.2 C 7.17 g/m*3 16.2 C 0 km/h
1423 31-08-2010 20:46:02 15.7 C 7.09 g/m*3 15.7 C 0 km/h
1424 31-08-2010 20:58:02 15.2 C 7.14 g/m*3 15.2 C 0 km/h
1425 31-08-2010 21:10:02 14.9 C 7.39 g/m*3 14.9 C 0 km/h
Sensor: Nr:Datum:Temp:Abs-Feuchte:Windchill:Wind:
Aussen-T/F 1426 31-08-2010 21:22:02 14.7 C 7.43 g/m*3 14.7 C 0 km/h
1427 31-08-2010 21:34:02 14.5 C 7.59 g/m*3 14.5 C 0 km/h
1428 31-08-2010 21:47:09 14.2 C 7.69 g/m*3 14.2 C 0 km/h
1429 31-08-2010 21:59:09 13.9 C 7.91 g/m*3 13.9 C 0 km/h
1430 31-08-2010 22:11:09 13.8 C 8.22 g/m*3 13.8 C 0 km/h
1431 31-08-2010 22:23:09 13.5 C 8.07 g/m*3 13.5 C 0 km/h
1432 31-08-2010 22:35:09 13.2 C 8.04 g/m*3 13.2 C 0 km/h
1433 31-08-2010 22:47:09 13 C 8.05 g/m*3 13 C 0 km/h
1434 31-08-2010 22:59:09 12.7 C 8.13 g/m*3 12.7 C 0 km/h
1435 31-08-2010 23:11:09 12.5 C 8.14 g/m*3 12.5 C 0 km/h
1436 31-08-2010 23:23:09 12.4 C 8.19 g/m*3 12.4 C 0 km/h
1437 31-08-2010 23:35:09 12.4 C 8.09 g/m*3 12.4 C 0 km/h
1438 31-08-2010 23:47:09 12.2 C 7.99 g/m*3 12.2 C 0 km/h
1439 31-08-2010 23:59:09 12.1 C 8.04 g/m*3 12.1 C 0 km/h
1440 01-09-2010 00:11:09 12 C 8.1 g/m*3 12 C 0 km/h
1441 01-09-2010 00:23:09 11.8 C 8.1 g/m*3 11.8 C 0 km/h
1442 01-09-2010 00:35:09 11.6 C 8.11 g/m*3 11.6 C 0 km/h
1443 01-09-2010 00:47:10 11.3 C 8.06 g/m*3 11.3 C 0 km/h
1444 01-09-2010 00:59:10 11.2 C 8.01 g/m*3 11.2 C 0 km/h
1445 01-09-2010 01:11:10 11.2 C 8.11 g/m*3 11.2 C 0 km/h
1446 01-09-2010 01:23:10 11.1 C 8.06 g/m*3 11.1 C 0 km/h
1447 01-09-2010 01:35:10 11 C 8.11 g/m*3 11 C 0 km/h
1448 01-09-2010 01:47:10 10.9 C 8.16 g/m*3 10.9 C 0 km/h
1449 01-09-2010 01:59:10 10.7 C 8.05 g/m*3 10.7 C 0 km/h
1450 01-09-2010 02:11:10 10.6 C 8 g/m*3 10.6 C 0 km/h
Sensor: Nr:Datum:Temp:Abs-Feuchte:Windchill:Wind:
Aussen-T/F 1451 01-09-2010 02:23:10 10.5 C 7.95 g/m*3 10.5 C 0 km/h
1452 01-09-2010 02:35:10 10.4 C 8 g/m*3 10.4 C 0 km/h
1453 01-09-2010 02:47:10 10.2 C 7.9 g/m*3 10.2 C 0 km/h
1454 01-09-2010 02:59:10 10.1 C 7.94 g/m*3 10.1 C 0 km/h
1455 01-09-2010 03:11:10 10 C 7.89 g/m*3 10 C 0 km/h
1456 01-09-2010 03:23:10 9.9 C 8.03 g/m*3 9.9 C 0 km/h
1457 01-09-2010 03:35:10 9.8 C 8.07 g/m*3 9.8 C 0 km/h
1458 01-09-2010 03:47:10 9.6 C 7.97 g/m*3 9.6 C 0 km/h
1459 01-09-2010 03:59:10 9.4 C 7.87 g/m*3 9.4 C 0 km/h
1460 01-09-2010 04:11:10 9.3 C 7.91 g/m*3 9.3 C 0 km/h
1461 01-09-2010 04:23:10 9.2 C 7.86 g/m*3 9.2 C 0 km/h
1462 01-09-2010 04:35:10 9.1 C 7.81 g/m*3 9.1 C 0 km/h
1463 01-09-2010 04:47:10 9.1 C 7.9 g/m*3 9.1 C 0 km/h
1464 01-09-2010 04:59:11 9 C 7.85 g/m*3 9 C 0 km/h
1465 01-09-2010 05:11:11 8.9 C 7.88 g/m*3 8.9 C 0 km/h
1466 01-09-2010 05:23:11 8.9 C 7.97 g/m*3 8.9 C 0 km/h
1467 01-09-2010 05:35:11 8.9 C 7.97 g/m*3 8.9 C 0 km/h
1468 01-09-2010 05:47:11 8.9 C 7.97 g/m*3 8.9 C 0 km/h
1469 01-09-2010 05:59:11 9 C 7.93 g/m*3 9 C 0 km/h
1470 01-09-2010 06:11:11 9 C 8.02 g/m*3 9 C 0 km/h
1471 01-09-2010 06:23:11 8.9 C 8.06 g/m*3 8.9 C 0 km/h
1472 01-09-2010 06:35:11 8.9 C 8.06 g/m*3 8.9 C 0 km/h
1473 01-09-2010 06:47:11 9 C 8.02 g/m*3 9 C 0 km/h
1474 01-09-2010 06:59:11 8.9 C 8.06 g/m*3 8.9 C 0 km/h
1475 01-09-2010 07:11:03 9.1 C 8.07 g/m*3 9.1 C 0 km/h
Sensor: Nr:Datum:Temp:Abs-Feuchte:Windchill:Wind:
Aussen-T/F 1476 01-09-2010 07:23:03 9.1 C 7.99 g/m*3 9.1 C 0 km/h
1477 01-09-2010 07:35:02 9 C 7.93 g/m*3 9 C 0 km/h
1478 01-09-2010 07:47:01 8.9 C 7.97 g/m*3 8.9 C 0 km/h
1479 01-09-2010 07:59:01 9 C 7.93 g/m*3 9 C 0 km/h
1480 01-09-2010 08:11:02 9 C 7.93 g/m*3 9 C 0 km/h
1481 01-09-2010 08:23:02 9.1 C 7.99 g/m*3 9.1 C 0 km/h
1482 01-09-2010 08:35:01 9.2 C 8.04 g/m*3 9.2 C 0 km/h
1483 01-09-2010 08:47:02 9.3 C 8.09 g/m*3 9.3 C 0 km/h
1484 01-09-2010 08:59:02 9.7 C 8.2 g/m*3 9.7 C 0 km/h
1485 01-09-2010 09:11:02 9.8 C 8.16 g/m*3 9.8 C 0 km/h
1486 01-09-2010 09:23:02 10 C 8.08 g/m*3 10 C 0 km/h
1487 01-09-2010 09:35:02 10.2 C 8.09 g/m*3 10.2 C 0 km/h
1488 01-09-2010 09:47:02 10.5 C 8.15 g/m*3 10.5 C 0 km/h
1489 01-09-2010 09:59:02 10.6 C 8.2 g/m*3 10.6 C 0 km/h
1490 01-09-2010 10:11:02 11.2 C 8.41 g/m*3 11.2 C 0 km/h
1491 01-09-2010 10:23:01 11.7 C 8.58 g/m*3 11.7 C 0 km/h
1492 01-09-2010 10:35:02 12.2 C 8.52 g/m*3 12.2 C 0 km/h
1493 01-09-2010 10:47:01 12.4 C 8.52 g/m*3 12.4 C 0 km/h
1494 01-09-2010 10:59:01 13 C 8.73 g/m*3 13 C 0 km/h
1495 01-09-2010 11:11:02 13.4 C 8.72 g/m*3 13.4 C 0 km/h
1496 01-09-2010 11:23:02 13.7 C 8.64 g/m*3 13.7 C 0 km/h
1497 01-09-2010 11:35:02 14.1 C 8.74 g/m*3 14.1 C 0 km/h
1498 01-09-2010 11:47:02 14.7 C 8.94 g/m*3 14.7 C 0 km/h
1499 01-09-2010 11:59:02 15.4 C 8.8 g/m*3 15.4 C 0 km/h
1500 01-09-2010 12:11:02 16 C 8.72 g/m*3 16 C 0 km/h
Sensor: Nr:Datum:Temp:Abs-Feuchte:Windchill:Wind:
Aussen-T/F 1501 01-09-2010 12:23:02 16.9 C 8.63 g/m*3 16.9 C 0 km/h
1502 01-09-2010 12:35:01 17.2 C 8.2 g/m*3 17.2 C 0 km/h
1503 01-09-2010 12:47:02 17.8 C 8.5 g/m*3 17.8 C 0 km/h
1504 01-09-2010 12:59:02 18.3 C 8.6 g/m*3 18.3 C 0 km/h
1505 01-09-2010 13:11:01 18.7 C 8.33 g/m*3 18.7 C 0 km/h
1506 01-09-2010 13:23:01 19.2 C 8.08 g/m*3 19.2 C 0 km/h
1507 01-09-2010 13:35:02 19.7 C 7.81 g/m*3 19.7 C 0 km/h
1508 01-09-2010 13:47:02 19.9 C 7.9 g/m*3 19.9 C 0 km/h
1509 01-09-2010 13:59:02 20.1 C 7.65 g/m*3 20.1 C 0 km/h
1510 01-09-2010 14:11:02 20.9 C 7.47 g/m*3 20.9 C 0 km/h
1511 01-09-2010 14:23:02 20.1 C 6.95 g/m*3 20.1 C 0 km/h
1512 01-09-2010 14:35:02 21 C 7.33 g/m*3 21 C 0 km/h
1513 01-09-2010 14:47:02 21.7 C 6.87 g/m*3 21.7 C 0 km/h
1514 01-09-2010 14:59:02 22.2 C 6.48 g/m*3 22.2 C 0 km/h
1515 01-09-2010 15:11:03 22.6 C 6.43 g/m*3 22.6 C 0 km/h
1516 01-09-2010 15:23:02 23.2 C 6.03 g/m*3 23.2 C 0 km/h
1517 01-09-2010 15:35:02 23.5 C 5.71 g/m*3 23.5 C 0 km/h
1518 01-09-2010 15:47:01 24.1 C 5.91 g/m*3 24.1 C 0 km/h
1519 01-09-2010 15:59:01 24.6 C 5.85 g/m*3 24.6 C 0 km/h
1520 01-09-2010 16:11:02 23.5 C 5.5 g/m*3 23.5 C 0 km/h
1521 01-09-2010 16:23:01 24 C 5.87 g/m*3 24 C 0 km/h
1522 01-09-2010 16:35:01 23.8 C 6.02 g/m*3 23.8 C 0 km/h
1523 01-09-2010 16:47:01 23.8 C 6.45 g/m*3 23.8 C 0 km/h
1524 01-09-2010 16:59:01 23.9 C 6.27 g/m*3 23.9 C 0 km/h
1525 01-09-2010 17:11:02 23.1 C 6.2 g/m*3 23.1 C 0 km/h
Sensor: Nr:Datum:Temp:Abs-Feuchte:Windchill:Wind:
Aussen-T/F 1526 01-09-2010 17:23:01 22.7 C 6.47 g/m*3 22.7 C 0 km/h
1527 01-09-2010 17:35:01 22.1 C 6.05 g/m*3 22.1 C 0 km/h
1528 01-09-2010 17:47:01 21.3 C 6.52 g/m*3 21.3 C 0 km/h
1529 01-09-2010 17:59:01 21 C 6.59 g/m*3 21 C 0 km/h
1530 01-09-2010 18:11:01 20.7 C 7.02 g/m*3 20.7 C 0 km/h
1531 01-09-2010 18:23:02 20.3 C 6.86 g/m*3 20.3 C 0 km/h
1532 01-09-2010 18:35:01 21.6 C 7.02 g/m*3 21.6 C 0 km/h
1533 01-09-2010 18:47:02 22.1 C 6.83 g/m*3 22.1 C 0 km/h
1534 01-09-2010 18:59:02 20.8 C 7.06 g/m*3 20.8 C 0 km/h
1535 01-09-2010 19:11:01 20.7 C 7.38 g/m*3 20.7 C 0 km/h
1536 01-09-2010 19:23:02 20.3 C 7.56 g/m*3 20.3 C 0 km/h
1537 01-09-2010 19:35:01 19.6 C 7.77 g/m*3 19.6 C 0 km/h
1538 01-09-2010 19:47:02 19.1 C 8.03 g/m*3 19.1 C 0 km/h
1539 01-09-2010 19:59:02 18.4 C 8.49 g/m*3 18.4 C 0 km/h
1540 01-09-2010 20:11:02 18 C 8.45 g/m*3 18 C 0 km/h
1541 01-09-2010 20:23:02 17.6 C 8.7 g/m*3 17.6 C 0 km/h
1542 01-09-2010 20:35:03 17.3 C 8.84 g/m*3 17.3 C 0 km/h
1543 01-09-2010 20:47:02 17.1 C 8.73 g/m*3 17.1 C 0 km/h
1544 01-09-2010 20:59:02 16.8 C 8.86 g/m*3 16.8 C 0 km/h
1545 01-09-2010 21:11:01 16.6 C 8.9 g/m*3 16.6 C 0 km/h
1546 01-09-2010 21:23:02 16.5 C 8.85 g/m*3 16.5 C 0 km/h
1547 01-09-2010 21:35:02 16.3 C 8.88 g/m*3 16.3 C 0 km/h
1548 01-09-2010 21:47:02 16 C 8.72 g/m*3 16 C 0 km/h
1549 01-09-2010 21:59:02 15.8 C 8.88 g/m*3 15.8 C 0 km/h
1550 01-09-2010 22:12:03 15.8 C 8.88 g/m*3 15.8 C 0 km/h
Sensor: Nr:Datum:Temp:Abs-Feuchte:Windchill:Wind:
Aussen-T/F 1551 01-09-2010 22:24:03 15.6 C 8.78 g/m*3 15.6 C 0 km/h
1552 01-09-2010 22:36:03 15.5 C 8.86 g/m*3 15.5 C 0 km/h
1553 01-09-2010 22:48:03 15.3 C 8.75 g/m*3 15.3 C 0 km/h
1554 01-09-2010 23:00:03 15 C 8.59 g/m*3 15 C 0 km/h
1555 01-09-2010 23:12:03 14.6 C 8.38 g/m*3 14.6 C 0 km/h
1556 01-09-2010 23:24:03 14.1 C 8.13 g/m*3 14.1 C 0 km/h
1557 01-09-2010 23:36:03 13.6 C 8.12 g/m*3 13.6 C 0 km/h
1558 01-09-2010 23:48:03 13.5 C 8.19 g/m*3 13.5 C 0 km/h
1559 02-09-2010 00:00:04 13.3 C 8.2 g/m*3 13.3 C 0 km/h
1560 02-09-2010 00:12:04 13.1 C 8.1 g/m*3 13.1 C 0 km/h
1561 02-09-2010 00:24:04 13 C 8.17 g/m*3 13 C 0 km/h
1562 02-09-2010 00:36:04 12.9 C 8.34 g/m*3 12.9 C 0 km/h
1563 02-09-2010 00:48:04 12.8 C 8.29 g/m*3 12.8 C 0 km/h
1564 02-09-2010 01:00:04 12.6 C 8.3 g/m*3 12.6 C 0 km/h
1565 02-09-2010 01:12:04 12.5 C 8.36 g/m*3 12.5 C 0 km/h
1566 02-09-2010 01:24:04 12.3 C 8.36 g/m*3 12.3 C 0 km/h
1567 02-09-2010 01:36:04 12.1 C 8.26 g/m*3 12.1 C 0 km/h
1568 02-09-2010 01:48:04 12.1 C 8.58 g/m*3 12.1 C 0 km/h
1569 02-09-2010 02:00:04 11.9 C 8.58 g/m*3 11.9 C 0 km/h
1570 02-09-2010 02:12:04 11.7 C 8.58 g/m*3 11.7 C 0 km/h
1571 02-09-2010 02:24:04 11.6 C 8.63 g/m*3 11.6 C 0 km/h
1572 02-09-2010 02:36:04 11.5 C 8.57 g/m*3 11.5 C 0 km/h
1573 02-09-2010 02:48:04 11.3 C 8.47 g/m*3 11.3 C 0 km/h
1574 02-09-2010 03:00:04 11.2 C 8.41 g/m*3 11.2 C 0 km/h
1575 02-09-2010 03:12:04 11.1 C 8.36 g/m*3 11.1 C 0 km/h
Sensor: Nr:Datum:Temp:Abs-Feuchte:Windchill:Wind:
Aussen-T/F 1576 02-09-2010 03:24:04 11 C 8.31 g/m*3 11 C 0 km/h
1577 02-09-2010 03:36:04 10.9 C 8.26 g/m*3 10.9 C 0 km/h
1578 02-09-2010 03:48:04 10.8 C 8.2 g/m*3 10.8 C 0 km/h
1579 02-09-2010 04:00:04 10.7 C 8.25 g/m*3 10.7 C 0 km/h
1580 02-09-2010 04:12:05 10.5 C 8.24 g/m*3 10.5 C 0 km/h
1581 02-09-2010 04:24:05 10.4 C 8.29 g/m*3 10.4 C 0 km/h
1582 02-09-2010 04:36:05 10.3 C 8.33 g/m*3 10.3 C 0 km/h
1583 02-09-2010 04:48:05 10.3 C 8.33 g/m*3 10.3 C 0 km/h
1584 02-09-2010 05:00:05 10.3 C 8.43 g/m*3 10.3 C 0 km/h
1585 02-09-2010 05:12:05 10.3 C 8.43 g/m*3 10.3 C 0 km/h
1586 02-09-2010 05:24:05 10.3 C 8.52 g/m*3 10.3 C 0 km/h
1587 02-09-2010 05:36:05 10.3 C 8.52 g/m*3 10.3 C 0 km/h
1588 02-09-2010 05:48:05 10.4 C 8.58 g/m*3 10.4 C 0 km/h
1589 02-09-2010 06:00:05 10.3 C 8.52 g/m*3 10.3 C 0 km/h
1590 02-09-2010 06:12:05 10.3 C 8.52 g/m*3 10.3 C 0 km/h
1591 02-09-2010 06:24:05 10.3 C 8.62 g/m*3 10.3 C 0 km/h
1592 02-09-2010 06:36:03 10.4 C 8.67 g/m*3 10.4 C 0 km/h
1593 02-09-2010 06:48:01 10.4 C 8.67 g/m*3 10.4 C 0 km/h
1594 02-09-2010 07:00:01 10.4 C 8.67 g/m*3 10.4 C 0 km/h
1595 02-09-2010 07:12:02 10.5 C 8.73 g/m*3 10.5 C 0 km/h
1596 02-09-2010 07:24:01 10.7 C 8.84 g/m*3 10.7 C 0 km/h
1597 02-09-2010 07:36:01 10.9 C 8.95 g/m*3 10.9 C 0 km/h
1598 02-09-2010 07:48:01 10.9 C 8.85 g/m*3 10.9 C 0 km/h
1599 02-09-2010 08:00:01 11 C 8.81 g/m*3 11 C 0 km/h
1600 02-09-2010 08:12:02 11.3 C 8.98 g/m*3 11.3 C 0 km/h
Sensor: Nr:Datum:Temp:Abs-Feuchte:Windchill:Wind:
Aussen-T/F 1601 02-09-2010 08:24:02 11.3 C 8.98 g/m*3 11.3 C 0 km/h
1602 02-09-2010 08:36:01 11.4 C 8.93 g/m*3 11.4 C 0 km/h
1603 02-09-2010 08:48:02 11.7 C 9.1 g/m*3 11.7 C 0 km/h
1604 02-09-2010 09:00:03 11.7 C 8.99 g/m*3 11.7 C 0 km/h
1605 02-09-2010 09:12:02 12 C 8.95 g/m*3 12 C 0 km/h
1606 02-09-2010 09:24:02 12.5 C 9.13 g/m*3 12.5 C 0 km/h
1607 02-09-2010 09:36:02 12.8 C 9.07 g/m*3 12.8 C 0 km/h
1608 02-09-2010 09:48:01 13 C 8.73 g/m*3 13 C 0 km/h
1609 02-09-2010 10:00:01 13.5 C 8.77 g/m*3 13.5 C 0 km/h
1610 02-09-2010 10:12:02 13.9 C 8.75 g/m*3 13.9 C 0 km/h
1611 02-09-2010 10:24:01 14.1 C 8.62 g/m*3 14.1 C 0 km/h
1612 02-09-2010 10:36:01 14.3 C 8.6 g/m*3 14.3 C 0 km/h
1613 02-09-2010 10:48:02 14.3 C 8.48 g/m*3 14.3 C 0 km/h
1614 02-09-2010 11:00:02 14.4 C 8.65 g/m*3 14.4 C 0 km/h
1615 02-09-2010 11:12:02 14.8 C 9.12 g/m*3 14.8 C 0 km/h
1616 02-09-2010 11:24:01 15.3 C 9.14 g/m*3 15.3 C 0 km/h
1617 02-09-2010 11:36:02 16 C 8.99 g/m*3 16 C 0 km/h
1618 02-09-2010 11:48:01 16.8 C 9.15 g/m*3 16.8 C 0 km/h
1619 02-09-2010 12:00:01 17.5 C 9.24 g/m*3 17.5 C 0 km/h
1620 02-09-2010 12:12:02 18.1 C 9.12 g/m*3 18.1 C 0 km/h
1621 02-09-2010 12:24:02 18.5 C 8.86 g/m*3 18.5 C 0 km/h
1622 02-09-2010 12:36:01 19.2 C 8.41 g/m*3 19.2 C 0 km/h
1623 02-09-2010 12:48:02 20 C 7.95 g/m*3 20 C 0 km/h
1624 02-09-2010 13:00:02 20.2 C 7.34 g/m*3 20.2 C 0 km/h
1625 02-09-2010 13:12:01 20.1 C 7.3 g/m*3 20.1 C 0 km/h
Sensor: Nr:Datum:Temp:Abs-Feuchte:Windchill:Wind:
Aussen-T/F 1626 02-09-2010 13:24:01 21 C 7.51 g/m*3 21 C 0 km/h
1627 02-09-2010 13:36:02 21.6 C 7.21 g/m*3 21.6 C 0 km/h
1628 02-09-2010 13:48:02 21.3 C 7.46 g/m*3 21.3 C 0 km/h
1629 02-09-2010 14:00:02 21.7 C 7.63 g/m*3 21.7 C 0 km/h
1630 02-09-2010 14:12:01 22 C 7.38 g/m*3 22 C 0 km/h
1631 02-09-2010 14:24:02 21.7 C 7.06 g/m*3 21.7 C 0 km/h
1632 02-09-2010 14:36:02 22.9 C 6.95 g/m*3 22.9 C 0 km/h
1633 02-09-2010 14:48:02 22.7 C 7.07 g/m*3 22.7 C 0 km/h
1634 02-09-2010 15:00:02 22.6 C 7.03 g/m*3 22.6 C 0 km/h
1635 02-09-2010 15:12:02 21.8 C 6.72 g/m*3 21.8 C 0 km/h
1636 02-09-2010 15:24:02 20.3 C 6.68 g/m*3 20.3 C 0 km/h
1637 02-09-2010 15:36:02 20.9 C 7.1 g/m*3 20.9 C 0 km/h
1638 02-09-2010 15:48:02 21.5 C 6.98 g/m*3 21.5 C 0 km/h
1639 02-09-2010 16:00:02 20.9 C 6.74 g/m*3 20.9 C 0 km/h
1640 02-09-2010 16:12:02 20.2 C 6.82 g/m*3 20.2 C 0 km/h
1641 02-09-2010 16:24:02 20.3 C 7.03 g/m*3 20.3 C 0 km/h
1642 02-09-2010 16:36:02 20.8 C 7.24 g/m*3 20.8 C 0 km/h
1643 02-09-2010 16:48:02 20.8 C 6.7 g/m*3 20.8 C 0 km/h
1644 02-09-2010 17:00:02 20 C 6.91 g/m*3 20 C 0 km/h
1645 02-09-2010 17:12:02 19.3 C 7.13 g/m*3 19.3 C 0 km/h
1646 02-09-2010 17:24:02 19.6 C 7.26 g/m*3 19.6 C 0 km/h
1647 02-09-2010 17:36:02 19.6 C 7.26 g/m*3 19.6 C 0 km/h
1648 02-09-2010 17:48:02 19.2 C 7.09 g/m*3 19.2 C 0 km/h
1649 02-09-2010 18:00:02 18.9 C 7.13 g/m*3 18.9 C 0 km/h
1650 02-09-2010 18:12:01 18.7 C 7.36 g/m*3 18.7 C 0 km/h
Sensor: Nr:Datum:Temp:Abs-Feuchte:Windchill:Wind:
Aussen-T/F 1651 02-09-2010 18:24:02 18.7 C 7.52 g/m*3 18.7 C 0 km/h
1652 02-09-2010 18:36:02 18.6 C 7.48 g/m*3 18.6 C 0 km/h
1653 02-09-2010 18:48:01 18.4 C 7.55 g/m*3 18.4 C 0 km/h
1654 02-09-2010 19:00:01 18.5 C 8.07 g/m*3 18.5 C 0 km/h
1655 02-09-2010 19:12:02 18.3 C 8.6 g/m*3 18.3 C 0 km/h
1656 02-09-2010 19:24:01 17.8 C 8.95 g/m*3 17.8 C 0 km/h
1657 02-09-2010 19:36:02 17.2 C 9.23 g/m*3 17.2 C 0 km/h
1658 02-09-2010 19:48:02 16.4 C 9.63 g/m*3 16.4 C 0 km/h
1659 02-09-2010 20:00:02 15.8 C 9.96 g/m*3 15.8 C 0 km/h
1660 02-09-2010 20:12:02 15.5 C 9.91 g/m*3 15.5 C 0 km/h
1661 02-09-2010 20:24:02 15 C 9.87 g/m*3 15 C 0 km/h
1662 02-09-2010 20:36:02 14.7 C 10.07 g/m*3 14.7 C 0 km/h
1663 02-09-2010 20:48:01 14.7 C 10.2 g/m*3 14.7 C 0 km/h
1664 02-09-2010 21:00:01 14.5 C 10.07 g/m*3 14.5 C 0 km/h
1665 02-09-2010 21:12:02 14.4 C 9.89 g/m*3 14.4 C 0 km/h
1666 02-09-2010 21:24:01 14.5 C 9.95 g/m*3 14.5 C 0 km/h
1667 02-09-2010 21:36:02 14.4 C 9.77 g/m*3 14.4 C 0 km/h
1668 02-09-2010 21:49:02 14.3 C 9.58 g/m*3 14.3 C 0 km/h
1669 02-09-2010 22:01:02 14.4 C 9.52 g/m*3 14.4 C 0 km/h
1670 02-09-2010 22:13:02 14 C 9.29 g/m*3 14 C 0 km/h
1671 02-09-2010 22:25:02 13.7 C 9.24 g/m*3 13.7 C 0 km/h
1672 02-09-2010 22:37:02 13.6 C 9.3 g/m*3 13.6 C 0 km/h
1673 02-09-2010 22:49:03 13.5 C 9.36 g/m*3 13.5 C 0 km/h
1674 02-09-2010 23:01:03 13 C 9.07 g/m*3 13 C 0 km/h
1675 02-09-2010 23:13:03 13.2 C 9.3 g/m*3 13.2 C 0 km/h
Sensor: Nr:Datum:Temp:Abs-Feuchte:Windchill:Wind:
Aussen-T/F 1676 02-09-2010 23:25:03 13.1 C 9.24 g/m*3 13.1 C 0 km/h
1677 02-09-2010 23:37:03 12.9 C 9.24 g/m*3 12.9 C 0 km/h
1678 02-09-2010 23:49:03 12.7 C 9.13 g/m*3 12.7 C 0 km/h
1679 03-09-2010 00:01:03 12.7 C 9.13 g/m*3 12.7 C 0 km/h
1680 03-09-2010 00:13:03 12.5 C 9.13 g/m*3 12.5 C 0 km/h
1681 03-09-2010 00:25:03 12.4 C 9.07 g/m*3 12.4 C 0 km/h
1682 03-09-2010 00:37:03 12.3 C 9.12 g/m*3 12.3 C 0 km/h
1683 03-09-2010 00:49:03 12.2 C 9.06 g/m*3 12.2 C 0 km/h
1684 03-09-2010 01:01:03 12.1 C 9.01 g/m*3 12.1 C 0 km/h
1685 03-09-2010 01:13:03 11.9 C 8.9 g/m*3 11.9 C 0 km/h
1686 03-09-2010 01:25:03 11.9 C 9 g/m*3 11.9 C 0 km/h
1687 03-09-2010 01:37:03 11.7 C 8.89 g/m*3 11.7 C 0 km/h
1688 03-09-2010 01:49:03 11.5 C 8.78 g/m*3 11.5 C 0 km/h
1689 03-09-2010 02:01:03 11.5 C 8.88 g/m*3 11.5 C 0 km/h
1690 03-09-2010 02:13:03 11.4 C 8.83 g/m*3 11.4 C 0 km/h
1691 03-09-2010 02:25:03 11.1 C 8.66 g/m*3 11.1 C 0 km/h
1692 03-09-2010 02:37:03 11.1 C 8.66 g/m*3 11.1 C 0 km/h
1693 03-09-2010 02:49:03 11.1 C 8.76 g/m*3 11.1 C 0 km/h
1694 03-09-2010 03:01:04 11 C 8.71 g/m*3 11 C 0 km/h
1695 03-09-2010 03:13:04 10.8 C 8.7 g/m*3 10.8 C 0 km/h
1696 03-09-2010 03:25:04 10.7 C 8.64 g/m*3 10.7 C 0 km/h
1697 03-09-2010 03:37:04 10.6 C 8.59 g/m*3 10.6 C 0 km/h
1698 03-09-2010 03:49:04 10.5 C 8.53 g/m*3 10.5 C 0 km/h
1699 03-09-2010 04:01:04 10.4 C 8.58 g/m*3 10.4 C 0 km/h
1700 03-09-2010 04:13:04 10.4 C 8.58 g/m*3 10.4 C 0 km/h
Sensor: Nr:Datum:Temp:Abs-Feuchte:Windchill:Wind:
Aussen-T/F 1701 03-09-2010 04:25:04 10.4 C 8.67 g/m*3 10.4 C 0 km/h
1702 03-09-2010 04:37:04 10.3 C 8.62 g/m*3 10.3 C 0 km/h
1703 03-09-2010 04:49:04 10.2 C 8.56 g/m*3 10.2 C 0 km/h
1704 03-09-2010 05:01:04 10.2 C 8.56 g/m*3 10.2 C 0 km/h
1705 03-09-2010 05:13:04 10.3 C 8.62 g/m*3 10.3 C 0 km/h
1706 03-09-2010 05:25:04 10.4 C 8.77 g/m*3 10.4 C 0 km/h
1707 03-09-2010 05:37:04 10.4 C 8.77 g/m*3 10.4 C 0 km/h
1708 03-09-2010 05:49:04 10.7 C 9.04 g/m*3 10.7 C 0 km/h
1709 03-09-2010 06:01:04 10.9 C 9.15 g/m*3 10.9 C 0 km/h
1710 03-09-2010 06:13:04 11 C 9.21 g/m*3 11 C 0 km/h
1711 03-09-2010 06:25:04 11.1 C 9.27 g/m*3 11.1 C 0 km/h
1712 03-09-2010 06:37:04 11.1 C 9.27 g/m*3 11.1 C 0 km/h
1713 03-09-2010 06:49:04 11.3 C 9.28 g/m*3 11.3 C 0 km/h
1714 03-09-2010 07:01:02 11.4 C 9.34 g/m*3 11.4 C 0 km/h
1715 03-09-2010 07:13:02 11.2 C 9.22 g/m*3 11.2 C 0 km/h
1716 03-09-2010 07:25:02 11.2 C 9.22 g/m*3 11.2 C 0 km/h
1717 03-09-2010 07:37:03 11.5 C 9.4 g/m*3 11.5 C 0 km/h
1718 03-09-2010 07:49:02 11.5 C 9.4 g/m*3 11.5 C 0 km/h
1719 03-09-2010 08:01:03 11.6 C 9.46 g/m*3 11.6 C 0 km/h
1720 03-09-2010 08:13:03 11.7 C 9.41 g/m*3 11.7 C 0 km/h
1721 03-09-2010 08:25:02 11.7 C 9.41 g/m*3 11.7 C 0 km/h
1722 03-09-2010 08:37:03 11.6 C 9.25 g/m*3 11.6 C 0 km/h
1723 03-09-2010 08:49:02 11.6 C 9.15 g/m*3 11.6 C 0 km/h
1724 03-09-2010 09:01:02 12 C 9.27 g/m*3 12 C 0 km/h
1725 03-09-2010 09:13:02 12.1 C 9.22 g/m*3 12.1 C 0 km/h
Sensor: Nr:Datum:Temp:Abs-Feuchte:Windchill:Wind:
Aussen-T/F 1726 03-09-2010 09:25:02 12.3 C 9.23 g/m*3 12.3 C 0 km/h
1727 03-09-2010 09:37:02 12.7 C 9.35 g/m*3 12.7 C 0 km/h
1728 03-09-2010 09:49:02 13.1 C 9.36 g/m*3 13.1 C 0 km/h
1729 03-09-2010 10:01:02 12.9 C 9.13 g/m*3 12.9 C 0 km/h
1730 03-09-2010 10:13:02 12.8 C 9.18 g/m*3 12.8 C 0 km/h
1731 03-09-2010 10:25:02 13.5 C 9.36 g/m*3 13.5 C 0 km/h
1732 03-09-2010 10:37:03 14 C 9.05 g/m*3 14 C 0 km/h
1733 03-09-2010 10:49:02 14.7 C 9.32 g/m*3 14.7 C 0 km/h
1734 03-09-2010 11:01:02 15.3 C 9.14 g/m*3 15.3 C 0 km/h
1735 03-09-2010 11:13:02 15.4 C 8.93 g/m*3 15.4 C 0 km/h
1736 03-09-2010 11:25:02 15.8 C 9.02 g/m*3 15.8 C 0 km/h
1737 03-09-2010 11:37:02 16.4 C 8.93 g/m*3 16.4 C 0 km/h
1738 03-09-2010 11:49:02 16.6 C 8.62 g/m*3 16.6 C 0 km/h
1739 03-09-2010 12:01:02 17.4 C 8.45 g/m*3 17.4 C 0 km/h
1740 03-09-2010 12:13:02 17.7 C 8.6 g/m*3 17.7 C 0 km/h
1741 03-09-2010 12:25:02 17.8 C 8.35 g/m*3 17.8 C 0 km/h
1742 03-09-2010 12:37:02 18.1 C 8.34 g/m*3 18.1 C 0 km/h
1743 03-09-2010 12:49:01 18.3 C 8.6 g/m*3 18.3 C 0 km/h
1744 03-09-2010 13:01:01 18.8 C 8.37 g/m*3 18.8 C 0 km/h
1745 03-09-2010 13:13:01 19.4 C 8.18 g/m*3 19.4 C 0 km/h
1746 03-09-2010 13:25:01 20.1 C 8.17 g/m*3 20.1 C 0 km/h
1747 03-09-2010 13:37:01 19.9 C 7.9 g/m*3 19.9 C 0 km/h
1748 03-09-2010 13:49:01 20.2 C 8.22 g/m*3 20.2 C 0 km/h
1749 03-09-2010 14:01:01 20 C 7.6 g/m*3 20 C 0 km/h
1750 03-09-2010 14:13:01 20.5 C 7.65 g/m*3 20.5 C 0 km/h
Sensor: Nr:Datum:Temp:Abs-Feuchte:Windchill:Wind:
Aussen-T/F 1751 03-09-2010 14:25:01 19.7 C 7.64 g/m*3 19.7 C 0 km/h
1752 03-09-2010 14:37:01 20.4 C 7.96 g/m*3 20.4 C 0 km/h
1753 03-09-2010 14:49:01 21.4 C 7.31 g/m*3 21.4 C 0 km/h
1754 03-09-2010 15:01:02 21.8 C 7.1 g/m*3 21.8 C 0 km/h
1755 03-09-2010 15:13:02 22.7 C 7.27 g/m*3 22.7 C 0 km/h
1756 03-09-2010 15:25:01 23.3 C 6.9 g/m*3 23.3 C 0 km/h
1757 03-09-2010 15:37:01 22.7 C 6.87 g/m*3 22.7 C 0 km/h
1758 03-09-2010 15:49:01 23.4 C 6.94 g/m*3 23.4 C 0 km/h
1759 03-09-2010 16:01:01 24.8 C 6.83 g/m*3 24.8 C 0 km/h
1760 03-09-2010 16:13:01 25.5 C 6.63 g/m*3 25.5 C 0 km/h
1761 03-09-2010 16:25:02 25.7 C 6.46 g/m*3 25.7 C 0 km/h
1762 03-09-2010 16:37:01 25.7 C 6.46 g/m*3 25.7 C 0 km/h
1763 03-09-2010 16:49:02 23.9 C 6.49 g/m*3 23.9 C 0 km/h
1764 03-09-2010 17:01:01 25.3 C 6.32 g/m*3 25.3 C 0 km/h
1765 03-09-2010 17:13:01 24.8 C 6.6 g/m*3 24.8 C 0 km/h
1766 03-09-2010 17:25:01 23.9 C 6.49 g/m*3 23.9 C 0 km/h
1767 03-09-2010 17:37:01 23.4 C 6.52 g/m*3 23.4 C 0 km/h
1768 03-09-2010 17:49:02 23.2 C 6.65 g/m*3 23.2 C 0 km/h
1769 03-09-2010 18:01:02 23 C 7.6 g/m*3 23 C 0 km/h
1770 03-09-2010 18:13:02 23.1 C 8.06 g/m*3 23.1 C 0 km/h
1771 03-09-2010 18:25:02 23.2 C 8.11 g/m*3 23.2 C 0 km/h
1772 03-09-2010 18:37:02 22.5 C 7.99 g/m*3 22.5 C 0 km/h
1773 03-09-2010 18:49:01 21.7 C 8.77 g/m*3 21.7 C 0 km/h
1774 03-09-2010 19:01:02 21.2 C 8.9 g/m*3 21.2 C 0 km/h
1775 03-09-2010 19:13:02 20.6 C 8.95 g/m*3 20.6 C 0 km/h
Sensor: Nr:Datum:Temp:Abs-Feuchte:Windchill:Wind:
Aussen-T/F 1776 03-09-2010 19:25:01 20.6 C 8.77 g/m*3 20.6 C 0 km/h
1777 03-09-2010 19:37:02 20.7 C 8.82 g/m*3 20.7 C 0 km/h
1778 03-09-2010 19:49:02 20.4 C 8.85 g/m*3 20.4 C 0 km/h
1779 03-09-2010 20:01:02 19.7 C 8.66 g/m*3 19.7 C 0 km/h
1780 03-09-2010 20:13:02 19.2 C 8.08 g/m*3 19.2 C 0 km/h
1781 03-09-2010 20:25:01 18.3 C 8.6 g/m*3 18.3 C 0 km/h
1782 03-09-2010 20:37:02 18.1 C 7.88 g/m*3 18.1 C 0 km/h
1783 03-09-2010 20:49:02 17.8 C 8.04 g/m*3 17.8 C 0 km/h
1784 03-09-2010 21:01:02 17 C 8.39 g/m*3 17 C 0 km/h
1785 03-09-2010 21:13:02 16.5 C 8.57 g/m*3 16.5 C 0 km/h
1786 03-09-2010 21:25:02 16.2 C 8.55 g/m*3 16.2 C 0 km/h
1787 03-09-2010 21:37:02 16.1 C 8.64 g/m*3 16.1 C 0 km/h
1788 03-09-2010 21:49:01 15.8 C 8.62 g/m*3 15.8 C 0 km/h
1789 03-09-2010 22:01:01 15.6 C 8.78 g/m*3 15.6 C 0 km/h
1790 03-09-2010 22:13:01 15.3 C 8.75 g/m*3 15.3 C 0 km/h
1791 03-09-2010 22:25:02 15.2 C 8.7 g/m*3 15.2 C 0 km/h
1792 03-09-2010 22:37:01 15.2 C 8.96 g/m*3 15.2 C 0 km/h
1793 03-09-2010 22:50:03 15.5 C 9.12 g/m*3 15.5 C 0 km/h
1794 03-09-2010 23:02:03 15.5 C 9.25 g/m*3 15.5 C 0 km/h
1795 03-09-2010 23:14:03 15.4 C 9.2 g/m*3 15.4 C 0 km/h
1796 03-09-2010 23:26:03 15.4 C 9.2 g/m*3 15.4 C 0 km/h
1797 03-09-2010 23:38:03 15.2 C 9.22 g/m*3 15.2 C 0 km/h
1798 03-09-2010 23:50:03 15.2 C 9.22 g/m*3 15.2 C 0 km/h
1799 04-09-2010 00:02:03 15.2 C 9.22 g/m*3 15.2 C 0 km/h
1800 04-09-2010 00:14:03 15.1 C 9.29 g/m*3 15.1 C 0 km/h
Sensor: Nr:Datum:Temp:Abs-Feuchte:Windchill:Wind:
Aussen-T/F 1801 04-09-2010 00:26:03 15.1 C 9.29 g/m*3 15.1 C 0 km/h
1802 04-09-2010 00:38:03 15.1 C 9.29 g/m*3 15.1 C 0 km/h
1803 04-09-2010 00:50:03 15 C 9.36 g/m*3 15 C 0 km/h
1804 04-09-2010 01:02:03 15 C 9.36 g/m*3 15 C 0 km/h
1805 04-09-2010 01:14:03 15 C 9.36 g/m*3 15 C 0 km/h
1806 04-09-2010 01:26:04 14.7 C 9.44 g/m*3 14.7 C 0 km/h
1807 04-09-2010 01:38:04 14.7 C 9.44 g/m*3 14.7 C 0 km/h
1808 04-09-2010 01:50:04 14.7 C 9.44 g/m*3 14.7 C 0 km/h
1809 04-09-2010 02:02:04 14.5 C 9.45 g/m*3 14.5 C 0 km/h
1810 04-09-2010 02:14:04 14.4 C 9.39 g/m*3 14.4 C 0 km/h
1811 04-09-2010 02:26:04 14.2 C 9.4 g/m*3 14.2 C 0 km/h
1812 04-09-2010 02:38:04 14.2 C 9.4 g/m*3 14.2 C 0 km/h
1813 04-09-2010 02:50:04 14.1 C 9.34 g/m*3 14.1 C 0 km/h
1814 04-09-2010 03:02:04 14 C 9.29 g/m*3 14 C 0 km/h
1815 04-09-2010 03:14:04 13.7 C 9.35 g/m*3 13.7 C 0 km/h
1816 04-09-2010 03:26:04 13.7 C 9.35 g/m*3 13.7 C 0 km/h
1817 04-09-2010 03:38:04 13.6 C 9.53 g/m*3 13.6 C 0 km/h
1818 04-09-2010 03:50:04 13.6 C 9.53 g/m*3 13.6 C 0 km/h
1819 04-09-2010 04:02:04 13.4 C 9.42 g/m*3 13.4 C 0 km/h
1820 04-09-2010 04:14:04 13.3 C 9.47 g/m*3 13.3 C 0 km/h
1821 04-09-2010 04:26:04 13.1 C 9.36 g/m*3 13.1 C 0 km/h
1822 04-09-2010 04:38:04 13.2 C 9.64 g/m*3 13.2 C 0 km/h
1823 04-09-2010 04:50:04 13 C 9.53 g/m*3 13 C 0 km/h
1824 04-09-2010 05:02:04 13.1 C 9.59 g/m*3 13.1 C 0 km/h
1825 04-09-2010 05:14:04 13.2 C 9.64 g/m*3 13.2 C 0 km/h
Sensor: Nr:Datum:Temp:Abs-Feuchte:Windchill:Wind:
Aussen-T/F 1826 04-09-2010 05:26:04 13.2 C 9.64 g/m*3 13.2 C 0 km/h
1827 04-09-2010 05:38:05 13.1 C 9.59 g/m*3 13.1 C 0 km/h
1828 04-09-2010 05:50:05 12.9 C 9.47 g/m*3 12.9 C 0 km/h
1829 04-09-2010 06:02:05 12.9 C 9.47 g/m*3 12.9 C 0 km/h
1830 04-09-2010 06:14:05 12.7 C 9.35 g/m*3 12.7 C 0 km/h
1831 04-09-2010 06:26:05 12.5 C 9.24 g/m*3 12.5 C 0 km/h
1832 04-09-2010 06:38:05 12.4 C 9.29 g/m*3 12.4 C 0 km/h
1833 04-09-2010 06:50:05 12.2 C 9.17 g/m*3 12.2 C 0 km/h
1834 04-09-2010 07:02:05 12 C 9.17 g/m*3 12 C 0 km/h
1835 04-09-2010 07:14:05 12 C 9.17 g/m*3 12 C 0 km/h
1836 04-09-2010 07:26:05 12 C 9.17 g/m*3 12 C 0 km/h
1837 04-09-2010 07:38:05 12.2 C 9.39 g/m*3 12.2 C 0 km/h
1838 04-09-2010 07:50:02 12.2 C 9.39 g/m*3 12.2 C 0 km/h
1839 04-09-2010 08:02:02 12.5 C 9.68 g/m*3 12.5 C 0 km/h
1840 04-09-2010 08:14:02 12.7 C 9.8 g/m*3 12.7 C 0 km/h
1841 04-09-2010 08:26:03 12.7 C 9.68 g/m*3 12.7 C 0 km/h
1842 04-09-2010 08:38:02 12.9 C 9.81 g/m*3 12.9 C 0 km/h
1843 04-09-2010 08:50:02 13.2 C 9.87 g/m*3 13.2 C 0 km/h
1844 04-09-2010 09:02:02 13.7 C 10.07 g/m*3 13.7 C 0 km/h
1845 04-09-2010 09:14:02 14.3 C 10.2 g/m*3 14.3 C 0 km/h
1846 04-09-2010 09:26:02 14.6 C 10.01 g/m*3 14.6 C 0 km/h
1847 04-09-2010 09:38:02 14.7 C 9.82 g/m*3 14.7 C 0 km/h
1848 04-09-2010 09:50:02 14.9 C 9.69 g/m*3 14.9 C 0 km/h
1849 04-09-2010 10:02:02 15.2 C 9.61 g/m*3 15.2 C 0 km/h
1850 04-09-2010 10:14:02 15.6 C 9.58 g/m*3 15.6 C 0 km/h
Sensor: Nr:Datum:Temp:Abs-Feuchte:Windchill:Wind:
Aussen-T/F 1851 04-09-2010 10:26:02 15.9 C 9.62 g/m*3 15.9 C 0 km/h
1852 04-09-2010 10:38:02 17 C 9.41 g/m*3 17 C 0 km/h
1853 04-09-2010 10:50:02 17.8 C 9.11 g/m*3 17.8 C 0 km/h
1854 04-09-2010 11:02:02 17.8 C 9.11 g/m*3 17.8 C 0 km/h
1855 04-09-2010 11:14:02 18.1 C 8.96 g/m*3 18.1 C 0 km/h
1856 04-09-2010 11:26:03 18.9 C 8.75 g/m*3 18.9 C 0 km/h
1857 04-09-2010 11:38:02 19.6 C 8.61 g/m*3 19.6 C 0 km/h
1858 04-09-2010 11:50:02 20 C 8.3 g/m*3 20 C 0 km/h
1859 04-09-2010 12:02:02 18.3 C 8.13 g/m*3 18.3 C 0 km/h
1860 04-09-2010 12:14:02 19.7 C 8.49 g/m*3 19.7 C 0 km/h
1861 04-09-2010 12:26:02 19 C 7.33 g/m*3 19 C 0 km/h
1862 04-09-2010 12:38:02 18.5 C 7.59 g/m*3 18.5 C 0 km/h
1863 04-09-2010 12:50:02 18.8 C 7.89 g/m*3 18.8 C 0 km/h
1864 04-09-2010 13:02:02 19.2 C 7.42 g/m*3 19.2 C 0 km/h
1865 04-09-2010 13:14:02 19.9 C 7.9 g/m*3 19.9 C 0 km/h
1866 04-09-2010 13:26:02 19.9 C 7.56 g/m*3 19.9 C 0 km/h
1867 04-09-2010 13:38:01 18.8 C 7.73 g/m*3 18.8 C 0 km/h
1868 04-09-2010 13:50:02 20.1 C 7.47 g/m*3 20.1 C 0 km/h
1869 04-09-2010 14:02:01 21.5 C 6.98 g/m*3 21.5 C 0 km/h
1870 04-09-2010 14:14:01 22 C 6.79 g/m*3 22 C 0 km/h
1871 04-09-2010 14:26:02 22.2 C 6.68 g/m*3 22.2 C 0 km/h
1872 04-09-2010 14:38:02 22.1 C 6.83 g/m*3 22.1 C 0 km/h
1873 04-09-2010 14:50:02 23.2 C 6.24 g/m*3 23.2 C 0 km/h
1874 04-09-2010 15:02:02 23.4 C 6.1 g/m*3 23.4 C 0 km/h
1875 04-09-2010 15:14:02 24.3 C 6.64 g/m*3 24.3 C 0 km/h
Sensor: Nr:Datum:Temp:Abs-Feuchte:Windchill:Wind:
Aussen-T/F 1876 04-09-2010 15:26:02 24.1 C 5.91 g/m*3 24.1 C 0 km/h
1877 04-09-2010 15:38:02 21.8 C 6.14 g/m*3 21.8 C 0 km/h
1878 04-09-2010 15:50:01 20.8 C 6.52 g/m*3 20.8 C 0 km/h
1879 04-09-2010 16:02:02 22.8 C 5.69 g/m*3 22.8 C 0 km/h
1880 04-09-2010 16:14:02 24.7 C 5.21 g/m*3 24.7 C 0 km/h
1881 04-09-2010 16:26:01 22.2 C 5.5 g/m*3 22.2 C 0 km/h
1882 04-09-2010 16:38:01 21.3 C 5.59 g/m*3 21.3 C 0 km/h
1883 04-09-2010 16:50:01 21.1 C 5.53 g/m*3 21.1 C 0 km/h
1884 04-09-2010 17:02:02 22.4 C 5.76 g/m*3 22.4 C 0 km/h
1885 04-09-2010 17:14:02 23.3 C 5.23 g/m*3 23.3 C 0 km/h
1886 04-09-2010 17:26:01 23.5 C 5.08 g/m*3 23.5 C 0 km/h
1887 04-09-2010 17:38:01 22.9 C 4.09 g/m*3 22.9 C 0 km/h
1888 04-09-2010 17:50:01 23.5 C 4.23 g/m*3 23.5 C 0 km/h
1889 04-09-2010 18:02:01 22.9 C 4.29 g/m*3 22.9 C 0 km/h
1890 04-09-2010 18:14:01 23.2 C 4.57 g/m*3 23.2 C 0 km/h
1891 04-09-2010 18:26:02 23.1 C 4.13 g/m*3 23.1 C 0 km/h
1892 04-09-2010 18:38:01 22.9 C 4.29 g/m*3 22.9 C 0 km/h
1893 04-09-2010 18:50:02 21.6 C 4.55 g/m*3 21.6 C 0 km/h
1894 04-09-2010 19:02:01 21.2 C 5.19 g/m*3 21.2 C 0 km/h
1895 04-09-2010 19:14:01 20.7 C 5.04 g/m*3 20.7 C 0 km/h
1896 04-09-2010 19:26:02 19.4 C 5.34 g/m*3 19.4 C 0 km/h
1897 04-09-2010 19:38:01 19 C 5.7 g/m*3 19 C 0 km/h
1898 04-09-2010 19:50:03 18.4 C 6.29 g/m*3 18.4 C 0 km/h
1899 04-09-2010 20:02:02 17.5 C 6.41 g/m*3 17.5 C 0 km/h
1900 04-09-2010 20:14:02 16.6 C 6.36 g/m*3 16.6 C 0 km/h
Sensor: Nr:Datum:Temp:Abs-Feuchte:Windchill:Wind:
Aussen-T/F 1901 04-09-2010 20:26:03 15.9 C 6.5 g/m*3 15.9 C 0 km/h
1902 04-09-2010 20:38:02 15.5 C 6.61 g/m*3 15.5 C 0 km/h
1903 04-09-2010 20:50:02 15.2 C 6.75 g/m*3 15.2 C 0 km/h
1904 04-09-2010 21:02:02 15.2 C 6.88 g/m*3 15.2 C 0 km/h
1905 04-09-2010 21:14:02 14.8 C 6.84 g/m*3 14.8 C 0 km/h
1906 04-09-2010 21:26:02 14.8 C 6.97 g/m*3 14.8 C 0 km/h
1907 04-09-2010 21:38:01 15 C 6.92 g/m*3 15 C 0 km/h
1908 04-09-2010 21:50:02 14.8 C 7.09 g/m*3 14.8 C 0 km/h
1909 04-09-2010 22:02:02 14.8 C 7.22 g/m*3 14.8 C 0 km/h
1910 04-09-2010 22:14:03 14.4 C 7.17 g/m*3 14.4 C 0 km/h
1911 04-09-2010 22:26:01 14.1 C 7.28 g/m*3 14.1 C 0 km/h
1912 04-09-2010 22:38:02 14 C 7.36 g/m*3 14 C 0 km/h
1913 04-09-2010 22:50:02 13.5 C 7.25 g/m*3 13.5 C 0 km/h
1914 04-09-2010 23:03:03 13.5 C 7.49 g/m*3 13.5 C 0 km/h
1915 04-09-2010 23:15:03 13.2 C 7.46 g/m*3 13.2 C 0 km/h
1916 04-09-2010 23:27:03 13.1 C 7.53 g/m*3 13.1 C 0 km/h
1917 04-09-2010 23:39:03 13 C 7.71 g/m*3 13 C 0 km/h
1918 04-09-2010 23:51:03 12.8 C 7.73 g/m*3 12.8 C 0 km/h
1919 05-09-2010 00:03:03 12.7 C 7.68 g/m*3 12.7 C 0 km/h
1920 05-09-2010 00:15:03 12.3 C 7.49 g/m*3 12.3 C 0 km/h
1921 05-09-2010 00:27:03 12.1 C 7.61 g/m*3 12.1 C 0 km/h
1922 05-09-2010 00:39:03 11.9 C 7.63 g/m*3 11.9 C 0 km/h
1923 05-09-2010 00:51:03 11.8 C 7.68 g/m*3 11.8 C 0 km/h
1924 05-09-2010 01:03:03 11.6 C 7.59 g/m*3 11.6 C 0 km/h
1925 05-09-2010 01:15:03 11.4 C 7.49 g/m*3 11.4 C 0 km/h
Sensor: Nr:Datum:Temp:Abs-Feuchte:Windchill:Wind:
Aussen-T/F 1926 05-09-2010 01:27:03 11.2 C 7.6 g/m*3 11.2 C 0 km/h
1927 05-09-2010 01:39:03 11 C 7.51 g/m*3 11 C 0 km/h
1928 05-09-2010 01:51:03 10.9 C 7.46 g/m*3 10.9 C 0 km/h
1929 05-09-2010 02:03:03 10.8 C 7.61 g/m*3 10.8 C 0 km/h
1930 05-09-2010 02:15:03 10.6 C 7.52 g/m*3 10.6 C 0 km/h
1931 05-09-2010 02:27:04 10.4 C 7.52 g/m*3 10.4 C 0 km/h
1932 05-09-2010 02:39:04 10.3 C 7.47 g/m*3 10.3 C 0 km/h
1933 05-09-2010 02:51:04 10.1 C 7.47 g/m*3 10.1 C 0 km/h
1934 05-09-2010 03:03:04 10 C 7.33 g/m*3 10 C 0 km/h
1935 05-09-2010 03:15:04 9.8 C 7.42 g/m*3 9.8 C 0 km/h
1936 05-09-2010 03:27:04 9.7 C 7.47 g/m*3 9.7 C 0 km/h
1937 05-09-2010 03:39:04 9.6 C 7.42 g/m*3 9.6 C 0 km/h
1938 05-09-2010 03:51:04 9.5 C 7.37 g/m*3 9.5 C 0 km/h
1939 05-09-2010 04:03:04 9.2 C 7.23 g/m*3 9.2 C 0 km/h
1940 05-09-2010 04:15:04 9.2 C 7.23 g/m*3 9.2 C 0 km/h
1941 05-09-2010 04:27:04 9.2 C 7.32 g/m*3 9.2 C 0 km/h
1942 05-09-2010 04:39:04 9.1 C 7.28 g/m*3 9.1 C 0 km/h
1943 05-09-2010 04:51:04 8.9 C 7.27 g/m*3 8.9 C 0 km/h
1944 05-09-2010 05:03:04 8.9 C 7.27 g/m*3 8.9 C 0 km/h
1945 05-09-2010 05:15:04 8.8 C 7.31 g/m*3 8.8 C 0 km/h
1946 05-09-2010 05:27:04 8.5 C 7.17 g/m*3 8.5 C 0 km/h
1947 05-09-2010 05:39:04 8.5 C 7.26 g/m*3 8.5 C 0 km/h
1948 05-09-2010 05:51:04 8.5 C 7.34 g/m*3 8.5 C 0 km/h
1949 05-09-2010 06:03:04 8.3 C 7.33 g/m*3 8.3 C 0 km/h
1950 05-09-2010 06:15:04 8.1 C 7.24 g/m*3 8.1 C 0 km/h
Sensor: Nr:Datum:Temp:Abs-Feuchte:Windchill:Wind:
Aussen-T/F 1951 05-09-2010 06:27:04 8.1 C 7.24 g/m*3 8.1 C 0 km/h
1952 05-09-2010 06:39:04 8 C 7.19 g/m*3 8 C 0 km/h
1953 05-09-2010 06:51:05 7.9 C 7.23 g/m*3 7.9 C 0 km/h
1954 05-09-2010 07:03:05 7.9 C 7.23 g/m*3 7.9 C 0 km/h
1955 05-09-2010 07:15:05 8.2 C 7.37 g/m*3 8.2 C 0 km/h
1956 05-09-2010 07:27:05 8.5 C 7.6 g/m*3 8.5 C 0 km/h
1957 05-09-2010 07:39:02 8.6 C 7.65 g/m*3 8.6 C 0 km/h
1958 05-09-2010 07:51:02 8.8 C 7.75 g/m*3 8.8 C 0 km/h
1959 05-09-2010 08:03:02 9.2 C 7.86 g/m*3 9.2 C 0 km/h
1960 05-09-2010 08:15:01 9.5 C 7.92 g/m*3 9.5 C 0 km/h
1961 05-09-2010 08:27:01 9.9 C 8.03 g/m*3 9.9 C 0 km/h
1962 05-09-2010 08:39:02 10 C 7.8 g/m*3 10 C 0 km/h
1963 05-09-2010 08:51:01 10.5 C 7.95 g/m*3 10.5 C 0 km/h
1964 05-09-2010 09:03:01 10.7 C 7.96 g/m*3 10.7 C 0 km/h
1965 05-09-2010 09:15:01 11.1 C 7.86 g/m*3 11.1 C 0 km/h
1966 05-09-2010 09:27:01 11.2 C 7.8 g/m*3 11.2 C 0 km/h
1967 05-09-2010 09:39:01 11.3 C 7.85 g/m*3 11.3 C 0 km/h
1968 05-09-2010 09:51:01 11.2 C 7.91 g/m*3 11.2 C 0 km/h
1969 05-09-2010 10:03:02 11.2 C 8.01 g/m*3 11.2 C 0 km/h
1970 05-09-2010 10:15:01 11.8 C 8.42 g/m*3 11.8 C 0 km/h
1971 05-09-2010 10:27:01 12.3 C 8.47 g/m*3 12.3 C 0 km/h
1972 05-09-2010 10:39:01 12.9 C 8.68 g/m*3 12.9 C 0 km/h
1973 05-09-2010 10:51:02 13.6 C 8.59 g/m*3 13.6 C 0 km/h
1974 05-09-2010 11:03:02 14.3 C 8.48 g/m*3 14.3 C 0 km/h
1975 05-09-2010 11:15:01 15.1 C 8.51 g/m*3 15.1 C 0 km/h
Sensor: Nr:Datum:Temp:Abs-Feuchte:Windchill:Wind:
Aussen-T/F 1976 05-09-2010 11:27:01 15.4 C 8.41 g/m*3 15.4 C 0 km/h
1977 05-09-2010 11:39:02 15.9 C 8.13 g/m*3 15.9 C 0 km/h
1978 05-09-2010 11:51:02 16.4 C 7.12 g/m*3 16.4 C 0 km/h
1979 05-09-2010 12:03:02 17.2 C 7.18 g/m*3 17.2 C 0 km/h
1980 05-09-2010 12:15:02 17.6 C 6.6 g/m*3 17.6 C 0 km/h
1981 05-09-2010 12:27:02 18.2 C 6.53 g/m*3 18.2 C 0 km/h
1982 05-09-2010 12:39:02 18.5 C 6.33 g/m*3 18.5 C 0 km/h
1983 05-09-2010 12:51:01 18.6 C 5.89 g/m*3 18.6 C 0 km/h
1984 05-09-2010 13:03:02 19.3 C 6.47 g/m*3 19.3 C 0 km/h
1985 05-09-2010 13:15:02 19.4 C 6.01 g/m*3 19.4 C 0 km/h
1986 05-09-2010 13:27:02 20 C 5.88 g/m*3 20 C 0 km/h
1987 05-09-2010 13:39:01 20.6 C 5.55 g/m*3 20.6 C 0 km/h
1988 05-09-2010 13:51:01 21.4 C 5.62 g/m*3 21.4 C 0 km/h
1989 05-09-2010 14:03:01 22.3 C 5.53 g/m*3 22.3 C 0 km/h
1990 05-09-2010 14:15:02 22.9 C 5.31 g/m*3 22.9 C 0 km/h
1991 05-09-2010 14:27:02 23.3 C 5.02 g/m*3 23.3 C 0 km/h
1992 05-09-2010 14:39:01 24.2 C 5.06 g/m*3 24.2 C 0 km/h
1993 05-09-2010 14:51:03 24.8 C 5.01 g/m*3 24.8 C 0 km/h
1994 05-09-2010 15:03:02 24.8 C 5.46 g/m*3 24.8 C 0 km/h
1995 05-09-2010 15:15:02 23.7 C 4.92 g/m*3 23.7 C 0 km/h
1996 05-09-2010 15:27:02 24 C 4.79 g/m*3 24 C 0 km/h
1997 05-09-2010 15:39:02 24.4 C 4.45 g/m*3 24.4 C 0 km/h
1998 05-09-2010 15:51:02 23.9 C 4.54 g/m*3 23.9 C 0 km/h
1999 05-09-2010 16:03:01 24.1 C 4.38 g/m*3 24.1 C 0 km/h
2000 05-09-2010 16:15:02 24.4 C 4.67 g/m*3 24.4 C 0 km/h
Sensor: Nr:Datum:Temp:Abs-Feuchte:Windchill:Wind:
Aussen-T/F 2001 05-09-2010 16:27:02 25 C 4.83 g/m*3 25 C 0 km/h
2002 05-09-2010 16:39:02 25 C 4.83 g/m*3 25 C 0 km/h
2003 05-09-2010 16:51:01 23.5 C 4.65 g/m*3 23.5 C 0 km/h
2004 05-09-2010 17:03:02 24.7 C 4.75 g/m*3 24.7 C 0 km/h
2005 05-09-2010 17:15:01 24.7 C 5.21 g/m*3 24.7 C 0 km/h
2006 05-09-2010 17:27:01 24 C 5.44 g/m*3 24 C 0 km/h
2007 05-09-2010 17:39:02 24.6 C 5.18 g/m*3 24.6 C 0 km/h
2008 05-09-2010 17:51:01 25 C 4.6 g/m*3 25 C 0 km/h
2009 05-09-2010 18:03:02 25.7 C 5.51 g/m*3 25.7 C 0 km/h
2010 05-09-2010 18:15:01 26 C 4.87 g/m*3 26 C 0 km/h
2011 05-09-2010 18:27:01 25.4 C 4.71 g/m*3 25.4 C 0 km/h
2012 05-09-2010 18:39:02 24.1 C 5.03 g/m*3 24.1 C 0 km/h
2013 05-09-2010 18:51:01 23 C 6.17 g/m*3 23 C 0 km/h
2014 05-09-2010 19:03:02 21.9 C 6.37 g/m*3 21.9 C 0 km/h
2015 05-09-2010 19:15:02 20.1 C 6.26 g/m*3 20.1 C 0 km/h
2016 05-09-2010 19:27:02 19.2 C 6.43 g/m*3 19.2 C 0 km/h
2017 05-09-2010 19:39:02 18.2 C 6.37 g/m*3 18.2 C 0 km/h
2018 05-09-2010 19:51:02 17.5 C 6.41 g/m*3 17.5 C 0 km/h
2019 05-09-2010 20:03:01 17 C 6.37 g/m*3 17 C 0 km/h
2020 05-09-2010 20:15:02 16.6 C 6.36 g/m*3 16.6 C 0 km/h
2021 05-09-2010 20:27:03 16.6 C 6.36 g/m*3 16.6 C 0 km/h
2022 05-09-2010 20:39:01 16.2 C 6.34 g/m*3 16.2 C 0 km/h
2023 05-09-2010 20:51:02 15.8 C 6.46 g/m*3 15.8 C 0 km/h
2024 05-09-2010 21:03:01 15.3 C 6.66 g/m*3 15.3 C 0 km/h
2025 05-09-2010 21:15:01 15.1 C 6.71 g/m*3 15.1 C 0 km/h
Sensor: Nr:Datum:Temp:Abs-Feuchte:Windchill:Wind:
Aussen-T/F 2026 05-09-2010 21:27:01 14.9 C 6.75 g/m*3 14.9 C 0 km/h
2027 05-09-2010 21:39:02 14.7 C 6.92 g/m*3 14.7 C 0 km/h
2028 05-09-2010 21:51:02 14.5 C 6.96 g/m*3 14.5 C 0 km/h
2029 05-09-2010 22:03:02 14.4 C 7.05 g/m*3 14.4 C 0 km/h
2030 05-09-2010 22:15:02 14.2 C 7.08 g/m*3 14.2 C 0 km/h
2031 05-09-2010 22:27:02 14 C 7.12 g/m*3 14 C 0 km/h
2032 05-09-2010 22:40:03 14 C 7.12 g/m*3 14 C 0 km/h
2033 05-09-2010 22:52:03 14 C 7.12 g/m*3 14 C 0 km/h
2034 05-09-2010 23:04:03 14 C 7 g/m*3 14 C 0 km/h
2035 05-09-2010 23:16:03 14.1 C 6.92 g/m*3 14.1 C 0 km/h
2036 05-09-2010 23:28:03 14.1 C 6.92 g/m*3 14.1 C 0 km/h
2037 05-09-2010 23:40:03 13.7 C 6.87 g/m*3 13.7 C 0 km/h
2038 05-09-2010 23:52:03 13.8 C 6.91 g/m*3 13.8 C 0 km/h
2039 06-09-2010 00:04:03 13.6 C 7.06 g/m*3 13.6 C 0 km/h
2040 06-09-2010 00:16:03 13.4 C 7.09 g/m*3 13.4 C 0 km/h
2041 06-09-2010 00:28:03 13.2 C 7.12 g/m*3 13.2 C 0 km/h
2042 06-09-2010 00:40:03 13.1 C 7.07 g/m*3 13.1 C 0 km/h
2043 06-09-2010 00:52:03 12.8 C 7.06 g/m*3 12.8 C 0 km/h
2044 06-09-2010 01:04:03 12.7 C 7.12 g/m*3 12.7 C 0 km/h
2045 06-09-2010 01:16:03 12.5 C 7.15 g/m*3 12.5 C 0 km/h
2046 06-09-2010 01:28:03 12.3 C 7.06 g/m*3 12.3 C 0 km/h
2047 06-09-2010 01:40:03 12.2 C 7.12 g/m*3 12.2 C 0 km/h
2048 06-09-2010 01:52:03 12.1 C 7.08 g/m*3 12.1 C 0 km/h
2049 06-09-2010 02:04:03 12 C 7.14 g/m*3 12 C 0 km/h
2050 06-09-2010 02:16:04 11.8 C 7.26 g/m*3 11.8 C 0 km/h
Sensor: Nr:Datum:Temp:Abs-Feuchte:Windchill:Wind:
Aussen-T/F 2051 06-09-2010 02:28:04 11.6 C 7.17 g/m*3 11.6 C 0 km/h
2052 06-09-2010 02:40:04 11.5 C 7.23 g/m*3 11.5 C 0 km/h
2053 06-09-2010 02:52:04 11.2 C 7.2 g/m*3 11.2 C 0 km/h
2054 06-09-2010 03:04:04 11.2 C 7.2 g/m*3 11.2 C 0 km/h
2055 06-09-2010 03:16:04 11.2 C 7.2 g/m*3 11.2 C 0 km/h
2056 06-09-2010 03:28:04 11.1 C 7.15 g/m*3 11.1 C 0 km/h
2057 06-09-2010 03:40:04 11 C 7.11 g/m*3 11 C 0 km/h
2058 06-09-2010 03:52:04 11 C 7.11 g/m*3 11 C 0 km/h
2059 06-09-2010 04:04:04 11 C 7.11 g/m*3 11 C 0 km/h
2060 06-09-2010 04:16:04 10.8 C 7.12 g/m*3 10.8 C 0 km/h
2061 06-09-2010 04:28:04 10.7 C 7.07 g/m*3 10.7 C 0 km/h
2062 06-09-2010 04:40:04 10.6 C 7.12 g/m*3 10.6 C 0 km/h
2063 06-09-2010 04:52:04 10.4 C 7.04 g/m*3 10.4 C 0 km/h
2064 06-09-2010 05:04:04 10.3 C 7.09 g/m*3 10.3 C 0 km/h
2065 06-09-2010 05:16:04 10.4 C 7.13 g/m*3 10.4 C 0 km/h
2066 06-09-2010 05:28:04 10.2 C 6.95 g/m*3 10.2 C 0 km/h
2067 06-09-2010 05:40:04 10.2 C 6.95 g/m*3 10.2 C 0 km/h
2068 06-09-2010 05:52:04 10.1 C 7 g/m*3 10.1 C 0 km/h
2069 06-09-2010 06:04:04 9.8 C 6.96 g/m*3 9.8 C 0 km/h
2070 06-09-2010 06:16:04 9.7 C 7.01 g/m*3 9.7 C 0 km/h
2071 06-09-2010 06:28:04 9.5 C 7.01 g/m*3 9.5 C 0 km/h
2072 06-09-2010 06:40:05 9.5 C 7.01 g/m*3 9.5 C 0 km/h
2073 06-09-2010 06:52:05 9.3 C 7.01 g/m*3 9.3 C 0 km/h
2074 06-09-2010 07:04:05 9.2 C 6.97 g/m*3 9.2 C 0 km/h
2075 06-09-2010 07:16:03 9.3 C 7.1 g/m*3 9.3 C 0 km/h
Sensor: Nr:Datum:Temp:Abs-Feuchte:Windchill:Wind:
Aussen-T/F 2076 06-09-2010 07:28:03 9.3 C 7.1 g/m*3 9.3 C 0 km/h
2077 06-09-2010 07:40:03 9.3 C 7.1 g/m*3 9.3 C 0 km/h
2078 06-09-2010 07:52:01 9.3 C 7.1 g/m*3 9.3 C 0 km/h
2079 06-09-2010 08:04:02 9.4 C 7.15 g/m*3 9.4 C 0 km/h
2080 06-09-2010 08:16:01 9.6 C 7.24 g/m*3 9.6 C 0 km/h
2081 06-09-2010 08:28:01 9.6 C 7.24 g/m*3 9.6 C 0 km/h
2082 06-09-2010 08:40:02 9.8 C 7.24 g/m*3 9.8 C 0 km/h
2083 06-09-2010 08:52:02 10 C 7.24 g/m*3 10 C 0 km/h
2084 06-09-2010 09:04:02 10.2 C 7.33 g/m*3 10.2 C 0 km/h
2085 06-09-2010 09:16:01 10.5 C 7.47 g/m*3 10.5 C 0 km/h
2086 06-09-2010 09:28:01 10.8 C 7.51 g/m*3 10.8 C 0 km/h
2087 06-09-2010 09:40:02 11.3 C 7.55 g/m*3 11.3 C 0 km/h
2088 06-09-2010 09:52:02 11.9 C 7.73 g/m*3 11.9 C 0 km/h
2089 06-09-2010 10:04:02 12.5 C 7.59 g/m*3 12.5 C 0 km/h
2090 06-09-2010 10:16:02 13.1 C 7.53 g/m*3 13.1 C 0 km/h
2091 06-09-2010 10:28:02 13.5 C 7.37 g/m*3 13.5 C 0 km/h
2092 06-09-2010 10:40:02 13.9 C 7.67 g/m*3 13.9 C 0 km/h
2093 06-09-2010 10:52:02 14.4 C 7.42 g/m*3 14.4 C 0 km/h
2094 06-09-2010 11:04:02 15.2 C 7.4 g/m*3 15.2 C 0 km/h
2095 06-09-2010 11:16:02 15.8 C 7.27 g/m*3 15.8 C 0 km/h
2096 06-09-2010 11:28:02 16.2 C 7.45 g/m*3 16.2 C 0 km/h
2097 06-09-2010 11:40:01 16.9 C 6.76 g/m*3 16.9 C 0 km/h
2098 06-09-2010 11:52:02 17.5 C 6.71 g/m*3 17.5 C 0 km/h
2099 06-09-2010 12:04:01 18.1 C 5.87 g/m*3 18.1 C 0 km/h
2100 06-09-2010 12:16:02 18.5 C 5.7 g/m*3 18.5 C 0 km/h
Sensor: Nr:Datum:Temp:Abs-Feuchte:Windchill:Wind:
Aussen-T/F 2101 06-09-2010 12:28:02 18.7 C 5.6 g/m*3 18.7 C 0 km/h
2102 06-09-2010 12:40:02 18.9 C 5.35 g/m*3 18.9 C 0 km/h
2103 06-09-2010 12:52:02 19 C 5.38 g/m*3 19 C 0 km/h
2104 06-09-2010 13:04:03 19.3 C 5.31 g/m*3 19.3 C 0 km/h
2105 06-09-2010 13:16:02 19.7 C 5.6 g/m*3 19.7 C 0 km/h
2106 06-09-2010 13:28:02 20.1 C 5.56 g/m*3 20.1 C 0 km/h
2107 06-09-2010 13:40:02 20.8 C 5.43 g/m*3 20.8 C 0 km/h
2108 06-09-2010 13:52:01 21.3 C 5.03 g/m*3 21.3 C 0 km/h
2109 06-09-2010 14:04:02 21.6 C 4.74 g/m*3 21.6 C 0 km/h
2110 06-09-2010 14:16:01 21.9 C 4.82 g/m*3 21.9 C 0 km/h
2111 06-09-2010 14:28:01 22.3 C 4.54 g/m*3 22.3 C 0 km/h
2112 06-09-2010 14:40:02 22.7 C 4.24 g/m*3 22.7 C 0 km/h
2113 06-09-2010 14:52:01 23.2 C 4.16 g/m*3 23.2 C 0 km/h
2114 06-09-2010 15:04:02 23.6 C 4.25 g/m*3 23.6 C 0 km/h
2115 06-09-2010 15:16:02 23.9 C 4.33 g/m*3 23.9 C 0 km/h
2116 06-09-2010 15:28:02 24.1 C 4.38 g/m*3 24.1 C 0 km/h
2117 06-09-2010 15:40:01 24.3 C 4.43 g/m*3 24.3 C 0 km/h
2118 06-09-2010 15:52:01 24.1 C 4.38 g/m*3 24.1 C 0 km/h
2119 06-09-2010 16:04:01 24 C 4.35 g/m*3 24 C 0 km/h
2120 06-09-2010 16:16:02 23.8 C 4.3 g/m*3 23.8 C 0 km/h
2121 06-09-2010 16:28:02 23.7 C 4.28 g/m*3 23.7 C 0 km/h
2122 06-09-2010 16:40:01 23.9 C 4.33 g/m*3 23.9 C 0 km/h
2123 06-09-2010 16:52:02 24 C 4.35 g/m*3 24 C 0 km/h
2124 06-09-2010 17:04:01 24.5 C 4.48 g/m*3 24.5 C 0 km/h
2125 06-09-2010 17:16:01 24.7 C 4.53 g/m*3 24.7 C 0 km/h
Sensor: Nr:Datum:Temp:Abs-Feuchte:Windchill:Wind:
Aussen-T/F 2126 06-09-2010 17:28:01 25.4 C 4.71 g/m*3 25.4 C 0 km/h
2127 06-09-2010 17:40:01 24.2 C 4.4 g/m*3 24.2 C 0 km/h
2128 06-09-2010 17:52:02 23.3 C 4.18 g/m*3 23.3 C 0 km/h
2129 06-09-2010 18:04:02 22.6 C 4.82 g/m*3 22.6 C 0 km/h
2130 06-09-2010 18:16:02 21.5 C 4.9 g/m*3 21.5 C 0 km/h
2131 06-09-2010 18:28:02 21.1 C 5.53 g/m*3 21.1 C 0 km/h
2132 06-09-2010 18:40:02 21.2 C 5.37 g/m*3 21.2 C 0 km/h
2133 06-09-2010 18:52:01 20.8 C 5.98 g/m*3 20.8 C 0 km/h
2134 06-09-2010 19:04:02 20 C 6.05 g/m*3 20 C 0 km/h
2135 06-09-2010 19:16:01 19.1 C 5.9 g/m*3 19.1 C 0 km/h
2136 06-09-2010 19:28:01 18.7 C 5.76 g/m*3 18.7 C 0 km/h
2137 06-09-2010 19:40:02 18.1 C 5.87 g/m*3 18.1 C 0 km/h
2138 06-09-2010 19:52:01 17.7 C 5.73 g/m*3 17.7 C 0 km/h
2139 06-09-2010 20:04:02 17.6 C 5.55 g/m*3 17.6 C 0 km/h
2140 06-09-2010 20:16:01 17.3 C 5.6 g/m*3 17.3 C 0 km/h
2141 06-09-2010 20:28:01 17.1 C 5.68 g/m*3 17.1 C 0 km/h
2142 06-09-2010 20:40:02 16.9 C 5.61 g/m*3 16.9 C 0 km/h
2143 06-09-2010 20:52:01 16.6 C 5.65 g/m*3 16.6 C 0 km/h
2144 06-09-2010 21:04:02 16.5 C 5.2 g/m*3 16.5 C 0 km/h
2145 06-09-2010 21:16:02 16.4 C 5.44 g/m*3 16.4 C 0 km/h
2146 06-09-2010 21:28:02 16.2 C 5.52 g/m*3 16.2 C 0 km/h
2147 06-09-2010 21:41:03 16.1 C 5.48 g/m*3 16.1 C 0 km/h
2148 06-09-2010 21:53:03 15.9 C 5.55 g/m*3 15.9 C 0 km/h
2149 06-09-2010 22:05:03 15.7 C 5.62 g/m*3 15.7 C 0 km/h
2150 06-09-2010 22:17:03 15.6 C 5.59 g/m*3 15.6 C 0 km/h
Sensor: Nr:Datum:Temp:Abs-Feuchte:Windchill:Wind:
Aussen-T/F 2151 06-09-2010 22:29:03 15.6 C 5.59 g/m*3 15.6 C 0 km/h
2152 06-09-2010 22:41:03 15.3 C 5.62 g/m*3 15.3 C 0 km/h
2153 06-09-2010 22:53:03 15.3 C 5.62 g/m*3 15.3 C 0 km/h
2154 06-09-2010 23:05:03 15.2 C 5.71 g/m*3 15.2 C 0 km/h
2155 06-09-2010 23:17:03 15.1 C 5.68 g/m*3 15.1 C 0 km/h
2156 06-09-2010 23:29:03 15.2 C 5.58 g/m*3 15.2 C 0 km/h
2157 06-09-2010 23:41:03 15.3 C 5.48 g/m*3 15.3 C 0 km/h
2158 06-09-2010 23:53:03 15.2 C 5.71 g/m*3 15.2 C 0 km/h
2159 07-09-2010 00:05:03 15.2 C 5.71 g/m*3 15.2 C 0 km/h
2160 07-09-2010 00:17:03 15.4 C 5.52 g/m*3 15.4 C 0 km/h
2161 07-09-2010 00:29:03 15.4 C 5.52 g/m*3 15.4 C 0 km/h
2162 07-09-2010 00:41:03 15.5 C 5.42 g/m*3 15.5 C 0 km/h
2163 07-09-2010 00:53:03 15.4 C 5.39 g/m*3 15.4 C 0 km/h
2164 07-09-2010 01:05:03 15.4 C 5.52 g/m*3 15.4 C 0 km/h
2165 07-09-2010 01:17:04 15.4 C 5.39 g/m*3 15.4 C 0 km/h
2166 07-09-2010 01:29:04 15.4 C 5.39 g/m*3 15.4 C 0 km/h
2167 07-09-2010 01:41:04 15.4 C 5.39 g/m*3 15.4 C 0 km/h
2168 07-09-2010 01:53:04 15.5 C 5.29 g/m*3 15.5 C 0 km/h
2169 07-09-2010 02:05:04 15.5 C 5.29 g/m*3 15.5 C 0 km/h
2170 07-09-2010 02:17:04 15.5 C 5.29 g/m*3 15.5 C 0 km/h
2171 07-09-2010 02:29:04 15.5 C 5.55 g/m*3 15.5 C 0 km/h
2172 07-09-2010 02:41:04 15.4 C 5.39 g/m*3 15.4 C 0 km/h
2173 07-09-2010 02:53:04 15.4 C 5.39 g/m*3 15.4 C 0 km/h
2174 07-09-2010 03:05:04 15.4 C 5.52 g/m*3 15.4 C 0 km/h
2175 07-09-2010 03:17:04 15.4 C 5.26 g/m*3 15.4 C 0 km/h
Sensor: Nr:Datum:Temp:Abs-Feuchte:Windchill:Wind:
Aussen-T/F 2176 07-09-2010 03:29:04 14.8 C 5.7 g/m*3 14.8 C 0 km/h
2177 07-09-2010 03:41:04 13.3 C 6.47 g/m*3 13.3 C 0 km/h
2178 07-09-2010 03:53:04 12.8 C 6.94 g/m*3 12.8 C 0 km/h
2179 07-09-2010 04:05:04 13.1 C 6.85 g/m*3 13.1 C 0 km/h
2180 07-09-2010 04:17:04 13.4 C 6.97 g/m*3 13.4 C 0 km/h
2181 07-09-2010 04:29:04 13.1 C 6.62 g/m*3 13.1 C 0 km/h
2182 07-09-2010 04:41:04 12.8 C 7.28 g/m*3 12.8 C 0 km/h
2183 07-09-2010 04:53:04 12.9 C 7.33 g/m*3 12.9 C 0 km/h
2184 07-09-2010 05:05:04 12.9 C 7.21 g/m*3 12.9 C 0 km/h
2185 07-09-2010 05:17:04 13 C 7.26 g/m*3 13 C 0 km/h
2186 07-09-2010 05:29:05 13 C 7.03 g/m*3 13 C 0 km/h
2187 07-09-2010 05:41:05 13.2 C 6.77 g/m*3 13.2 C 0 km/h
2188 07-09-2010 05:53:05 12.8 C 7.28 g/m*3 12.8 C 0 km/h
2189 07-09-2010 06:05:05 12.5 C 7.26 g/m*3 12.5 C 0 km/h
2190 07-09-2010 06:17:05 12.3 C 7.38 g/m*3 12.3 C 0 km/h
2191 07-09-2010 06:29:05 12.4 C 7.1 g/m*3 12.4 C 0 km/h
2192 07-09-2010 06:41:05 12.6 C 6.75 g/m*3 12.6 C 0 km/h
2193 07-09-2010 06:53:05 12.7 C 6.68 g/m*3 12.7 C 0 km/h
2194 07-09-2010 07:05:05 12.4 C 6.66 g/m*3 12.4 C 0 km/h
2195 07-09-2010 07:17:05 12.2 C 7.01 g/m*3 12.2 C 0 km/h
2196 07-09-2010 07:29:05 12.1 C 6.97 g/m*3 12.1 C 0 km/h
2197 07-09-2010 07:41:05 12 C 7.35 g/m*3 12 C 0 km/h
2198 07-09-2010 07:53:01 11.9 C 7.41 g/m*3 11.9 C 0 km/h
2199 07-09-2010 08:05:02 11.7 C 7.74 g/m*3 11.7 C 0 km/h
2200 07-09-2010 08:17:02 11.6 C 8.11 g/m*3 11.6 C 0 km/h
Sensor: Nr:Datum:Temp:Abs-Feuchte:Windchill:Wind:
Aussen-T/F 2201 07-09-2010 08:29:02 11.7 C 8.37 g/m*3 11.7 C 0 km/h
2202 07-09-2010 08:41:02 11.4 C 8.11 g/m*3 11.4 C 0 km/h
2203 07-09-2010 08:53:01 11.4 C 8.21 g/m*3 11.4 C 0 km/h
2204 07-09-2010 09:05:02 11.4 C 8.21 g/m*3 11.4 C 0 km/h
2205 07-09-2010 09:17:02 11.4 C 8.21 g/m*3 11.4 C 0 km/h
2206 07-09-2010 09:29:02 11.5 C 8.47 g/m*3 11.5 C 0 km/h
2207 07-09-2010 09:41:01 11.5 C 8.47 g/m*3 11.5 C 0 km/h
2208 07-09-2010 09:53:02 11.5 C 8.68 g/m*3 11.5 C 0 km/h
2209 07-09-2010 10:05:01 11.4 C 8.72 g/m*3 11.4 C 0 km/h
2210 07-09-2010 10:17:02 11.4 C 8.83 g/m*3 11.4 C 0 km/h
2211 07-09-2010 10:29:02 11.5 C 8.88 g/m*3 11.5 C 0 km/h
2212 07-09-2010 10:41:01 11.4 C 8.93 g/m*3 11.4 C 0 km/h
2213 07-09-2010 10:53:02 11.6 C 9.04 g/m*3 11.6 C 0 km/h
2214 07-09-2010 11:05:01 11.6 C 9.15 g/m*3 11.6 C 0 km/h
2215 07-09-2010 11:17:01 11.5 C 9.09 g/m*3 11.5 C 0 km/h
2216 07-09-2010 11:29:01 11.2 C 8.92 g/m*3 11.2 C 0 km/h
2217 07-09-2010 11:41:02 11.7 C 9.41 g/m*3 11.7 C 0 km/h
2218 07-09-2010 11:53:02 12.2 C 9.5 g/m*3 12.2 C 0 km/h
2219 07-09-2010 12:05:02 12 C 9.38 g/m*3 12 C 0 km/h
2220 07-09-2010 12:17:02 12.4 C 9.62 g/m*3 12.4 C 0 km/h
2221 07-09-2010 12:29:02 12.4 C 9.4 g/m*3 12.4 C 0 km/h
2222 07-09-2010 12:41:02 12.5 C 9.46 g/m*3 12.5 C 0 km/h
2223 07-09-2010 12:53:02 12.8 C 9.63 g/m*3 12.8 C 0 km/h
2224 07-09-2010 13:05:02 12.7 C 9.35 g/m*3 12.7 C 0 km/h
2225 07-09-2010 13:17:02 12.8 C 9.41 g/m*3 12.8 C 0 km/h
Sensor: Nr:Datum:Temp:Abs-Feuchte:Windchill:Wind:
Aussen-T/F 2226 07-09-2010 13:29:02 12.8 C 9.3 g/m*3 12.8 C 0 km/h
2227 07-09-2010 13:41:02 12.7 C 9.13 g/m*3 12.7 C 0 km/h
2228 07-09-2010 13:53:01 12.9 C 9.35 g/m*3 12.9 C 0 km/h
2229 07-09-2010 14:05:01 12.9 C 9.35 g/m*3 12.9 C 0 km/h
2230 07-09-2010 14:17:01 13.1 C 9.36 g/m*3 13.1 C 0 km/h
2231 07-09-2010 14:29:01 13.3 C 9.47 g/m*3 13.3 C 0 km/h
2232 07-09-2010 14:41:01 13.4 C 9.3 g/m*3 13.4 C 0 km/h
2233 07-09-2010 14:53:01 14.1 C 9.34 g/m*3 14.1 C 0 km/h
2234 07-09-2010 15:05:01 14.4 C 9.39 g/m*3 14.4 C 0 km/h
2235 07-09-2010 15:17:02 14.4 C 8.9 g/m*3 14.4 C 0 km/h
2236 07-09-2010 15:29:02 14.7 C 9.07 g/m*3 14.7 C 0 km/h
2237 07-09-2010 15:41:01 14.7 C 9.07 g/m*3 14.7 C 0 km/h
2238 07-09-2010 15:53:03 14.7 C 9.19 g/m*3 14.7 C 0 km/h
2239 07-09-2010 16:05:02 15.3 C 9.27 g/m*3 15.3 C 0 km/h
2240 07-09-2010 16:17:02 15.6 C 9.04 g/m*3 15.6 C 0 km/h
2241 07-09-2010 16:29:02 15.7 C 9.1 g/m*3 15.7 C 0 km/h
2242 07-09-2010 16:41:02 15.6 C 9.04 g/m*3 15.6 C 0 km/h
2243 07-09-2010 16:53:02 15.4 C 9.07 g/m*3 15.4 C 0 km/h
2244 07-09-2010 17:05:02 15.2 C 8.96 g/m*3 15.2 C 0 km/h
2245 07-09-2010 17:17:02 14.9 C 8.92 g/m*3 14.9 C 0 km/h
2246 07-09-2010 17:29:02 14.8 C 9.12 g/m*3 14.8 C 0 km/h
2247 07-09-2010 17:41:02 14.8 C 9.12 g/m*3 14.8 C 0 km/h
2248 07-09-2010 17:53:02 14.7 C 9.19 g/m*3 14.7 C 0 km/h
2249 07-09-2010 18:05:02 14.1 C 8.86 g/m*3 14.1 C 0 km/h
2250 07-09-2010 18:17:01 14 C 9.05 g/m*3 14 C 0 km/h
Sensor: Nr:Datum:Temp:Abs-Feuchte:Windchill:Wind:
Aussen-T/F 2251 07-09-2010 18:29:01 14 C 9.05 g/m*3 14 C 0 km/h
2252 07-09-2010 18:41:02 13.9 C 9.23 g/m*3 13.9 C 0 km/h
2253 07-09-2010 18:53:02 13.9 C 9.23 g/m*3 13.9 C 0 km/h
2254 07-09-2010 19:05:02 13.9 C 9.35 g/m*3 13.9 C 0 km/h
2255 07-09-2010 19:17:01 13.8 C 9.29 g/m*3 13.8 C 0 km/h
2256 07-09-2010 19:29:01 13.8 C 9.41 g/m*3 13.8 C 0 km/h
2257 07-09-2010 19:41:02 13.7 C 9.35 g/m*3 13.7 C 0 km/h
2258 07-09-2010 19:53:02 13.7 C 9.47 g/m*3 13.7 C 0 km/h
2259 07-09-2010 20:05:02 13.5 C 9.47 g/m*3 13.5 C 0 km/h
2260 07-09-2010 20:17:02 13.3 C 9.47 g/m*3 13.3 C 0 km/h
2261 07-09-2010 20:29:02 13.2 C 9.53 g/m*3 13.2 C 0 km/h
2262 07-09-2010 20:41:02 13.1 C 9.59 g/m*3 13.1 C 0 km/h
2263 07-09-2010 20:53:02 13.1 C 9.7 g/m*3 13.1 C 0 km/h
2264 07-09-2010 21:05:02 13 C 9.75 g/m*3 13 C 0 km/h
2265 07-09-2010 21:17:02 13 C 9.87 g/m*3 13 C 0 km/h
2266 07-09-2010 21:29:02 13 C 9.87 g/m*3 13 C 0 km/h
2267 07-09-2010 21:41:02 13 C 9.98 g/m*3 13 C 0 km/h
2268 07-09-2010 21:53:02 12.8 C 9.97 g/m*3 12.8 C 0 km/h
2269 07-09-2010 22:05:02 12.9 C 10.03 g/m*3 12.9 C 0 km/h
2270 07-09-2010 22:18:05 12.9 C 10.03 g/m*3 12.9 C 0 km/h
2271 07-09-2010 22:30:05 12.9 C 10.03 g/m*3 12.9 C 0 km/h
2272 07-09-2010 22:42:05 12.8 C 9.97 g/m*3 12.8 C 0 km/h
2273 07-09-2010 22:54:05 12.8 C 10.08 g/m*3 12.8 C 0 km/h
2274 07-09-2010 23:06:05 12.9 C 10.14 g/m*3 12.9 C 0 km/h
2275 07-09-2010 23:18:05 12.9 C 10.14 g/m*3 12.9 C 0 km/h
Sensor: Nr:Datum:Temp:Abs-Feuchte:Windchill:Wind:
Aussen-T/F 2276 07-09-2010 23:30:05 12.8 C 10.08 g/m*3 12.8 C 0 km/h
2277 07-09-2010 23:42:05 13 C 10.21 g/m*3 13 C 0 km/h
2278 07-09-2010 23:54:05 13 C 10.21 g/m*3 13 C 0 km/h
2279 08-09-2010 00:06:05 12.9 C 10.26 g/m*3 12.9 C 0 km/h
2280 08-09-2010 00:18:05 12.8 C 10.19 g/m*3 12.8 C 0 km/h
2281 08-09-2010 00:30:05 12.9 C 10.26 g/m*3 12.9 C 0 km/h
2282 08-09-2010 00:42:06 12.9 C 10.26 g/m*3 12.9 C 0 km/h
2283 08-09-2010 00:54:06 12.9 C 10.26 g/m*3 12.9 C 0 km/h
2284 08-09-2010 01:06:06 13 C 10.32 g/m*3 13 C 0 km/h
2285 08-09-2010 01:18:06 13 C 10.32 g/m*3 13 C 0 km/h
2286 08-09-2010 01:30:06 13 C 10.32 g/m*3 13 C 0 km/h
2287 08-09-2010 01:42:06 13 C 10.43 g/m*3 13 C 0 km/h
2288 08-09-2010 01:54:06 13 C 10.43 g/m*3 13 C 0 km/h
2289 08-09-2010 02:06:06 13.1 C 10.5 g/m*3 13.1 C 0 km/h
2290 08-09-2010 02:18:06 13.1 C 10.5 g/m*3 13.1 C 0 km/h
2291 08-09-2010 02:30:06 13.2 C 10.56 g/m*3 13.2 C 0 km/h
2292 08-09-2010 02:42:06 13.2 C 10.68 g/m*3 13.2 C 0 km/h
2293 08-09-2010 02:54:06 13.4 C 10.81 g/m*3 13.4 C 0 km/h
2294 08-09-2010 03:06:06 13.4 C 10.81 g/m*3 13.4 C 0 km/h
2295 08-09-2010 03:18:06 13.5 C 10.88 g/m*3 13.5 C 0 km/h
2296 08-09-2010 03:30:06 13.6 C 10.95 g/m*3 13.6 C 0 km/h
2297 08-09-2010 03:42:06 13.7 C 11.01 g/m*3 13.7 C 0 km/h
2298 08-09-2010 03:54:06 13.6 C 10.95 g/m*3 13.6 C 0 km/h
2299 08-09-2010 04:06:06 13.5 C 10.88 g/m*3 13.5 C 0 km/h
2300 08-09-2010 04:18:06 13.5 C 10.88 g/m*3 13.5 C 0 km/h
Sensor: Nr:Datum:Temp:Abs-Feuchte:Windchill:Wind:
Aussen-T/F 2301 08-09-2010 04:30:06 13.6 C 10.95 g/m*3 13.6 C 0 km/h
2302 08-09-2010 04:42:06 13.5 C 10.88 g/m*3 13.5 C 0 km/h
2303 08-09-2010 04:54:07 13.7 C 11.01 g/m*3 13.7 C 0 km/h
2304 08-09-2010 05:06:07 14.1 C 11.29 g/m*3 14.1 C 0 km/h
2305 08-09-2010 05:18:07 14 C 11.34 g/m*3 14 C 0 km/h
2306 08-09-2010 05:30:07 14.1 C 11.41 g/m*3 14.1 C 0 km/h
2307 08-09-2010 05:42:07 14.4 C 11.62 g/m*3 14.4 C 0 km/h
2308 08-09-2010 05:54:07 14.2 C 11.36 g/m*3 14.2 C 0 km/h
2309 08-09-2010 06:06:07 14.4 C 11.5 g/m*3 14.4 C 0 km/h
2310 08-09-2010 06:18:07 14.4 C 11.5 g/m*3 14.4 C 0 km/h
2311 08-09-2010 06:30:07 14.3 C 11.43 g/m*3 14.3 C 0 km/h
2312 08-09-2010 06:42:07 14.3 C 11.43 g/m*3 14.3 C 0 km/h
2313 08-09-2010 06:54:07 14.4 C 11.37 g/m*3 14.4 C 0 km/h
2314 08-09-2010 07:06:07 14.3 C 11.3 g/m*3 14.3 C 0 km/h
2315 08-09-2010 07:18:04 14.3 C 11.3 g/m*3 14.3 C 0 km/h
2316 08-09-2010 07:30:04 14.3 C 11.3 g/m*3 14.3 C 0 km/h
2317 08-09-2010 07:42:04 14.1 C 11.17 g/m*3 14.1 C 0 km/h
2318 08-09-2010 07:54:02 14.1 C 11.17 g/m*3 14.1 C 0 km/h
2319 08-09-2010 08:06:02 14.1 C 11.17 g/m*3 14.1 C 0 km/h
2320 08-09-2010 08:18:02 14.1 C 11.17 g/m*3 14.1 C 0 km/h
2321 08-09-2010 08:30:02 14.2 C 11.23 g/m*3 14.2 C 0 km/h
2322 08-09-2010 08:42:02 14.3 C 11.3 g/m*3 14.3 C 0 km/h
2323 08-09-2010 08:54:02 14.4 C 11.37 g/m*3 14.4 C 0 km/h
2324 08-09-2010 09:06:01 14.8 C 11.65 g/m*3 14.8 C 0 km/h
2325 08-09-2010 09:18:02 15 C 11.54 g/m*3 15 C 0 km/h
Sensor: Nr:Datum:Temp:Abs-Feuchte:Windchill:Wind:
Aussen-T/F 2326 08-09-2010 09:30:02 15.3 C 11.62 g/m*3 15.3 C 0 km/h
2327 08-09-2010 09:42:02 15.5 C 11.76 g/m*3 15.5 C 0 km/h
2328 08-09-2010 09:54:02 15.5 C 11.5 g/m*3 15.5 C 0 km/h
2329 08-09-2010 10:06:02 15.5 C 11.5 g/m*3 15.5 C 0 km/h
2330 08-09-2010 10:18:02 15.3 C 11.36 g/m*3 15.3 C 0 km/h
2331 08-09-2010 10:30:02 15.5 C 11.37 g/m*3 15.5 C 0 km/h
2332 08-09-2010 10:42:02 15.6 C 11.44 g/m*3 15.6 C 0 km/h
2333 08-09-2010 10:54:02 15.7 C 11.37 g/m*3 15.7 C 0 km/h
2334 08-09-2010 11:06:02 15.7 C 11.11 g/m*3 15.7 C 0 km/h
2335 08-09-2010 11:18:02 15.4 C 10.9 g/m*3 15.4 C 0 km/h
2336 08-09-2010 11:30:02 15.1 C 10.97 g/m*3 15.1 C 0 km/h
2337 08-09-2010 11:42:02 15 C 11.03 g/m*3 15 C 0 km/h
2338 08-09-2010 11:54:02 15 C 11.16 g/m*3 15 C 0 km/h
2339 08-09-2010 12:06:02 14.6 C 11.01 g/m*3 14.6 C 0 km/h
2340 08-09-2010 12:18:03 14.6 C 11.14 g/m*3 14.6 C 0 km/h
2341 08-09-2010 12:30:03 14.7 C 11.21 g/m*3 14.7 C 0 km/h
2342 08-09-2010 12:42:02 14.8 C 11.4 g/m*3 14.8 C 0 km/h
2343 08-09-2010 12:54:01 15 C 11.54 g/m*3 15 C 0 km/h
2344 08-09-2010 13:06:01 15.5 C 11.9 g/m*3 15.5 C 0 km/h
2345 08-09-2010 13:18:02 15.8 C 12.11 g/m*3 15.8 C 0 km/h
2346 08-09-2010 13:30:02 16.3 C 12.35 g/m*3 16.3 C 0 km/h
2347 08-09-2010 13:42:01 16.8 C 12.44 g/m*3 16.8 C 0 km/h
2348 08-09-2010 13:54:02 16.7 C 11.8 g/m*3 16.7 C 0 km/h
2349 08-09-2010 14:06:02 17.4 C 12 g/m*3 17.4 C 0 km/h
2350 08-09-2010 14:18:02 17.2 C 11.42 g/m*3 17.2 C 0 km/h
Sensor: Nr:Datum:Temp:Abs-Feuchte:Windchill:Wind:
Aussen-T/F 2351 08-09-2010 14:30:02 17 C 11.29 g/m*3 17 C 0 km/h
2352 08-09-2010 14:42:02 17.9 C 11.6 g/m*3 17.9 C 0 km/h
2353 08-09-2010 14:54:02 18.4 C 11.48 g/m*3 18.4 C 0 km/h
2354 08-09-2010 15:06:01 18.2 C 11.04 g/m*3 18.2 C 0 km/h
2355 08-09-2010 15:18:01 17.8 C 11.08 g/m*3 17.8 C 0 km/h
2356 08-09-2010 15:30:02 17.6 C 11.1 g/m*3 17.6 C 0 km/h
2357 08-09-2010 15:42:01 17.8 C 11.23 g/m*3 17.8 C 0 km/h
2358 08-09-2010 15:54:02 18.3 C 11.41 g/m*3 18.3 C 0 km/h
2359 08-09-2010 16:06:01 19 C 10.92 g/m*3 19 C 0 km/h
2360 08-09-2010 16:18:01 18.7 C 10.89 g/m*3 18.7 C 0 km/h
2361 08-09-2010 16:30:01 18.5 C 10.6 g/m*3 18.5 C 0 km/h
2362 08-09-2010 16:42:02 18.5 C 10.6 g/m*3 18.5 C 0 km/h
2363 08-09-2010 16:54:02 18 C 10.44 g/m*3 18 C 0 km/h
2364 08-09-2010 17:06:02 19.3 C 10.45 g/m*3 19.3 C 0 km/h
2365 08-09-2010 17:18:02 20.4 C 10.08 g/m*3 20.4 C 0 km/h
2366 08-09-2010 17:30:02 20.5 C 10.14 g/m*3 20.5 C 0 km/h
2367 08-09-2010 17:42:02 19.5 C 10.07 g/m*3 19.5 C 0 km/h
2368 08-09-2010 17:54:02 19.7 C 10.36 g/m*3 19.7 C 0 km/h
2369 08-09-2010 18:06:02 19.3 C 10.28 g/m*3 19.3 C 0 km/h
2370 08-09-2010 18:18:01 20.2 C 9.97 g/m*3 20.2 C 0 km/h
2371 08-09-2010 18:30:01 19.3 C 10.12 g/m*3 19.3 C 0 km/h
2372 08-09-2010 18:42:02 18.3 C 10.16 g/m*3 18.3 C 0 km/h
2373 08-09-2010 18:54:02 18.2 C 10.57 g/m*3 18.2 C 0 km/h
2374 08-09-2010 19:06:02 18.6 C 10.66 g/m*3 18.6 C 0 km/h
2375 08-09-2010 19:18:01 18.7 C 10.57 g/m*3 18.7 C 0 km/h
Sensor: Nr:Datum:Temp:Abs-Feuchte:Windchill:Wind:
Aussen-T/F 2376 08-09-2010 19:30:01 18.3 C 10.48 g/m*3 18.3 C 0 km/h
2377 08-09-2010 19:42:02 17.9 C 10.69 g/m*3 17.9 C 0 km/h
2378 08-09-2010 19:54:02 17.5 C 10.29 g/m*3 17.5 C 0 km/h
2379 08-09-2010 20:06:03 17.4 C 10.52 g/m*3 17.4 C 0 km/h
2380 08-09-2010 20:18:02 17 C 10.42 g/m*3 17 C 0 km/h
2381 08-09-2010 20:30:02 16.7 C 10.66 g/m*3 16.7 C 0 km/h
2382 08-09-2010 20:42:02 16.6 C 10.74 g/m*3 16.6 C 0 km/h
2383 08-09-2010 20:54:01 16.3 C 10.27 g/m*3 16.3 C 0 km/h
2384 08-09-2010 21:06:01 15.9 C 10.02 g/m*3 15.9 C 0 km/h
2385 08-09-2010 21:18:01 15.8 C 9.69 g/m*3 15.8 C 0 km/h
2386 08-09-2010 21:30:01 15.7 C 9.63 g/m*3 15.7 C 0 km/h
2387 08-09-2010 21:42:01 15.7 C 9.63 g/m*3 15.7 C 0 km/h
2388 08-09-2010 21:54:01 15.5 C 9.52 g/m*3 15.5 C 0 km/h
2389 08-09-2010 22:06:01 15.2 C 9.48 g/m*3 15.2 C 0 km/h
2390 08-09-2010 22:18:02 14.9 C 9.56 g/m*3 14.9 C 0 km/h
2391 08-09-2010 22:30:02 14.6 C 9.76 g/m*3 14.6 C 0 km/h
2392 08-09-2010 22:42:02 14.5 C 9.95 g/m*3 14.5 C 0 km/h
2393 08-09-2010 22:55:02 14.7 C 10.2 g/m*3 14.7 C 0 km/h
2394 08-09-2010 23:07:02 14.5 C 9.95 g/m*3 14.5 C 0 km/h
2395 08-09-2010 23:19:02 14.5 C 10.07 g/m*3 14.5 C 0 km/h
2396 08-09-2010 23:31:02 14.6 C 10.01 g/m*3 14.6 C 0 km/h
2397 08-09-2010 23:43:02 14.5 C 10.07 g/m*3 14.5 C 0 km/h
2398 08-09-2010 23:55:03 14.3 C 9.95 g/m*3 14.3 C 0 km/h
2399 09-09-2010 00:07:03 14.4 C 10.14 g/m*3 14.4 C 0 km/h
2400 09-09-2010 00:19:03 14.4 C 10.14 g/m*3 14.4 C 0 km/h
Sensor: Nr:Datum:Temp:Abs-Feuchte:Windchill:Wind:
Aussen-T/F 2401 09-09-2010 00:31:03 14.1 C 10.07 g/m*3 14.1 C 0 km/h
2402 09-09-2010 00:43:03 14.5 C 10.32 g/m*3 14.5 C 0 km/h
2403 09-09-2010 00:55:03 14.5 C 10.32 g/m*3 14.5 C 0 km/h
2404 09-09-2010 01:07:03 14.8 C 10.39 g/m*3 14.8 C 0 km/h
2405 09-09-2010 01:19:03 15 C 10 g/m*3 15 C 0 km/h
2406 09-09-2010 01:31:03 15.1 C 10.06 g/m*3 15.1 C 0 km/h
2407 09-09-2010 01:43:03 15.2 C 9.99 g/m*3 15.2 C 0 km/h
2408 09-09-2010 01:55:03 15.1 C 9.93 g/m*3 15.1 C 0 km/h
2409 09-09-2010 02:07:03 15.2 C 9.99 g/m*3 15.2 C 0 km/h
2410 09-09-2010 02:19:03 15.1 C 9.93 g/m*3 15.1 C 0 km/h
2411 09-09-2010 02:31:03 15.1 C 9.93 g/m*3 15.1 C 0 km/h
2412 09-09-2010 02:43:03 15.1 C 9.93 g/m*3 15.1 C 0 km/h
2413 09-09-2010 02:55:03 15.2 C 9.86 g/m*3 15.2 C 0 km/h
2414 09-09-2010 03:07:03 15.2 C 9.86 g/m*3 15.2 C 0 km/h
2415 09-09-2010 03:19:03 15.3 C 9.79 g/m*3 15.3 C 0 km/h
2416 09-09-2010 03:31:03 15.3 C 9.79 g/m*3 15.3 C 0 km/h
2417 09-09-2010 03:43:03 15.4 C 9.72 g/m*3 15.4 C 0 km/h
2418 09-09-2010 03:55:04 15.4 C 9.72 g/m*3 15.4 C 0 km/h
2419 09-09-2010 04:07:04 15.4 C 9.59 g/m*3 15.4 C 0 km/h
2420 09-09-2010 04:19:04 15.2 C 9.48 g/m*3 15.2 C 0 km/h
2421 09-09-2010 04:31:04 15.2 C 9.35 g/m*3 15.2 C 0 km/h
2422 09-09-2010 04:43:04 15.2 C 9.22 g/m*3 15.2 C 0 km/h
2423 09-09-2010 04:55:04 15.1 C 9.03 g/m*3 15.1 C 0 km/h
2424 09-09-2010 05:07:04 14.9 C 9.05 g/m*3 14.9 C 0 km/h
2425 09-09-2010 05:19:04 14.9 C 9.05 g/m*3 14.9 C 0 km/h
Sensor: Nr:Datum:Temp:Abs-Feuchte:Windchill:Wind:
Aussen-T/F 2426 09-09-2010 05:31:04 14.9 C 9.05 g/m*3 14.9 C 0 km/h
2427 09-09-2010 05:43:04 14.9 C 9.05 g/m*3 14.9 C 0 km/h
2428 09-09-2010 05:55:04 14.9 C 8.92 g/m*3 14.9 C 0 km/h
2429 09-09-2010 06:07:04 14.8 C 8.87 g/m*3 14.8 C 0 km/h
2430 09-09-2010 06:19:04 14.8 C 8.87 g/m*3 14.8 C 0 km/h
2431 09-09-2010 06:31:04 14.8 C 8.87 g/m*3 14.8 C 0 km/h
2432 09-09-2010 06:43:04 14.8 C 8.87 g/m*3 14.8 C 0 km/h
2433 09-09-2010 06:55:04 14.7 C 8.94 g/m*3 14.7 C 0 km/h
2434 09-09-2010 07:07:04 14.5 C 9.08 g/m*3 14.5 C 0 km/h
2435 09-09-2010 07:19:04 14.5 C 9.08 g/m*3 14.5 C 0 km/h
2436 09-09-2010 07:31:04 14.6 C 9.13 g/m*3 14.6 C 0 km/h
2437 09-09-2010 07:43:04 14.6 C 9.01 g/m*3 14.6 C 0 km/h
2438 09-09-2010 07:55:04 14.7 C 9.07 g/m*3 14.7 C 0 km/h
2439 09-09-2010 08:07:02 14.7 C 9.07 g/m*3 14.7 C 0 km/h
2440 09-09-2010 08:19:02 14.8 C 9.12 g/m*3 14.8 C 0 km/h
2441 09-09-2010 08:31:02 14.8 C 9.12 g/m*3 14.8 C 0 km/h
2442 09-09-2010 08:43:02 14.8 C 9.12 g/m*3 14.8 C 0 km/h
2443 09-09-2010 08:55:02 14.9 C 9.05 g/m*3 14.9 C 0 km/h
2444 09-09-2010 09:07:02 14.9 C 9.05 g/m*3 14.9 C 0 km/h
2445 09-09-2010 09:19:03 14.9 C 9.05 g/m*3 14.9 C 0 km/h
2446 09-09-2010 09:31:02 15.2 C 9.09 g/m*3 15.2 C 0 km/h
2447 09-09-2010 09:43:02 15.5 C 9.12 g/m*3 15.5 C 0 km/h
2448 09-09-2010 09:55:01 15.8 C 9.15 g/m*3 15.8 C 0 km/h
2449 09-09-2010 10:07:02 16 C 8.99 g/m*3 16 C 0 km/h
2450 09-09-2010 10:19:02 16.4 C 9.07 g/m*3 16.4 C 0 km/h
Sensor: Nr:Datum:Temp:Abs-Feuchte:Windchill:Wind:
Aussen-T/F 2451 09-09-2010 10:31:01 16.8 C 9.15 g/m*3 16.8 C 0 km/h
2452 09-09-2010 10:43:01 17.2 C 9.08 g/m*3 17.2 C 0 km/h
2453 09-09-2010 10:55:02 17.4 C 9.19 g/m*3 17.4 C 0 km/h
2454 09-09-2010 11:07:01 17.5 C 9.09 g/m*3 17.5 C 0 km/h
2455 09-09-2010 11:19:02 17.5 C 9.09 g/m*3 17.5 C 0 km/h
2456 09-09-2010 11:31:02 17.8 C 8.8 g/m*3 17.8 C 0 km/h
2457 09-09-2010 11:43:02 17.8 C 8.65 g/m*3 17.8 C 0 km/h
2458 09-09-2010 11:55:02 18.3 C 8.76 g/m*3 18.3 C 0 km/h
2459 09-09-2010 12:07:01 18.5 C 8.23 g/m*3 18.5 C 0 km/h
2460 09-09-2010 12:19:02 18.6 C 8.28 g/m*3 18.6 C 0 km/h
2461 09-09-2010 12:31:02 18.6 C 8.12 g/m*3 18.6 C 0 km/h
2462 09-09-2010 12:43:02 19 C 8.15 g/m*3 19 C 0 km/h
2463 09-09-2010 12:55:02 18.5 C 8.07 g/m*3 18.5 C 0 km/h
2464 09-09-2010 13:07:02 18.6 C 8.28 g/m*3 18.6 C 0 km/h
2465 09-09-2010 13:19:02 18.7 C 8.17 g/m*3 18.7 C 0 km/h
2466 09-09-2010 13:31:02 18.7 C 8.01 g/m*3 18.7 C 0 km/h
2467 09-09-2010 13:43:02 19 C 8.15 g/m*3 19 C 0 km/h
2468 09-09-2010 13:55:02 19 C 8.47 g/m*3 19 C 0 km/h
2469 09-09-2010 14:07:02 18.6 C 8.12 g/m*3 18.6 C 0 km/h
2470 09-09-2010 14:19:02 18.4 C 8.18 g/m*3 18.4 C 0 km/h
2471 09-09-2010 14:31:02 18.8 C 8.86 g/m*3 18.8 C 0 km/h
2472 09-09-2010 14:43:02 19.3 C 8.79 g/m*3 19.3 C 0 km/h
2473 09-09-2010 14:55:02 19.8 C 9.05 g/m*3 19.8 C 0 km/h
2474 09-09-2010 15:07:02 20.3 C 8.97 g/m*3 20.3 C 0 km/h
2475 09-09-2010 15:19:02 20.3 C 8.97 g/m*3 20.3 C 0 km/h
Sensor: Nr:Datum:Temp:Abs-Feuchte:Windchill:Wind:
Aussen-T/F 2476 09-09-2010 15:31:02 19.5 C 8.89 g/m*3 19.5 C 0 km/h
2477 09-09-2010 15:43:02 18.7 C 9.29 g/m*3 18.7 C 0 km/h
2478 09-09-2010 15:55:02 18.1 C 9.43 g/m*3 18.1 C 0 km/h
2479 09-09-2010 16:07:01 17.7 C 9.51 g/m*3 17.7 C 0 km/h
2480 09-09-2010 16:19:02 16.1 C 10.14 g/m*3 16.1 C 0 km/h
2481 09-09-2010 16:31:01 16.1 C 10.42 g/m*3 16.1 C 0 km/h
2482 09-09-2010 16:43:01 17.1 C 11.79 g/m*3 17.1 C 0 km/h
2483 09-09-2010 16:55:02 18.5 C 12.82 g/m*3 18.5 C 0 km/h
2484 09-09-2010 17:07:02 18.2 C 12.28 g/m*3 18.2 C 0 km/h
2485 09-09-2010 17:19:02 18 C 12.13 g/m*3 18 C 0 km/h
2486 09-09-2010 17:31:02 17.9 C 11.45 g/m*3 17.9 C 0 km/h
2487 09-09-2010 17:43:02 17.8 C 11.08 g/m*3 17.8 C 0 km/h
2488 09-09-2010 17:55:02 17.7 C 11.16 g/m*3 17.7 C 0 km/h
2489 09-09-2010 18:07:02 17.7 C 11.32 g/m*3 17.7 C 0 km/h
2490 09-09-2010 18:19:01 17.7 C 10.86 g/m*3 17.7 C 0 km/h
2491 09-09-2010 18:31:02 17.7 C 10.41 g/m*3 17.7 C 0 km/h
2492 09-09-2010 18:43:03 17.9 C 10.38 g/m*3 17.9 C 0 km/h
2493 09-09-2010 18:55:02 17.5 C 9.39 g/m*3 17.5 C 0 km/h
2494 09-09-2010 19:07:02 17.2 C 9.37 g/m*3 17.2 C 0 km/h
2495 09-09-2010 19:19:01 16.8 C 9.44 g/m*3 16.8 C 0 km/h
2496 09-09-2010 19:31:02 16.5 C 9.55 g/m*3 16.5 C 0 km/h
2497 09-09-2010 19:43:02 16.2 C 9.52 g/m*3 16.2 C 0 km/h
2498 09-09-2010 19:55:01 16 C 9.4 g/m*3 16 C 0 km/h
2499 09-09-2010 20:07:02 15.9 C 9.48 g/m*3 15.9 C 0 km/h
2500 09-09-2010 20:19:02 15.8 C 9.42 g/m*3 15.8 C 0 km/h
Sensor: Nr:Datum:Temp:Abs-Feuchte:Windchill:Wind:
Aussen-T/F 2501 09-09-2010 20:31:01 15.4 C 9.72 g/m*3 15.4 C 0 km/h
2502 09-09-2010 20:43:01 15 C 10 g/m*3 15 C 0 km/h
2503 09-09-2010 20:55:01 14.9 C 10.2 g/m*3 14.9 C 0 km/h
2504 09-09-2010 21:07:01 14.9 C 10.32 g/m*3 14.9 C 0 km/h
2505 09-09-2010 21:19:02 14.9 C 10.32 g/m*3 14.9 C 0 km/h
2506 09-09-2010 21:31:01 14.8 C 10.26 g/m*3 14.8 C 0 km/h
2507 09-09-2010 21:43:01 14.7 C 10.2 g/m*3 14.7 C 0 km/h
2508 09-09-2010 21:55:02 14.7 C 10.2 g/m*3 14.7 C 0 km/h
2509 09-09-2010 22:07:02 14.7 C 10.2 g/m*3 14.7 C 0 km/h
2510 09-09-2010 22:19:01 14.8 C 10.13 g/m*3 14.8 C 0 km/h
2511 09-09-2010 22:31:01 14.8 C 10.26 g/m*3 14.8 C 0 km/h
2512 09-09-2010 22:43:01 14.7 C 10.2 g/m*3 14.7 C 0 km/h
2513 09-09-2010 22:56:02 14.7 C 10.07 g/m*3 14.7 C 0 km/h
2514 09-09-2010 23:08:02 14.8 C 10.01 g/m*3 14.8 C 0 km/h
2515 09-09-2010 23:20:03 15 C 9.75 g/m*3 15 C 0 km/h
2516 09-09-2010 23:32:03 15 C 9.62 g/m*3 15 C 0 km/h
2517 09-09-2010 23:44:03 15.1 C 9.68 g/m*3 15.1 C 0 km/h
2518 09-09-2010 23:56:03 15 C 9.49 g/m*3 15 C 0 km/h
2519 10-09-2010 00:08:03 14.9 C 9.81 g/m*3 14.9 C 0 km/h
2520 10-09-2010 00:20:03 14.8 C 9.88 g/m*3 14.8 C 0 km/h
2521 10-09-2010 00:32:03 14.6 C 10.01 g/m*3 14.6 C 0 km/h
2522 10-09-2010 00:44:03 14.6 C 10.01 g/m*3 14.6 C 0 km/h
2523 10-09-2010 00:56:03 14.4 C 9.89 g/m*3 14.4 C 0 km/h
2524 10-09-2010 01:08:03 14.3 C 9.83 g/m*3 14.3 C 0 km/h
2525 10-09-2010 01:20:03 14.1 C 9.71 g/m*3 14.1 C 0 km/h
Sensor: Nr:Datum:Temp:Abs-Feuchte:Windchill:Wind:
Aussen-T/F 2526 10-09-2010 01:32:03 13.9 C 9.71 g/m*3 13.9 C 0 km/h
2527 10-09-2010 01:44:03 13.8 C 9.77 g/m*3 13.8 C 0 km/h
2528 10-09-2010 01:56:03 13.9 C 9.83 g/m*3 13.9 C 0 km/h
2529 10-09-2010 02:08:03 13.8 C 9.89 g/m*3 13.8 C 0 km/h
2530 10-09-2010 02:20:03 13.8 C 9.89 g/m*3 13.8 C 0 km/h
2531 10-09-2010 02:32:03 13.9 C 10.07 g/m*3 13.9 C 0 km/h
2532 10-09-2010 02:44:03 14 C 10.01 g/m*3 14 C 0 km/h
2533 10-09-2010 02:56:03 14 C 9.89 g/m*3 14 C 0 km/h
2534 10-09-2010 03:08:03 14 C 10.01 g/m*3 14 C 0 km/h
2535 10-09-2010 03:20:03 14 C 10.01 g/m*3 14 C 0 km/h
2536 10-09-2010 03:32:04 13.9 C 10.07 g/m*3 13.9 C 0 km/h
2537 10-09-2010 03:44:04 13.8 C 10.13 g/m*3 13.8 C 0 km/h
2538 10-09-2010 03:56:04 13.8 C 10.13 g/m*3 13.8 C 0 km/h
2539 10-09-2010 04:08:04 13.9 C 10.31 g/m*3 13.9 C 0 km/h
2540 10-09-2010 04:20:04 14 C 10.25 g/m*3 14 C 0 km/h
2541 10-09-2010 04:32:04 13.9 C 10.31 g/m*3 13.9 C 0 km/h
2542 10-09-2010 04:44:04 13.8 C 10.25 g/m*3 13.8 C 0 km/h
2543 10-09-2010 04:56:04 13.6 C 10.12 g/m*3 13.6 C 0 km/h
2544 10-09-2010 05:08:04 13.4 C 10 g/m*3 13.4 C 0 km/h
2545 10-09-2010 05:20:04 13.2 C 9.99 g/m*3 13.2 C 0 km/h
2546 10-09-2010 05:32:04 13.1 C 10.04 g/m*3 13.1 C 0 km/h
2547 10-09-2010 05:44:04 12.8 C 9.97 g/m*3 12.8 C 0 km/h
2548 10-09-2010 05:56:04 12.8 C 9.97 g/m*3 12.8 C 0 km/h
2549 10-09-2010 06:08:04 13.2 C 10.33 g/m*3 13.2 C 0 km/h
2550 10-09-2010 06:20:04 13 C 10.09 g/m*3 13 C 0 km/h
Sensor: Nr:Datum:Temp:Abs-Feuchte:Windchill:Wind:
Aussen-T/F 2551 10-09-2010 06:32:04 13.1 C 10.27 g/m*3 13.1 C 0 km/h
2552 10-09-2010 06:44:04 13.1 C 10.27 g/m*3 13.1 C 0 km/h
2553 10-09-2010 06:56:04 13.2 C 10.22 g/m*3 13.2 C 0 km/h
2554 10-09-2010 07:08:04 13.1 C 10.16 g/m*3 13.1 C 0 km/h
2555 10-09-2010 07:20:04 13.2 C 9.99 g/m*3 13.2 C 0 km/h
2556 10-09-2010 07:32:05 13.3 C 9.7 g/m*3 13.3 C 0 km/h
2557 10-09-2010 07:44:05 13.2 C 9.64 g/m*3 13.2 C 0 km/h
2558 10-09-2010 07:56:02 13.1 C 9.7 g/m*3 13.1 C 0 km/h
2559 10-09-2010 08:08:02 13.1 C 9.81 g/m*3 13.1 C 0 km/h
2560 10-09-2010 08:20:02 13.1 C 9.93 g/m*3 13.1 C 0 km/h
2561 10-09-2010 08:32:02 13.2 C 9.99 g/m*3 13.2 C 0 km/h
2562 10-09-2010 08:44:03 13.5 C 10.06 g/m*3 13.5 C 0 km/h
2563 10-09-2010 08:56:02 13.7 C 9.95 g/m*3 13.7 C 0 km/h
2564 10-09-2010 09:08:02 14 C 9.77 g/m*3 14 C 0 km/h
2565 10-09-2010 09:20:02 14.4 C 9.64 g/m*3 14.4 C 0 km/h
2566 10-09-2010 09:32:02 14.5 C 9.58 g/m*3 14.5 C 0 km/h
2567 10-09-2010 09:44:02 14.9 C 9.43 g/m*3 14.9 C 0 km/h
2568 10-09-2010 09:56:02 15.2 C 9.22 g/m*3 15.2 C 0 km/h
2569 10-09-2010 10:08:02 15.5 C 9.39 g/m*3 15.5 C 0 km/h
2570 10-09-2010 10:20:03 15.7 C 9.23 g/m*3 15.7 C 0 km/h
2571 10-09-2010 10:32:02 16.2 C 9.38 g/m*3 16.2 C 0 km/h
2572 10-09-2010 10:44:02 16.6 C 9.46 g/m*3 16.6 C 0 km/h
2573 10-09-2010 10:56:02 16.8 C 9.29 g/m*3 16.8 C 0 km/h
2574 10-09-2010 11:08:02 17.2 C 9.37 g/m*3 17.2 C 0 km/h
2575 10-09-2010 11:20:02 17.7 C 9.51 g/m*3 17.7 C 0 km/h
Sensor: Nr:Datum:Temp:Abs-Feuchte:Windchill:Wind:
Aussen-T/F 2576 10-09-2010 11:32:02 18.1 C 9.12 g/m*3 18.1 C 0 km/h
2577 10-09-2010 11:44:02 18.1 C 8.96 g/m*3 18.1 C 0 km/h
2578 10-09-2010 11:56:02 18.3 C 9.07 g/m*3 18.3 C 0 km/h
2579 10-09-2010 12:08:01 18.6 C 9.07 g/m*3 18.6 C 0 km/h
2580 10-09-2010 12:20:02 18.7 C 9.13 g/m*3 18.7 C 0 km/h
2581 10-09-2010 12:32:02 18.4 C 9.12 g/m*3 18.4 C 0 km/h
2582 10-09-2010 12:44:02 18.8 C 9.34 g/m*3 18.8 C 0 km/h
2583 10-09-2010 12:56:02 19.2 C 9.23 g/m*3 19.2 C 0 km/h
2584 10-09-2010 13:08:03 19.5 C 8.89 g/m*3 19.5 C 0 km/h
2585 10-09-2010 13:20:02 19.4 C 8.84 g/m*3 19.4 C 0 km/h
2586 10-09-2010 13:32:02 19 C 8.47 g/m*3 19 C 0 km/h
2587 10-09-2010 13:44:02 19 C 8.47 g/m*3 19 C 0 km/h
2588 10-09-2010 13:56:01 19 C 8.64 g/m*3 19 C 0 km/h
2589 10-09-2010 14:08:02 19.3 C 8.79 g/m*3 19.3 C 0 km/h
2590 10-09-2010 14:20:01 19.9 C 8.76 g/m*3 19.9 C 0 km/h
2591 10-09-2010 14:32:01 20.4 C 8.67 g/m*3 20.4 C 0 km/h
2592 10-09-2010 14:44:01 20.2 C 8.74 g/m*3 20.2 C 0 km/h
2593 10-09-2010 14:56:01 19.9 C 8.76 g/m*3 19.9 C 0 km/h
2594 10-09-2010 15:08:02 20 C 8.64 g/m*3 20 C 0 km/h
2595 10-09-2010 15:20:02 20.6 C 8.95 g/m*3 20.6 C 0 km/h
2596 10-09-2010 15:32:01 20.9 C 8.38 g/m*3 20.9 C 0 km/h
2597 10-09-2010 15:44:01 21.2 C 8.34 g/m*3 21.2 C 0 km/h
2598 10-09-2010 15:56:02 21.4 C 8.62 g/m*3 21.4 C 0 km/h
2599 10-09-2010 16:08:01 21.2 C 8.34 g/m*3 21.2 C 0 km/h
2600 10-09-2010 16:20:02 20.8 C 8.33 g/m*3 20.8 C 0 km/h
Sensor: Nr:Datum:Temp:Abs-Feuchte:Windchill:Wind:
Aussen-T/F 2601 10-09-2010 16:32:01 21.1 C 8.48 g/m*3 21.1 C 0 km/h
2602 10-09-2010 16:44:01 21.2 C 8.71 g/m*3 21.2 C 0 km/h
2603 10-09-2010 16:56:02 21.2 C 8.34 g/m*3 21.2 C 0 km/h
2604 10-09-2010 17:08:02 20.9 C 8.56 g/m*3 20.9 C 0 km/h
2605 10-09-2010 17:20:02 20.5 C 8.9 g/m*3 20.5 C 0 km/h
2606 10-09-2010 17:32:03 20.1 C 9.04 g/m*3 20.1 C 0 km/h
2607 10-09-2010 17:44:03 19.8 C 9.39 g/m*3 19.8 C 0 km/h
2608 10-09-2010 17:56:02 19.6 C 8.95 g/m*3 19.6 C 0 km/h
2609 10-09-2010 18:08:02 19.4 C 9.18 g/m*3 19.4 C 0 km/h
2610 10-09-2010 18:20:02 18.9 C 9.56 g/m*3 18.9 C 0 km/h
2611 10-09-2010 18:32:02 17.8 C 10.17 g/m*3 17.8 C 0 km/h
2612 10-09-2010 18:44:02 16.8 C 10.72 g/m*3 16.8 C 0 km/h
2613 10-09-2010 18:56:02 16.4 C 11.03 g/m*3 16.4 C 0 km/h
2614 10-09-2010 19:08:02 16.4 C 11.31 g/m*3 16.4 C 0 km/h
2615 10-09-2010 19:20:02 16.8 C 11.72 g/m*3 16.8 C 0 km/h
2616 10-09-2010 19:32:02 16.3 C 11.38 g/m*3 16.3 C 0 km/h
2617 10-09-2010 19:44:02 16 C 11.31 g/m*3 16 C 0 km/h
2618 10-09-2010 19:56:02 15.8 C 11.44 g/m*3 15.8 C 0 km/h
2619 10-09-2010 20:08:03 15.8 C 11.58 g/m*3 15.8 C 0 km/h
2620 10-09-2010 20:20:02 15.7 C 11.51 g/m*3 15.7 C 0 km/h
2621 10-09-2010 20:32:03 15.6 C 11.57 g/m*3 15.6 C 0 km/h
2622 10-09-2010 20:44:03 15.6 C 11.57 g/m*3 15.6 C 0 km/h
2623 10-09-2010 20:56:02 15.7 C 11.64 g/m*3 15.7 C 0 km/h
2624 10-09-2010 21:08:01 15.8 C 11.71 g/m*3 15.8 C 0 km/h
2625 10-09-2010 21:20:02 15.8 C 11.71 g/m*3 15.8 C 0 km/h
Sensor: Nr:Datum:Temp:Abs-Feuchte:Windchill:Wind:
Aussen-T/F 2626 10-09-2010 21:32:02 15.8 C 11.71 g/m*3 15.8 C 0 km/h
2627 10-09-2010 21:44:02 15.8 C 11.71 g/m*3 15.8 C 0 km/h
2628 10-09-2010 21:56:02 15.8 C 11.58 g/m*3 15.8 C 0 km/h
2629 10-09-2010 22:08:01 15.8 C 11.58 g/m*3 15.8 C 0 km/h
2630 10-09-2010 22:20:02 15.8 C 11.58 g/m*3 15.8 C 0 km/h
2631 10-09-2010 22:32:01 15.7 C 11.51 g/m*3 15.7 C 0 km/h
2632 10-09-2010 22:44:01 15.6 C 11.3 g/m*3 15.6 C 0 km/h
2633 10-09-2010 22:57:03 15.5 C 11.24 g/m*3 15.5 C 0 km/h
2634 10-09-2010 23:09:03 15.6 C 11.3 g/m*3 15.6 C 0 km/h
2635 10-09-2010 23:21:03 15.5 C 11.24 g/m*3 15.5 C 0 km/h
2636 10-09-2010 23:33:03 15.5 C 11.24 g/m*3 15.5 C 0 km/h
2637 10-09-2010 23:45:03 15.4 C 11.17 g/m*3 15.4 C 0 km/h
2638 10-09-2010 23:57:03 15.3 C 10.97 g/m*3 15.3 C 0 km/h
2639 11-09-2010 00:09:03 15.2 C 10.9 g/m*3 15.2 C 0 km/h
2640 11-09-2010 00:21:03 15.2 C 10.9 g/m*3 15.2 C 0 km/h
2641 11-09-2010 00:33:03 15.1 C 10.84 g/m*3 15.1 C 0 km/h
2642 11-09-2010 00:45:03 15.1 C 10.84 g/m*3 15.1 C 0 km/h
2643 11-09-2010 00:57:03 15.1 C 10.84 g/m*3 15.1 C 0 km/h
2644 11-09-2010 01:09:03 15.1 C 10.84 g/m*3 15.1 C 0 km/h
2645 11-09-2010 01:21:03 15 C 10.77 g/m*3 15 C 0 km/h
2646 11-09-2010 01:33:03 15 C 10.77 g/m*3 15 C 0 km/h
2647 11-09-2010 01:45:04 15 C 10.77 g/m*3 15 C 0 km/h
2648 11-09-2010 01:57:04 14.9 C 10.83 g/m*3 14.9 C 0 km/h
2649 11-09-2010 02:09:04 14.9 C 10.83 g/m*3 14.9 C 0 km/h
2650 11-09-2010 02:21:04 14.8 C 10.77 g/m*3 14.8 C 0 km/h
Sensor: Nr:Datum:Temp:Abs-Feuchte:Windchill:Wind:
Aussen-T/F 2651 11-09-2010 02:33:04 14.7 C 10.58 g/m*3 14.7 C 0 km/h
2652 11-09-2010 02:45:04 14.7 C 10.7 g/m*3 14.7 C 0 km/h
2653 11-09-2010 02:57:04 14.6 C 10.76 g/m*3 14.6 C 0 km/h
2654 11-09-2010 03:09:04 14.4 C 10.63 g/m*3 14.4 C 0 km/h
2655 11-09-2010 03:21:04 14.3 C 10.57 g/m*3 14.3 C 0 km/h
2656 11-09-2010 03:33:04 14.1 C 10.44 g/m*3 14.1 C 0 km/h
2657 11-09-2010 03:45:04 14 C 10.37 g/m*3 14 C 0 km/h
2658 11-09-2010 03:57:04 13.6 C 10.12 g/m*3 13.6 C 0 km/h
2659 11-09-2010 04:09:04 13.5 C 10.06 g/m*3 13.5 C 0 km/h
2660 11-09-2010 04:21:04 13.3 C 9.94 g/m*3 13.3 C 0 km/h
2661 11-09-2010 04:33:04 13.1 C 9.81 g/m*3 13.1 C 0 km/h
2662 11-09-2010 04:45:04 13 C 9.75 g/m*3 13 C 0 km/h
2663 11-09-2010 04:57:04 12.8 C 9.74 g/m*3 12.8 C 0 km/h
2664 11-09-2010 05:09:04 12.6 C 9.62 g/m*3 12.6 C 0 km/h
2665 11-09-2010 05:21:04 12.5 C 9.68 g/m*3 12.5 C 0 km/h
2666 11-09-2010 05:33:04 12.6 C 9.74 g/m*3 12.6 C 0 km/h
2667 11-09-2010 05:45:05 12.7 C 9.91 g/m*3 12.7 C 0 km/h
2668 11-09-2010 05:57:05 12.8 C 9.97 g/m*3 12.8 C 0 km/h
2669 11-09-2010 06:09:05 13 C 10.09 g/m*3 13 C 0 km/h
2670 11-09-2010 06:21:05 13.1 C 10.16 g/m*3 13.1 C 0 km/h
2671 11-09-2010 06:33:05 12.8 C 9.97 g/m*3 12.8 C 0 km/h
2672 11-09-2010 06:45:05 12.5 C 9.78 g/m*3 12.5 C 0 km/h
2673 11-09-2010 06:57:05 12.3 C 9.56 g/m*3 12.3 C 0 km/h
2674 11-09-2010 07:09:05 12.1 C 9.44 g/m*3 12.1 C 0 km/h
2675 11-09-2010 07:21:05 12.1 C 9.44 g/m*3 12.1 C 0 km/h
Sensor: Nr:Datum:Temp:Abs-Feuchte:Windchill:Wind:
Aussen-T/F 2676 11-09-2010 07:33:05 12.1 C 9.54 g/m*3 12.1 C 0 km/h
2677 11-09-2010 07:45:05 12.1 C 9.54 g/m*3 12.1 C 0 km/h
2678 11-09-2010 07:57:05 12.4 C 9.72 g/m*3 12.4 C 0 km/h
2679 11-09-2010 08:09:05 12.7 C 10.02 g/m*3 12.7 C 0 km/h
2680 11-09-2010 08:21:03 13 C 10.21 g/m*3 13 C 0 km/h
2681 11-09-2010 08:33:02 13 C 10.21 g/m*3 13 C 0 km/h
2682 11-09-2010 08:45:02 13.1 C 10.27 g/m*3 13.1 C 0 km/h
2683 11-09-2010 08:57:02 13.4 C 10.46 g/m*3 13.4 C 0 km/h
2684 11-09-2010 09:09:02 13.4 C 10.35 g/m*3 13.4 C 0 km/h
2685 11-09-2010 09:21:02 13.5 C 10.41 g/m*3 13.5 C 0 km/h
2686 11-09-2010 09:33:02 13.7 C 10.54 g/m*3 13.7 C 0 km/h
2687 11-09-2010 09:45:01 13.9 C 10.67 g/m*3 13.9 C 0 km/h
2688 11-09-2010 09:57:01 14.3 C 10.81 g/m*3 14.3 C 0 km/h
2689 11-09-2010 10:09:02 14.7 C 11.08 g/m*3 14.7 C 0 km/h
2690 11-09-2010 10:21:01 15 C 11.03 g/m*3 15 C 0 km/h
2691 11-09-2010 10:33:01 15.6 C 11.3 g/m*3 15.6 C 0 km/h
2692 11-09-2010 10:45:01 16.2 C 11.45 g/m*3 16.2 C 0 km/h
2693 11-09-2010 10:57:01 16.8 C 11.72 g/m*3 16.8 C 0 km/h
2694 11-09-2010 11:09:01 17.1 C 11.5 g/m*3 17.1 C 0 km/h
2695 11-09-2010 11:21:02 17.5 C 11.18 g/m*3 17.5 C 0 km/h
2696 11-09-2010 11:33:01 18.2 C 11.35 g/m*3 18.2 C 0 km/h
2697 11-09-2010 11:45:03 19.1 C 11.31 g/m*3 19.1 C 0 km/h
2698 11-09-2010 11:57:03 19.3 C 11.44 g/m*3 19.3 C 0 km/h
2699 11-09-2010 12:09:02 19.2 C 9.89 g/m*3 19.2 C 0 km/h
2700 11-09-2010 12:21:02 19.6 C 9.96 g/m*3 19.6 C 0 km/h
Sensor: Nr:Datum:Temp:Abs-Feuchte:Windchill:Wind:
Aussen-T/F 2701 11-09-2010 12:33:02 19.9 C 9.45 g/m*3 19.9 C 0 km/h
2702 11-09-2010 12:45:02 20.2 C 9.27 g/m*3 20.2 C 0 km/h
2703 11-09-2010 12:57:02 20.6 C 9.31 g/m*3 20.6 C 0 km/h
2704 11-09-2010 13:09:02 20.9 C 9.11 g/m*3 20.9 C 0 km/h
2705 11-09-2010 13:21:02 21.3 C 8.76 g/m*3 21.3 C 0 km/h
2706 11-09-2010 13:33:01 21.7 C 8.97 g/m*3 21.7 C 0 km/h
2707 11-09-2010 13:45:02 22.2 C 8.44 g/m*3 22.2 C 0 km/h
2708 11-09-2010 13:57:03 22.7 C 8.69 g/m*3 22.7 C 0 km/h
2709 11-09-2010 14:09:01 23.3 C 8.15 g/m*3 23.3 C 0 km/h
2710 11-09-2010 14:21:01 23.9 C 8.44 g/m*3 23.9 C 0 km/h
2711 11-09-2010 14:33:02 24.3 C 8.19 g/m*3 24.3 C 0 km/h
2712 11-09-2010 14:45:02 24.5 C 7.83 g/m*3 24.5 C 0 km/h
2713 11-09-2010 14:57:02 25 C 8.06 g/m*3 25 C 0 km/h
2714 11-09-2010 15:09:02 25.6 C 8.09 g/m*3 25.6 C 0 km/h
2715 11-09-2010 15:21:02 25.7 C 7.9 g/m*3 25.7 C 0 km/h
2716 11-09-2010 15:33:02 25.6 C 8.57 g/m*3 25.6 C 0 km/h
2717 11-09-2010 15:45:02 26.5 C 7.51 g/m*3 26.5 C 0 km/h
2718 11-09-2010 15:57:02 26.8 C 7.13 g/m*3 26.8 C 0 km/h
2719 11-09-2010 16:09:02 25.7 C 7.66 g/m*3 25.7 C 0 km/h
2720 11-09-2010 16:21:02 25.3 C 9.13 g/m*3 25.3 C 0 km/h
2721 11-09-2010 16:33:02 26.5 C 8.01 g/m*3 26.5 C 0 km/h
2722 11-09-2010 16:45:02 26.4 C 7.72 g/m*3 26.4 C 0 km/h
2723 11-09-2010 16:57:02 27.8 C 8.34 g/m*3 27.8 C 0 km/h
2724 11-09-2010 17:09:02 28 C 7.61 g/m*3 28 C 0 km/h
2725 11-09-2010 17:21:02 27.3 C 7.85 g/m*3 27.3 C 0 km/h
Sensor: Nr:Datum:Temp:Abs-Feuchte:Windchill:Wind:
Aussen-T/F 2726 11-09-2010 17:33:02 27.5 C 8.47 g/m*3 27.5 C 0 km/h
2727 11-09-2010 17:45:02 27.6 C 8.78 g/m*3 27.6 C 0 km/h
2728 11-09-2010 17:57:02 27.7 C 8.83 g/m*3 27.7 C 0 km/h
2729 11-09-2010 18:09:02 27.5 C 9.26 g/m*3 27.5 C 0 km/h
2730 11-09-2010 18:21:02 26.8 C 9.16 g/m*3 26.8 C 0 km/h
2731 11-09-2010 18:33:01 26.3 C 8.91 g/m*3 26.3 C 0 km/h
2732 11-09-2010 18:45:02 25.3 C 9.36 g/m*3 25.3 C 0 km/h
2733 11-09-2010 18:57:02 24.4 C 9.57 g/m*3 24.4 C 0 km/h
2734 11-09-2010 19:09:01 23.7 C 9.63 g/m*3 23.7 C 0 km/h
2735 11-09-2010 19:21:02 22.6 C 9.64 g/m*3 22.6 C 0 km/h
2736 11-09-2010 19:33:02 21.6 C 10.05 g/m*3 21.6 C 0 km/h
2737 11-09-2010 19:45:02 20.7 C 9.72 g/m*3 20.7 C 0 km/h
2738 11-09-2010 19:57:02 20.2 C 9.44 g/m*3 20.2 C 0 km/h
2739 11-09-2010 20:09:02 20 C 9.33 g/m*3 20 C 0 km/h
2740 11-09-2010 20:21:02 19.5 C 9.4 g/m*3 19.5 C 0 km/h
2741 11-09-2010 20:33:02 19.3 C 9.45 g/m*3 19.3 C 0 km/h
2742 11-09-2010 20:45:01 19.1 C 9.67 g/m*3 19.1 C 0 km/h
2743 11-09-2010 20:57:01 18.8 C 9.66 g/m*3 18.8 C 0 km/h
2744 11-09-2010 21:09:02 18.6 C 9.71 g/m*3 18.6 C 0 km/h
2745 11-09-2010 21:21:01 18.4 C 9.91 g/m*3 18.4 C 0 km/h
2746 11-09-2010 21:33:01 18.2 C 10.1 g/m*3 18.2 C 0 km/h
2747 11-09-2010 21:45:01 17.7 C 10.11 g/m*3 17.7 C 0 km/h
2748 11-09-2010 21:57:01 17.6 C 10.2 g/m*3 17.6 C 0 km/h
2749 11-09-2010 22:09:02 17.6 C 10.2 g/m*3 17.6 C 0 km/h
2750 11-09-2010 22:21:01 17.4 C 10.23 g/m*3 17.4 C 0 km/h
Sensor: Nr:Datum:Temp:Abs-Feuchte:Windchill:Wind:
Aussen-T/F 2751 11-09-2010 22:34:03 17.2 C 10.1 g/m*3 17.2 C 0 km/h
2752 11-09-2010 22:46:03 16.9 C 10.36 g/m*3 16.9 C 0 km/h
2753 11-09-2010 22:58:03 16.9 C 10.5 g/m*3 16.9 C 0 km/h
2754 11-09-2010 23:10:03 17 C 10.42 g/m*3 17 C 0 km/h
2755 11-09-2010 23:22:03 16.6 C 10.45 g/m*3 16.6 C 0 km/h
2756 11-09-2010 23:34:03 16.5 C 10.39 g/m*3 16.5 C 0 km/h
2757 11-09-2010 23:46:03 16.4 C 10.33 g/m*3 16.4 C 0 km/h
2758 11-09-2010 23:58:03 16.3 C 10.41 g/m*3 16.3 C 0 km/h
2759 12-09-2010 00:10:03 16.2 C 10.48 g/m*3 16.2 C 0 km/h
2760 12-09-2010 00:22:03 16.2 C 10.48 g/m*3 16.2 C 0 km/h
2761 12-09-2010 00:34:03 16.1 C 10.42 g/m*3 16.1 C 0 km/h
2762 12-09-2010 00:46:03 16 C 10.35 g/m*3 16 C 0 km/h
2763 12-09-2010 00:58:03 15.8 C 10.36 g/m*3 15.8 C 0 km/h
2764 12-09-2010 01:10:03 15.6 C 10.37 g/m*3 15.6 C 0 km/h
2765 12-09-2010 01:22:04 15.5 C 10.31 g/m*3 15.5 C 0 km/h
2766 12-09-2010 01:34:04 15.2 C 10.25 g/m*3 15.2 C 0 km/h
2767 12-09-2010 01:46:04 15.2 C 10.38 g/m*3 15.2 C 0 km/h
2768 12-09-2010 01:58:04 15.2 C 10.38 g/m*3 15.2 C 0 km/h
2769 12-09-2010 02:10:04 15 C 10.26 g/m*3 15 C 0 km/h
2770 12-09-2010 02:22:04 15 C 10.39 g/m*3 15 C 0 km/h
2771 12-09-2010 02:34:04 14.9 C 10.45 g/m*3 14.9 C 0 km/h
2772 12-09-2010 02:46:04 14.8 C 10.51 g/m*3 14.8 C 0 km/h
2773 12-09-2010 02:58:04 14.7 C 10.32 g/m*3 14.7 C 0 km/h
2774 12-09-2010 03:10:04 14.7 C 10.32 g/m*3 14.7 C 0 km/h
2775 12-09-2010 03:22:04 14.6 C 10.26 g/m*3 14.6 C 0 km/h
Sensor: Nr:Datum:Temp:Abs-Feuchte:Windchill:Wind:
Aussen-T/F 2776 12-09-2010 03:34:04 14.4 C 10.14 g/m*3 14.4 C 0 km/h
2777 12-09-2010 03:46:04 14.3 C 10.07 g/m*3 14.3 C 0 km/h
2778 12-09-2010 03:58:04 14.3 C 10.2 g/m*3 14.3 C 0 km/h
2779 12-09-2010 04:10:04 14.2 C 10.14 g/m*3 14.2 C 0 km/h
2780 12-09-2010 04:22:04 14.1 C 10.07 g/m*3 14.1 C 0 km/h
2781 12-09-2010 04:34:05 14.1 C 10.07 g/m*3 14.1 C 0 km/h
2782 12-09-2010 04:46:05 14.1 C 10.07 g/m*3 14.1 C 0 km/h
2783 12-09-2010 04:58:05 14 C 10.01 g/m*3 14 C 0 km/h
2784 12-09-2010 05:10:05 13.9 C 10.07 g/m*3 13.9 C 0 km/h
2785 12-09-2010 05:22:05 13.7 C 9.95 g/m*3 13.7 C 0 km/h
2786 12-09-2010 05:34:05 13.8 C 10.01 g/m*3 13.8 C 0 km/h
2787 12-09-2010 05:46:05 13.7 C 9.95 g/m*3 13.7 C 0 km/h
2788 12-09-2010 05:58:05 13.7 C 9.95 g/m*3 13.7 C 0 km/h
2789 12-09-2010 06:10:05 13.7 C 9.95 g/m*3 13.7 C 0 km/h
2790 12-09-2010 06:22:05 13.5 C 9.94 g/m*3 13.5 C 0 km/h
2791 12-09-2010 06:34:05 13.5 C 9.94 g/m*3 13.5 C 0 km/h
2792 12-09-2010 06:46:05 13.5 C 9.94 g/m*3 13.5 C 0 km/h
2793 12-09-2010 06:58:05 13.4 C 9.88 g/m*3 13.4 C 0 km/h
2794 12-09-2010 07:10:05 13.5 C 9.94 g/m*3 13.5 C 0 km/h
2795 12-09-2010 07:22:05 13.5 C 10.06 g/m*3 13.5 C 0 km/h
2796 12-09-2010 07:34:05 13.6 C 10.12 g/m*3 13.6 C 0 km/h
2797 12-09-2010 07:46:02 13.8 C 10.25 g/m*3 13.8 C 0 km/h
2798 12-09-2010 07:58:02 14.1 C 10.32 g/m*3 14.1 C 0 km/h
2799 12-09-2010 08:10:02 14.1 C 10.32 g/m*3 14.1 C 0 km/h
2800 12-09-2010 08:22:01 14.4 C 10.38 g/m*3 14.4 C 0 km/h
Sensor: Nr:Datum:Temp:Abs-Feuchte:Windchill:Wind:
Aussen-T/F 2801 12-09-2010 08:34:02 14.5 C 10.32 g/m*3 14.5 C 0 km/h
2802 12-09-2010 08:46:02 14 C 10.13 g/m*3 14 C 0 km/h
2803 12-09-2010 08:58:02 14.3 C 10.32 g/m*3 14.3 C 0 km/h
2804 12-09-2010 09:10:02 14.8 C 10.64 g/m*3 14.8 C 0 km/h
2805 12-09-2010 09:22:02 14.8 C 10.39 g/m*3 14.8 C 0 km/h
2806 12-09-2010 09:34:02 14.8 C 10.51 g/m*3 14.8 C 0 km/h
2807 12-09-2010 09:46:02 15 C 10.51 g/m*3 15 C 0 km/h
2808 12-09-2010 09:58:02 14.8 C 10.51 g/m*3 14.8 C 0 km/h
2809 12-09-2010 10:10:02 15.3 C 10.84 g/m*3 15.3 C 0 km/h
2810 12-09-2010 10:22:03 15.9 C 11.1 g/m*3 15.9 C 0 km/h
2811 12-09-2010 10:34:02 16.8 C 11.29 g/m*3 16.8 C 0 km/h
2812 12-09-2010 10:46:02 18 C 11.37 g/m*3 18 C 0 km/h
2813 12-09-2010 10:58:02 18.7 C 11.05 g/m*3 18.7 C 0 km/h
2814 12-09-2010 11:10:02 19.5 C 10.41 g/m*3 19.5 C 0 km/h
2815 12-09-2010 11:22:02 20.2 C 10.67 g/m*3 20.2 C 0 km/h
2816 12-09-2010 11:34:02 20.1 C 10.6 g/m*3 20.1 C 0 km/h
2817 12-09-2010 11:46:02 20 C 10.89 g/m*3 20 C 0 km/h
2818 12-09-2010 11:58:02 20.3 C 10.9 g/m*3 20.3 C 0 km/h
2819 12-09-2010 12:10:01 20.5 C 10.85 g/m*3 20.5 C 0 km/h
2820 12-09-2010 12:22:02 20.9 C 11.11 g/m*3 20.9 C 0 km/h
2821 12-09-2010 12:34:01 21.4 C 11.06 g/m*3 21.4 C 0 km/h
2822 12-09-2010 12:46:01 22.4 C 10.33 g/m*3 22.4 C 0 km/h
2823 12-09-2010 12:58:02 22.9 C 10.22 g/m*3 22.9 C 0 km/h
2824 12-09-2010 13:10:01 23.1 C 10.34 g/m*3 23.1 C 0 km/h
2825 12-09-2010 13:22:01 23.7 C 10.48 g/m*3 23.7 C 0 km/h
Sensor: Nr:Datum:Temp:Abs-Feuchte:Windchill:Wind:
Aussen-T/F 2826 12-09-2010 13:34:02 24.3 C 9.74 g/m*3 24.3 C 0 km/h
2827 12-09-2010 13:46:02 25 C 8.98 g/m*3 25 C 0 km/h
2828 12-09-2010 13:58:02 25.9 C 9.44 g/m*3 25.9 C 0 km/h
2829 12-09-2010 14:10:02 25.7 C 9.34 g/m*3 25.7 C 0 km/h
2830 12-09-2010 14:22:01 25 C 8.06 g/m*3 25 C 0 km/h
2831 12-09-2010 14:34:02 24.7 C 8.15 g/m*3 24.7 C 0 km/h
2832 12-09-2010 14:46:02 23.1 C 9.72 g/m*3 23.1 C 0 km/h
2833 12-09-2010 14:58:02 20.8 C 10.14 g/m*3 20.8 C 0 km/h
2834 12-09-2010 15:10:02 19.5 C 9.23 g/m*3 19.5 C 0 km/h
2835 12-09-2010 15:22:02 19.1 C 8.69 g/m*3 19.1 C 0 km/h
2836 12-09-2010 15:34:02 19.4 C 8.84 g/m*3 19.4 C 0 km/h
2837 12-09-2010 15:46:02 19.4 C 8.84 g/m*3 19.4 C 0 km/h
2838 12-09-2010 15:58:02 19.2 C 8.74 g/m*3 19.2 C 0 km/h
2839 12-09-2010 16:10:02 17.9 C 8.86 g/m*3 17.9 C 0 km/h
2840 12-09-2010 16:22:02 18.1 C 9.12 g/m*3 18.1 C 0 km/h
2841 12-09-2010 16:34:02 18.1 C 9.27 g/m*3 18.1 C 0 km/h
2842 12-09-2010 16:46:02 17.6 C 9.3 g/m*3 17.6 C 0 km/h
2843 12-09-2010 16:58:02 17.2 C 9.37 g/m*3 17.2 C 0 km/h
2844 12-09-2010 17:10:02 17.2 C 9.52 g/m*3 17.2 C 0 km/h
2845 12-09-2010 17:22:02 16.6 C 9.04 g/m*3 16.6 C 0 km/h
2846 12-09-2010 17:34:01 16.1 C 9.46 g/m*3 16.1 C 0 km/h
2847 12-09-2010 17:46:02 15.6 C 9.97 g/m*3 15.6 C 0 km/h
2848 12-09-2010 17:58:02 15.5 C 10.31 g/m*3 15.5 C 0 km/h
2849 12-09-2010 18:10:01 15.2 C 10.25 g/m*3 15.2 C 0 km/h
2850 12-09-2010 18:22:02 15.2 C 10.51 g/m*3 15.2 C 0 km/h
Sensor: Nr:Datum:Temp:Abs-Feuchte:Windchill:Wind:
Aussen-T/F 2851 12-09-2010 18:34:02 14.9 C 10.58 g/m*3 14.9 C 0 km/h
2852 12-09-2010 18:46:02 14.7 C 10.7 g/m*3 14.7 C 0 km/h
2853 12-09-2010 18:58:02 14.6 C 10.89 g/m*3 14.6 C 0 km/h
2854 12-09-2010 19:10:02 14.5 C 10.82 g/m*3 14.5 C 0 km/h
2855 12-09-2010 19:22:02 14.3 C 10.69 g/m*3 14.3 C 0 km/h
2856 12-09-2010 19:34:02 14.1 C 10.68 g/m*3 14.1 C 0 km/h
2857 12-09-2010 19:46:01 14.3 C 10.93 g/m*3 14.3 C 0 km/h
2858 12-09-2010 19:58:01 14.1 C 10.8 g/m*3 14.1 C 0 km/h
2859 12-09-2010 20:10:02 14 C 10.74 g/m*3 14 C 0 km/h
2860 12-09-2010 20:22:01 13.9 C 10.79 g/m*3 13.9 C 0 km/h
2861 12-09-2010 20:34:01 13.8 C 10.84 g/m*3 13.8 C 0 km/h
2862 12-09-2010 20:46:01 13.7 C 10.78 g/m*3 13.7 C 0 km/h
2863 12-09-2010 20:58:01 13.7 C 10.89 g/m*3 13.7 C 0 km/h
2864 12-09-2010 21:10:02 13.6 C 10.83 g/m*3 13.6 C 0 km/h
2865 12-09-2010 21:22:01 13.7 C 10.89 g/m*3 13.7 C 0 km/h
2866 12-09-2010 21:34:01 13.7 C 10.89 g/m*3 13.7 C 0 km/h
2867 12-09-2010 21:46:01 13.9 C 11.15 g/m*3 13.9 C 0 km/h
2868 12-09-2010 21:58:01 14 C 11.1 g/m*3 14 C 0 km/h
2869 12-09-2010 22:10:02 13.9 C 11.15 g/m*3 13.9 C 0 km/h
2870 12-09-2010 22:22:01 13.9 C 11.15 g/m*3 13.9 C 0 km/h
2871 12-09-2010 22:34:02 13.8 C 11.08 g/m*3 13.8 C 0 km/h
2872 12-09-2010 22:46:02 13.7 C 11.01 g/m*3 13.7 C 0 km/h
2873 12-09-2010 22:58:02 13.6 C 10.95 g/m*3 13.6 C 0 km/h
2874 12-09-2010 23:10:01 13.5 C 10.88 g/m*3 13.5 C 0 km/h
2875 12-09-2010 23:22:02 13.5 C 10.88 g/m*3 13.5 C 0 km/h
Sensor: Nr:Datum:Temp:Abs-Feuchte:Windchill:Wind:
Aussen-T/F 2876 12-09-2010 23:34:02 13.5 C 10.88 g/m*3 13.5 C 0 km/h
2877 12-09-2010 23:46:02 13.7 C 11.01 g/m*3 13.7 C 0 km/h
2878 12-09-2010 23:58:02 13.7 C 11.01 g/m*3 13.7 C 0 km/h
2879 13-09-2010 00:10:03 13.7 C 11.01 g/m*3 13.7 C 0 km/h
2880 13-09-2010 00:22:02 13.6 C 10.95 g/m*3 13.6 C 0 km/h
2881 13-09-2010 00:34:02 13.7 C 11.01 g/m*3 13.7 C 0 km/h
2882 13-09-2010 00:46:02 13.7 C 11.01 g/m*3 13.7 C 0 km/h
2883 13-09-2010 00:58:02 13.7 C 11.01 g/m*3 13.7 C 0 km/h
2884 13-09-2010 01:10:02 13.6 C 10.95 g/m*3 13.6 C 0 km/h
2885 13-09-2010 01:22:03 13.7 C 11.01 g/m*3 13.7 C 0 km/h
2886 13-09-2010 01:34:02 13.8 C 11.08 g/m*3 13.8 C 0 km/h
2887 13-09-2010 01:46:02 13.7 C 11.01 g/m*3 13.7 C 0 km/h
2888 13-09-2010 01:58:02 13.7 C 11.01 g/m*3 13.7 C 0 km/h
2889 13-09-2010 02:10:02 13.7 C 11.01 g/m*3 13.7 C 0 km/h
2890 13-09-2010 02:22:02 13.5 C 10.88 g/m*3 13.5 C 0 km/h
2891 13-09-2010 02:34:02 13.4 C 10.81 g/m*3 13.4 C 0 km/h
2892 13-09-2010 02:46:02 13.4 C 10.81 g/m*3 13.4 C 0 km/h
2893 13-09-2010 02:58:02 13.6 C 10.95 g/m*3 13.6 C 0 km/h
2894 13-09-2010 03:10:01 13.5 C 10.88 g/m*3 13.5 C 0 km/h
2895 13-09-2010 03:22:01 13.3 C 10.63 g/m*3 13.3 C 0 km/h
2896 13-09-2010 03:34:02 13.2 C 10.56 g/m*3 13.2 C 0 km/h
2897 13-09-2010 03:46:02 13.2 C 10.45 g/m*3 13.2 C 0 km/h
2898 13-09-2010 03:58:02 13.1 C 10.38 g/m*3 13.1 C 0 km/h
2899 13-09-2010 04:10:01 13 C 10.21 g/m*3 13 C 0 km/h
2900 13-09-2010 04:22:02 12.8 C 10.19 g/m*3 12.8 C 0 km/h
Sensor: Nr:Datum:Temp:Abs-Feuchte:Windchill:Wind:
Aussen-T/F 2901 13-09-2010 04:34:01 12.9 C 10.26 g/m*3 12.9 C 0 km/h
2902 13-09-2010 04:46:01 13.1 C 10.16 g/m*3 13.1 C 0 km/h
2903 13-09-2010 04:58:02 13.2 C 10.22 g/m*3 13.2 C 0 km/h
2904 13-09-2010 05:10:01 13.3 C 10.05 g/m*3 13.3 C 0 km/h
2905 13-09-2010 05:22:01 13.3 C 9.82 g/m*3 13.3 C 0 km/h
2906 13-09-2010 05:34:02 13.2 C 9.64 g/m*3 13.2 C 0 km/h
2907 13-09-2010 05:46:01 13.2 C 9.64 g/m*3 13.2 C 0 km/h
2908 13-09-2010 05:58:01 13.3 C 9.7 g/m*3 13.3 C 0 km/h
2909 13-09-2010 06:10:02 13.4 C 9.76 g/m*3 13.4 C 0 km/h
2910 13-09-2010 06:22:01 13.4 C 9.65 g/m*3 13.4 C 0 km/h
2911 13-09-2010 06:34:01 13.3 C 9.59 g/m*3 13.3 C 0 km/h
2912 13-09-2010 06:46:01 13.2 C 9.42 g/m*3 13.2 C 0 km/h
2913 13-09-2010 06:58:01 13.2 C 9.42 g/m*3 13.2 C 0 km/h
2914 13-09-2010 07:10:02 13 C 9.19 g/m*3 13 C 0 km/h
2915 13-09-2010 07:22:01 13 C 9.3 g/m*3 13 C 0 km/h
2916 13-09-2010 07:34:01 12.7 C 9.13 g/m*3 12.7 C 0 km/h
2917 13-09-2010 07:46:01 12.5 C 9.13 g/m*3 12.5 C 0 km/h
2918 13-09-2010 07:58:01 12.4 C 9.18 g/m*3 12.4 C 0 km/h
2919 13-09-2010 08:10:01 12.5 C 9.35 g/m*3 12.5 C 0 km/h
2920 13-09-2010 08:22:01 13 C 9.64 g/m*3 13 C 0 km/h
2921 13-09-2010 08:34:01 13.1 C 9.7 g/m*3 13.1 C 0 km/h
2922 13-09-2010 08:46:02 13.2 C 9.64 g/m*3 13.2 C 0 km/h
2923 13-09-2010 08:58:02 13.4 C 9.76 g/m*3 13.4 C 0 km/h
2924 13-09-2010 09:10:01 13.5 C 9.71 g/m*3 13.5 C 0 km/h
2925 13-09-2010 09:22:02 13.7 C 9.71 g/m*3 13.7 C 0 km/h
Sensor: Nr:Datum:Temp:Abs-Feuchte:Windchill:Wind:
Aussen-T/F 2926 13-09-2010 09:34:01 14 C 9.41 g/m*3 14 C 0 km/h
2927 13-09-2010 09:46:02 14.2 C 9.28 g/m*3 14.2 C 0 km/h
2928 13-09-2010 09:58:02 14.5 C 9.2 g/m*3 14.5 C 0 km/h
2929 13-09-2010 10:10:01 14.8 C 9.25 g/m*3 14.8 C 0 km/h
2930 13-09-2010 10:22:01 15 C 9.1 g/m*3 15 C 0 km/h
2931 13-09-2010 10:34:02 15.3 C 9.14 g/m*3 15.3 C 0 km/h
2932 13-09-2010 10:46:01 15.6 C 8.91 g/m*3 15.6 C 0 km/h
2933 13-09-2010 10:58:01 15.9 C 8.8 g/m*3 15.9 C 0 km/h
2934 13-09-2010 11:10:01 16 C 8.58 g/m*3 16 C 0 km/h
2935 13-09-2010 11:22:01 16.4 C 8.65 g/m*3 16.4 C 0 km/h
2936 13-09-2010 11:34:02 16.3 C 8.74 g/m*3 16.3 C 0 km/h
2937 13-09-2010 11:46:01 17.1 C 8.59 g/m*3 17.1 C 0 km/h
2938 13-09-2010 11:58:01 16.7 C 8.24 g/m*3 16.7 C 0 km/h
2939 13-09-2010 12:10:02 16.4 C 8.23 g/m*3 16.4 C 0 km/h
2940 13-09-2010 12:22:01 16.9 C 8.2 g/m*3 16.9 C 0 km/h
2941 13-09-2010 12:34:01 17.6 C 7.8 g/m*3 17.6 C 0 km/h
2942 13-09-2010 12:46:01 17.6 C 7.5 g/m*3 17.6 C 0 km/h
2943 13-09-2010 12:58:01 17.7 C 7.85 g/m*3 17.7 C 0 km/h
2944 13-09-2010 13:10:01 18 C 7.37 g/m*3 18 C 0 km/h
2945 13-09-2010 13:22:01 18.9 C 7.78 g/m*3 18.9 C 0 km/h
2946 13-09-2010 13:34:01 18.9 C 7.45 g/m*3 18.9 C 0 km/h
2947 13-09-2010 13:46:01 18.7 C 7.2 g/m*3 18.7 C 0 km/h
2948 13-09-2010 13:58:01 20.2 C 7.87 g/m*3 20.2 C 0 km/h
2949 13-09-2010 14:10:01 19.9 C 7.22 g/m*3 19.9 C 0 km/h
2950 13-09-2010 14:22:02 19.5 C 6.55 g/m*3 19.5 C 0 km/h
Sensor: Nr:Datum:Temp:Abs-Feuchte:Windchill:Wind:
Aussen-T/F 2951 13-09-2010 14:34:01 19.6 C 6.75 g/m*3 19.6 C 0 km/h
2952 13-09-2010 14:46:02 20.6 C 7.34 g/m*3 20.6 C 0 km/h
2953 13-09-2010 14:58:02 21.3 C 6.9 g/m*3 21.3 C 0 km/h
2954 13-09-2010 15:10:01 20.9 C 6.74 g/m*3 20.9 C 0 km/h
2955 13-09-2010 15:22:01 21.3 C 6.9 g/m*3 21.3 C 0 km/h
2956 13-09-2010 15:34:01 21.2 C 6.67 g/m*3 21.2 C 0 km/h
2957 13-09-2010 15:46:01 20.6 C 7.16 g/m*3 20.6 C 0 km/h
2958 13-09-2010 15:58:01 20 C 7.95 g/m*3 20 C 0 km/h
2959 13-09-2010 16:10:01 20.8 C 7.97 g/m*3 20.8 C 0 km/h
2960 13-09-2010 16:22:02 21.4 C 6.37 g/m*3 21.4 C 0 km/h
2961 13-09-2010 16:34:01 21.4 C 7.5 g/m*3 21.4 C 0 km/h
2962 13-09-2010 16:46:02 21.8 C 6.52 g/m*3 21.8 C 0 km/h
2963 13-09-2010 16:58:02 22.4 C 6.16 g/m*3 22.4 C 0 km/h
2964 13-09-2010 17:10:01 22.3 C 7.11 g/m*3 22.3 C 0 km/h
2965 13-09-2010 17:22:01 20.5 C 7.65 g/m*3 20.5 C 0 km/h
2966 13-09-2010 17:34:01 20.2 C 7.87 g/m*3 20.2 C 0 km/h
2967 13-09-2010 17:46:01 19.8 C 8.37 g/m*3 19.8 C 0 km/h
2968 13-09-2010 17:58:02 19.6 C 8.61 g/m*3 19.6 C 0 km/h
2969 13-09-2010 18:10:02 18.9 C 8.75 g/m*3 18.9 C 0 km/h
2970 13-09-2010 18:22:02 18.4 C 8.65 g/m*3 18.4 C 0 km/h
2971 13-09-2010 18:34:01 18.2 C 8.55 g/m*3 18.2 C 0 km/h
2972 13-09-2010 18:46:02 17.9 C 8.55 g/m*3 17.9 C 0 km/h
2973 13-09-2010 18:58:02 17.7 C 8.6 g/m*3 17.7 C 0 km/h
2974 13-09-2010 19:10:01 17.7 C 8.6 g/m*3 17.7 C 0 km/h
2975 13-09-2010 19:22:02 17.5 C 8.5 g/m*3 17.5 C 0 km/h
Sensor: Nr:Datum:Temp:Abs-Feuchte:Windchill:Wind:
Aussen-T/F 2976 13-09-2010 19:34:01 17 C 8.68 g/m*3 17 C 0 km/h
2977 13-09-2010 19:46:02 16.4 C 8.51 g/m*3 16.4 C 0 km/h
2978 13-09-2010 19:58:02 16 C 8.45 g/m*3 16 C 0 km/h
2979 13-09-2010 20:10:01 15.6 C 8.64 g/m*3 15.6 C 0 km/h
2980 13-09-2010 20:22:01 15.4 C 8.8 g/m*3 15.4 C 0 km/h
2981 13-09-2010 20:34:01 15.2 C 8.96 g/m*3 15.2 C 0 km/h
2982 13-09-2010 20:46:01 15.1 C 9.03 g/m*3 15.1 C 0 km/h
2983 13-09-2010 20:58:02 14.9 C 9.05 g/m*3 14.9 C 0 km/h
2984 13-09-2010 21:10:01 14.7 C 8.94 g/m*3 14.7 C 0 km/h
2985 13-09-2010 21:22:01 14.6 C 9.01 g/m*3 14.6 C 0 km/h
2986 13-09-2010 21:34:02 14.5 C 8.95 g/m*3 14.5 C 0 km/h
2987 13-09-2010 21:46:01 14.4 C 8.9 g/m*3 14.4 C 0 km/h
2988 13-09-2010 21:58:01 14.4 C 9.02 g/m*3 14.4 C 0 km/h
2989 13-09-2010 22:10:01 14.1 C 8.86 g/m*3 14.1 C 0 km/h
2990 13-09-2010 22:23:05 13.8 C 8.82 g/m*3 13.8 C 0 km/h
2991 13-09-2010 22:35:05 13.7 C 8.88 g/m*3 13.7 C 0 km/h
2992 13-09-2010 22:47:05 13.5 C 8.89 g/m*3 13.5 C 0 km/h
2993 13-09-2010 22:59:05 13.4 C 8.83 g/m*3 13.4 C 0 km/h
2994 13-09-2010 23:11:05 13.3 C 8.78 g/m*3 13.3 C 0 km/h
2995 13-09-2010 23:23:05 13.3 C 9.01 g/m*3 13.3 C 0 km/h
2996 13-09-2010 23:35:05 13.1 C 8.9 g/m*3 13.1 C 0 km/h
2997 13-09-2010 23:47:05 13 C 8.73 g/m*3 13 C 0 km/h
2998 13-09-2010 23:59:05 13 C 8.85 g/m*3 13 C 0 km/h
2999 14-09-2010 00:11:05 13 C 8.96 g/m*3 13 C 0 km/h
3000 14-09-2010 00:23:05 12.8 C 9.18 g/m*3 12.8 C 0 km/h
Sensor: Nr:Datum:Temp:Abs-Feuchte:Windchill:Wind:
Aussen-T/F 3001 14-09-2010 00:35:05 12.8 C 9.3 g/m*3 12.8 C 0 km/h
3002 14-09-2010 00:47:05 12.8 C 9.3 g/m*3 12.8 C 0 km/h
3003 14-09-2010 00:59:05 12.7 C 9.24 g/m*3 12.7 C 0 km/h
3004 14-09-2010 01:11:05 12.6 C 9.18 g/m*3 12.6 C 0 km/h
3005 14-09-2010 01:23:05 12.7 C 9.24 g/m*3 12.7 C 0 km/h
3006 14-09-2010 01:35:05 12.8 C 9.3 g/m*3 12.8 C 0 km/h
3007 14-09-2010 01:47:05 12.9 C 9.35 g/m*3 12.9 C 0 km/h
3008 14-09-2010 01:59:05 13 C 9.3 g/m*3 13 C 0 km/h
3009 14-09-2010 02:11:05 13 C 9.3 g/m*3 13 C 0 km/h
3010 14-09-2010 02:23:05 13 C 9.3 g/m*3 13 C 0 km/h
3011 14-09-2010 02:35:06 13.1 C 9.36 g/m*3 13.1 C 0 km/h
3012 14-09-2010 02:47:06 13.2 C 9.42 g/m*3 13.2 C 0 km/h
3013 14-09-2010 02:59:06 13.2 C 9.3 g/m*3 13.2 C 0 km/h
3014 14-09-2010 03:11:06 13.4 C 9.18 g/m*3 13.4 C 0 km/h
3015 14-09-2010 03:23:06 13.4 C 9.18 g/m*3 13.4 C 0 km/h
3016 14-09-2010 03:35:06 13.3 C 9.24 g/m*3 13.3 C 0 km/h
3017 14-09-2010 03:47:06 13.3 C 9.24 g/m*3 13.3 C 0 km/h
3018 14-09-2010 03:59:06 13.4 C 9.3 g/m*3 13.4 C 0 km/h
3019 14-09-2010 04:11:06 13.2 C 9.19 g/m*3 13.2 C 0 km/h
3020 14-09-2010 04:23:06 13 C 9.3 g/m*3 13 C 0 km/h
3021 14-09-2010 04:35:06 12.8 C 9.41 g/m*3 12.8 C 0 km/h
3022 14-09-2010 04:47:06 12.9 C 9.58 g/m*3 12.9 C 0 km/h
3023 14-09-2010 04:59:06 12.8 C 9.63 g/m*3 12.8 C 0 km/h
3024 14-09-2010 05:11:06 12.9 C 9.81 g/m*3 12.9 C 0 km/h
3025 14-09-2010 05:23:06 12.9 C 9.81 g/m*3 12.9 C 0 km/h
Sensor: Nr:Datum:Temp:Abs-Feuchte:Windchill:Wind:
Aussen-T/F 3026 14-09-2010 05:35:06 13 C 9.87 g/m*3 13 C 0 km/h
3027 14-09-2010 05:47:06 13 C 9.87 g/m*3 13 C 0 km/h
3028 14-09-2010 05:59:06 13 C 9.87 g/m*3 13 C 0 km/h
3029 14-09-2010 06:11:06 13.3 C 10.05 g/m*3 13.3 C 0 km/h
3030 14-09-2010 06:23:06 13.5 C 9.83 g/m*3 13.5 C 0 km/h
3031 14-09-2010 06:35:06 13.8 C 9.06 g/m*3 13.8 C 0 km/h
3032 14-09-2010 06:47:06 14.5 C 8.83 g/m*3 14.5 C 0 km/h
3033 14-09-2010 06:59:07 14.4 C 8.53 g/m*3 14.4 C 0 km/h
3034 14-09-2010 07:11:07 14.4 C 8.53 g/m*3 14.4 C 0 km/h
3035 14-09-2010 07:23:07 14.4 C 8.65 g/m*3 14.4 C 0 km/h
3036 14-09-2010 07:35:04 14.3 C 8.85 g/m*3 14.3 C 0 km/h
3037 14-09-2010 07:47:02 13.6 C 9.18 g/m*3 13.6 C 0 km/h
3038 14-09-2010 07:59:02 13.6 C 9.42 g/m*3 13.6 C 0 km/h
3039 14-09-2010 08:11:01 13.7 C 9.47 g/m*3 13.7 C 0 km/h
3040 14-09-2010 08:23:02 13.7 C 9.47 g/m*3 13.7 C 0 km/h
3041 14-09-2010 08:35:02 14.1 C 9.34 g/m*3 14.1 C 0 km/h
3042 14-09-2010 08:47:02 14.4 C 9.15 g/m*3 14.4 C 0 km/h
3043 14-09-2010 08:59:02 14.6 C 9.13 g/m*3 14.6 C 0 km/h
3044 14-09-2010 09:11:01 14.7 C 9.07 g/m*3 14.7 C 0 km/h
3045 14-09-2010 09:23:02 14.8 C 9.12 g/m*3 14.8 C 0 km/h
3046 14-09-2010 09:35:02 15.1 C 9.03 g/m*3 15.1 C 0 km/h
3047 14-09-2010 09:47:01 15.6 C 9.04 g/m*3 15.6 C 0 km/h
3048 14-09-2010 09:59:01 15.6 C 9.04 g/m*3 15.6 C 0 km/h
3049 14-09-2010 10:11:02 15.6 C 9.04 g/m*3 15.6 C 0 km/h
3050 14-09-2010 10:23:01 15.7 C 9.1 g/m*3 15.7 C 0 km/h
Sensor: Nr:Datum:Temp:Abs-Feuchte:Windchill:Wind:
Aussen-T/F 3051 14-09-2010 10:35:01 16 C 8.99 g/m*3 16 C 0 km/h
3052 14-09-2010 10:47:01 16.4 C 8.93 g/m*3 16.4 C 0 km/h
3053 14-09-2010 10:59:01 16.8 C 9.29 g/m*3 16.8 C 0 km/h
3054 14-09-2010 11:11:02 17 C 8.97 g/m*3 17 C 0 km/h
3055 14-09-2010 11:23:01 17.1 C 9.03 g/m*3 17.1 C 0 km/h
3056 14-09-2010 11:35:01 17 C 9.12 g/m*3 17 C 0 km/h
3057 14-09-2010 11:47:01 16.7 C 9.24 g/m*3 16.7 C 0 km/h
3058 14-09-2010 11:59:01 17.5 C 9.39 g/m*3 17.5 C 0 km/h
3059 14-09-2010 12:11:02 17.8 C 9.26 g/m*3 17.8 C 0 km/h
3060 14-09-2010 12:23:02 18.2 C 9.01 g/m*3 18.2 C 0 km/h
3061 14-09-2010 12:35:01 18.5 C 9.18 g/m*3 18.5 C 0 km/h
3062 14-09-2010 12:47:02 18.8 C 9.18 g/m*3 18.8 C 0 km/h
3063 14-09-2010 12:59:02 18.9 C 9.23 g/m*3 18.9 C 0 km/h
3064 14-09-2010 13:11:01 19.6 C 9.28 g/m*3 19.6 C 0 km/h
3065 14-09-2010 13:23:01 19.7 C 9.34 g/m*3 19.7 C 0 km/h
3066 14-09-2010 13:35:01 20.2 C 9.44 g/m*3 20.2 C 0 km/h
3067 14-09-2010 13:47:02 20.4 C 9.02 g/m*3 20.4 C 0 km/h
3068 14-09-2010 13:59:02 20 C 8.99 g/m*3 20 C 0 km/h
3069 14-09-2010 14:11:02 19.7 C 8.83 g/m*3 19.7 C 0 km/h
3070 14-09-2010 14:23:02 19.7 C 9 g/m*3 19.7 C 0 km/h
3071 14-09-2010 14:35:02 19.8 C 8.71 g/m*3 19.8 C 0 km/h
3072 14-09-2010 14:47:01 19.6 C 8.78 g/m*3 19.6 C 0 km/h
3073 14-09-2010 14:59:01 19.5 C 8.89 g/m*3 19.5 C 0 km/h
3074 14-09-2010 15:11:02 20 C 8.81 g/m*3 20 C 0 km/h
3075 14-09-2010 15:23:01 20 C 8.64 g/m*3 20 C 0 km/h
Sensor: Nr:Datum:Temp:Abs-Feuchte:Windchill:Wind:
Aussen-T/F 3076 14-09-2010 15:35:02 20.4 C 8.67 g/m*3 20.4 C 0 km/h
3077 14-09-2010 15:47:01 20.7 C 8.46 g/m*3 20.7 C 0 km/h
3078 14-09-2010 15:59:01 20.9 C 8.56 g/m*3 20.9 C 0 km/h
3079 14-09-2010 16:11:02 20.8 C 8.15 g/m*3 20.8 C 0 km/h
3080 14-09-2010 16:23:01 20.9 C 8.2 g/m*3 20.9 C 0 km/h
3081 14-09-2010 16:35:02 20.6 C 7.7 g/m*3 20.6 C 0 km/h
3082 14-09-2010 16:47:01 20.6 C 7.7 g/m*3 20.6 C 0 km/h
3083 14-09-2010 16:59:01 20.5 C 7.65 g/m*3 20.5 C 0 km/h
3084 14-09-2010 17:11:02 20.5 C 7.47 g/m*3 20.5 C 0 km/h
3085 14-09-2010 17:23:01 20.4 C 7.43 g/m*3 20.4 C 0 km/h
3086 14-09-2010 17:35:01 20 C 7.26 g/m*3 20 C 0 km/h
3087 14-09-2010 17:47:01 20 C 7.43 g/m*3 20 C 0 km/h
3088 14-09-2010 17:59:01 19.8 C 7.69 g/m*3 19.8 C 0 km/h
3089 14-09-2010 18:11:01 19.6 C 7.77 g/m*3 19.6 C 0 km/h
3090 14-09-2010 18:23:02 19.4 C 7.84 g/m*3 19.4 C 0 km/h
3091 14-09-2010 18:35:01 19.3 C 7.8 g/m*3 19.3 C 0 km/h
3092 14-09-2010 18:47:02 19.3 C 7.8 g/m*3 19.3 C 0 km/h
3093 14-09-2010 18:59:02 19.1 C 7.87 g/m*3 19.1 C 0 km/h
3094 14-09-2010 19:11:01 19 C 7.82 g/m*3 19 C 0 km/h
3095 14-09-2010 19:23:01 18.9 C 7.78 g/m*3 18.9 C 0 km/h
3096 14-09-2010 19:35:01 18.7 C 7.68 g/m*3 18.7 C 0 km/h
3097 14-09-2010 19:47:02 18.7 C 7.68 g/m*3 18.7 C 0 km/h
3098 14-09-2010 19:59:03 18.7 C 7.68 g/m*3 18.7 C 0 km/h
3099 14-09-2010 20:11:01 18.7 C 7.68 g/m*3 18.7 C 0 km/h
3100 14-09-2010 20:23:02 18.6 C 7.64 g/m*3 18.6 C 0 km/h
Sensor: Nr:Datum:Temp:Abs-Feuchte:Windchill:Wind:
Aussen-T/F 3101 14-09-2010 20:35:02 18.7 C 7.68 g/m*3 18.7 C 0 km/h
3102 14-09-2010 20:47:02 18.5 C 7.75 g/m*3 18.5 C 0 km/h
3103 14-09-2010 20:59:02 18.5 C 7.75 g/m*3 18.5 C 0 km/h
3104 14-09-2010 21:11:03 18.5 C 7.75 g/m*3 18.5 C 0 km/h
3105 14-09-2010 21:23:02 18.5 C 7.75 g/m*3 18.5 C 0 km/h
3106 14-09-2010 21:35:02 18.6 C 7.96 g/m*3 18.6 C 0 km/h
3107 14-09-2010 21:47:01 18.5 C 7.75 g/m*3 18.5 C 0 km/h
3108 14-09-2010 21:59:01 18.6 C 7.64 g/m*3 18.6 C 0 km/h
3109 14-09-2010 22:12:03 18.6 C 7.8 g/m*3 18.6 C 0 km/h
3110 14-09-2010 22:24:03 18.5 C 7.75 g/m*3 18.5 C 0 km/h
3111 14-09-2010 22:36:03 18.4 C 7.86 g/m*3 18.4 C 0 km/h
3112 14-09-2010 22:48:03 18.5 C 7.91 g/m*3 18.5 C 0 km/h
3113 14-09-2010 23:00:03 18.5 C 7.91 g/m*3 18.5 C 0 km/h
3114 14-09-2010 23:12:03 18.4 C 7.86 g/m*3 18.4 C 0 km/h
3115 14-09-2010 23:24:03 18.2 C 7.77 g/m*3 18.2 C 0 km/h
3116 14-09-2010 23:36:04 18 C 7.99 g/m*3 18 C 0 km/h
3117 14-09-2010 23:48:04 18 C 7.99 g/m*3 18 C 0 km/h
3118 15-09-2010 00:00:04 18 C 7.99 g/m*3 18 C 0 km/h
3119 15-09-2010 00:12:04 18 C 7.83 g/m*3 18 C 0 km/h
3120 15-09-2010 00:24:04 18 C 7.83 g/m*3 18 C 0 km/h
3121 15-09-2010 00:36:04 18 C 7.83 g/m*3 18 C 0 km/h
3122 15-09-2010 00:48:04 18.1 C 7.88 g/m*3 18.1 C 0 km/h
3123 15-09-2010 01:00:04 18.1 C 7.73 g/m*3 18.1 C 0 km/h
3124 15-09-2010 01:12:04 18.1 C 7.73 g/m*3 18.1 C 0 km/h
3125 15-09-2010 01:24:04 18.2 C 7.62 g/m*3 18.2 C 0 km/h
Sensor: Nr:Datum:Temp:Abs-Feuchte:Windchill:Wind:
Aussen-T/F 3126 15-09-2010 01:36:04 18.3 C 7.66 g/m*3 18.3 C 0 km/h
3127 15-09-2010 01:48:04 18.2 C 7.62 g/m*3 18.2 C 0 km/h
3128 15-09-2010 02:00:04 18.3 C 7.66 g/m*3 18.3 C 0 km/h
3129 15-09-2010 02:12:04 18.4 C 7.55 g/m*3 18.4 C 0 km/h
3130 15-09-2010 02:24:04 18.4 C 7.55 g/m*3 18.4 C 0 km/h
3131 15-09-2010 02:36:05 18.3 C 7.66 g/m*3 18.3 C 0 km/h
3132 15-09-2010 02:48:05 18.2 C 7.77 g/m*3 18.2 C 0 km/h
3133 15-09-2010 03:00:05 18.2 C 7.93 g/m*3 18.2 C 0 km/h
3134 15-09-2010 03:12:05 18.1 C 8.03 g/m*3 18.1 C 0 km/h
3135 15-09-2010 03:24:05 18 C 8.29 g/m*3 18 C 0 km/h
3136 15-09-2010 03:36:05 18 C 8.45 g/m*3 18 C 0 km/h
3137 15-09-2010 03:48:05 18 C 8.45 g/m*3 18 C 0 km/h
3138 15-09-2010 04:00:05 17.9 C 8.7 g/m*3 17.9 C 0 km/h
3139 15-09-2010 04:12:05 17.9 C 9.01 g/m*3 17.9 C 0 km/h
3140 15-09-2010 04:24:05 17.7 C 9.05 g/m*3 17.7 C 0 km/h
3141 15-09-2010 04:36:05 17.6 C 9.3 g/m*3 17.6 C 0 km/h
3142 15-09-2010 04:48:05 17.4 C 9.48 g/m*3 17.4 C 0 km/h
3143 15-09-2010 05:00:05 17.4 C 9.48 g/m*3 17.4 C 0 km/h
3144 15-09-2010 05:12:05 16.9 C 10.07 g/m*3 16.9 C 0 km/h
3145 15-09-2010 05:24:05 14.4 C 9.27 g/m*3 14.4 C 0 km/h
3146 15-09-2010 05:36:05 13.3 C 9.7 g/m*3 13.3 C 0 km/h
3147 15-09-2010 05:48:05 13 C 9.87 g/m*3 13 C 0 km/h
3148 15-09-2010 06:00:05 12.9 C 10.03 g/m*3 12.9 C 0 km/h
3149 15-09-2010 06:12:05 12.8 C 10.08 g/m*3 12.8 C 0 km/h
3150 15-09-2010 06:24:05 12.7 C 10.02 g/m*3 12.7 C 0 km/h
Sensor: Nr:Datum:Temp:Abs-Feuchte:Windchill:Wind:
Aussen-T/F 3151 15-09-2010 06:36:05 12.7 C 10.13 g/m*3 12.7 C 0 km/h
3152 15-09-2010 06:48:05 12.8 C 10.19 g/m*3 12.8 C 0 km/h
3153 15-09-2010 07:00:06 12.8 C 10.3 g/m*3 12.8 C 0 km/h
3154 15-09-2010 07:12:06 12.7 C 10.24 g/m*3 12.7 C 0 km/h
3155 15-09-2010 07:24:06 12.7 C 10.24 g/m*3 12.7 C 0 km/h
3156 15-09-2010 07:36:03 12.8 C 10.3 g/m*3 12.8 C 0 km/h
3157 15-09-2010 07:48:02 12.7 C 10.35 g/m*3 12.7 C 0 km/h
3158 15-09-2010 08:00:02 12.6 C 10.29 g/m*3 12.6 C 0 km/h
3159 15-09-2010 08:12:02 12.7 C 10.35 g/m*3 12.7 C 0 km/h
3160 15-09-2010 08:24:02 12.7 C 10.35 g/m*3 12.7 C 0 km/h
3161 15-09-2010 08:36:01 12.8 C 10.42 g/m*3 12.8 C 0 km/h
3162 15-09-2010 08:48:02 12.7 C 10.35 g/m*3 12.7 C 0 km/h
3163 15-09-2010 09:00:02 12.5 C 10.22 g/m*3 12.5 C 0 km/h
3164 15-09-2010 09:12:01 12.7 C 10.35 g/m*3 12.7 C 0 km/h
3165 15-09-2010 09:24:01 12.7 C 10.24 g/m*3 12.7 C 0 km/h
3166 15-09-2010 09:36:02 13.1 C 10.38 g/m*3 13.1 C 0 km/h
3167 15-09-2010 09:48:02 13.6 C 10.59 g/m*3 13.6 C 0 km/h
3168 15-09-2010 10:00:02 14 C 10.49 g/m*3 14 C 0 km/h
3169 15-09-2010 10:12:02 14 C 10.01 g/m*3 14 C 0 km/h
3170 15-09-2010 10:24:02 14.1 C 9.95 g/m*3 14.1 C 0 km/h
3171 15-09-2010 10:36:02 14.1 C 9.71 g/m*3 14.1 C 0 km/h
3172 15-09-2010 10:48:02 14.1 C 9.59 g/m*3 14.1 C 0 km/h
3173 15-09-2010 11:00:02 14.2 C 9.52 g/m*3 14.2 C 0 km/h
3174 15-09-2010 11:12:02 14.6 C 9.01 g/m*3 14.6 C 0 km/h
3175 15-09-2010 11:24:02 15 C 8.72 g/m*3 15 C 0 km/h
Sensor: Nr:Datum:Temp:Abs-Feuchte:Windchill:Wind:
Aussen-T/F 3176 15-09-2010 11:36:02 15.6 C 8.51 g/m*3 15.6 C 0 km/h
3177 15-09-2010 11:48:01 15.7 C 8.43 g/m*3 15.7 C 0 km/h
3178 15-09-2010 12:00:01 16.2 C 7.31 g/m*3 16.2 C 0 km/h
3179 15-09-2010 12:12:01 16.4 C 7.4 g/m*3 16.4 C 0 km/h
3180 15-09-2010 12:24:01 17.2 C 7.18 g/m*3 17.2 C 0 km/h
3181 15-09-2010 12:36:01 16.6 C 7.06 g/m*3 16.6 C 0 km/h
3182 15-09-2010 12:48:02 16.1 C 6.17 g/m*3 16.1 C 0 km/h
3183 15-09-2010 13:00:02 16.1 C 6.44 g/m*3 16.1 C 0 km/h
3184 15-09-2010 13:12:02 16.4 C 6.7 g/m*3 16.4 C 0 km/h
3185 15-09-2010 13:24:02 17.4 C 6.52 g/m*3 17.4 C 0 km/h
3186 15-09-2010 13:36:02 17.9 C 5.95 g/m*3 17.9 C 0 km/h
3187 15-09-2010 13:48:02 18.4 C 5.82 g/m*3 18.4 C 0 km/h
3188 15-09-2010 14:00:02 18.5 C 5.7 g/m*3 18.5 C 0 km/h
3189 15-09-2010 14:12:02 18.1 C 5.87 g/m*3 18.1 C 0 km/h
3190 15-09-2010 14:24:02 18.5 C 5.54 g/m*3 18.5 C 0 km/h
3191 15-09-2010 14:36:02 18.3 C 5.47 g/m*3 18.3 C 0 km/h
3192 15-09-2010 14:48:02 18.5 C 5.7 g/m*3 18.5 C 0 km/h
3193 15-09-2010 15:00:03 19.5 C 5.87 g/m*3 19.5 C 0 km/h
3194 15-09-2010 15:12:01 19.6 C 5.4 g/m*3 19.6 C 0 km/h
3195 15-09-2010 15:24:01 19.3 C 5.64 g/m*3 19.3 C 0 km/h
3196 15-09-2010 15:36:02 19.2 C 5.94 g/m*3 19.2 C 0 km/h
3197 15-09-2010 15:48:02 20 C 5.88 g/m*3 20 C 0 km/h
3198 15-09-2010 16:00:02 19.6 C 5.91 g/m*3 19.6 C 0 km/h
3199 15-09-2010 16:12:02 19.6 C 5.91 g/m*3 19.6 C 0 km/h
3200 15-09-2010 16:24:02 19.3 C 5.97 g/m*3 19.3 C 0 km/h
Sensor: Nr:Datum:Temp:Abs-Feuchte:Windchill:Wind:
Aussen-T/F 3201 15-09-2010 16:36:02 19.6 C 6.08 g/m*3 19.6 C 0 km/h
3202 15-09-2010 16:48:02 19.5 C 6.04 g/m*3 19.5 C 0 km/h
3203 15-09-2010 17:00:02 20.4 C 5.84 g/m*3 20.4 C 0 km/h
3204 15-09-2010 17:12:02 19 C 5.7 g/m*3 19 C 0 km/h
3205 15-09-2010 17:24:02 19.4 C 6.01 g/m*3 19.4 C 0 km/h
3206 15-09-2010 17:36:02 19.9 C 5.84 g/m*3 19.9 C 0 km/h
3207 15-09-2010 17:48:02 19.7 C 5.6 g/m*3 19.7 C 0 km/h
3208 15-09-2010 18:00:02 18.7 C 5.44 g/m*3 18.7 C 0 km/h
3209 15-09-2010 18:12:02 18.2 C 5.28 g/m*3 18.2 C 0 km/h
3210 15-09-2010 18:24:03 17.5 C 5.22 g/m*3 17.5 C 0 km/h
3211 15-09-2010 18:36:02 17.7 C 5.28 g/m*3 17.7 C 0 km/h
3212 15-09-2010 18:48:02 17.1 C 5.39 g/m*3 17.1 C 0 km/h
3213 15-09-2010 19:00:02 16.9 C 5.61 g/m*3 16.9 C 0 km/h
3214 15-09-2010 19:12:02 16.7 C 5.4 g/m*3 16.7 C 0 km/h
3215 15-09-2010 19:24:02 16.6 C 5.65 g/m*3 16.6 C 0 km/h
3216 15-09-2010 19:36:02 16.4 C 5.72 g/m*3 16.4 C 0 km/h
3217 15-09-2010 19:48:02 16.4 C 5.86 g/m*3 16.4 C 0 km/h
3218 15-09-2010 20:00:02 16.2 C 6.07 g/m*3 16.2 C 0 km/h
3219 15-09-2010 20:12:02 16 C 6.27 g/m*3 16 C 0 km/h
3220 15-09-2010 20:24:02 15.8 C 6.46 g/m*3 15.8 C 0 km/h
3221 15-09-2010 20:36:01 15.7 C 6.15 g/m*3 15.7 C 0 km/h
3222 15-09-2010 20:48:02 15.5 C 6.34 g/m*3 15.5 C 0 km/h
3223 15-09-2010 21:00:03 15.4 C 6.31 g/m*3 15.4 C 0 km/h
3224 15-09-2010 21:12:01 15.2 C 6.49 g/m*3 15.2 C 0 km/h